<?xml version="1.0" encoding="UTF-8" standalone="no" ?>
<gpx xmlns="http://www.topografix.com/GPX/1/1" xmlns:xsi="http://www.w3.org/2001/XMLSchema-instance" xsi:schemaLocation="http://www.topografix.com/GPX/1/1 http://www.topografix.com/GPX/1/1/gpx.xsd" version="1.1" creator="VisuGPX - https://www.visugpx.com">
  <metadata>
    <name>Entre Biron et Paulhiac</name>
    <desc><![CDATA[Entre Biron et Paulhiac]]></desc>
  </metadata>
  <trk>
    <name><![CDATA[Entre Biron et Paulhiac_1]]></name>
    <trkseg>
      <trkpt lat="44.63091" lon="0.87146">
        <ele>195</ele>
        <time>2012-10-07T05:53:58Z</time>
      </trkpt>
      <trkpt lat="44.63083" lon="0.87185">
        <ele>200</ele>
        <time>2012-10-07T05:54:33Z</time>
      </trkpt>
      <trkpt lat="44.63081" lon="0.87214">
        <ele>198</ele>
        <time>2012-10-07T05:54:38Z</time>
      </trkpt>
      <trkpt lat="44.63076" lon="0.87251">
        <ele>197</ele>
        <time>2012-10-07T05:54:43Z</time>
      </trkpt>
      <trkpt lat="44.63074" lon="0.87297">
        <ele>197</ele>
        <time>2012-10-07T05:54:49Z</time>
      </trkpt>
      <trkpt lat="44.63068" lon="0.87323">
        <ele>197</ele>
        <time>2012-10-07T05:54:54Z</time>
      </trkpt>
      <trkpt lat="44.63053" lon="0.87338">
        <ele>197</ele>
        <time>2012-10-07T05:54:59Z</time>
      </trkpt>
      <trkpt lat="44.63032" lon="0.87336">
        <ele>196</ele>
        <time>2012-10-07T05:55:04Z</time>
      </trkpt>
      <trkpt lat="44.63002" lon="0.87318">
        <ele>195</ele>
        <time>2012-10-07T05:55:09Z</time>
      </trkpt>
      <trkpt lat="44.6297" lon="0.87299">
        <ele>193</ele>
        <time>2012-10-07T05:55:15Z</time>
      </trkpt>
      <trkpt lat="44.62941" lon="0.87308">
        <ele>191</ele>
        <time>2012-10-07T05:55:20Z</time>
      </trkpt>
      <trkpt lat="44.62903" lon="0.87315">
        <ele>187</ele>
        <time>2012-10-07T05:55:25Z</time>
      </trkpt>
      <trkpt lat="44.62876" lon="0.8734">
        <ele>183</ele>
        <time>2012-10-07T05:55:30Z</time>
      </trkpt>
      <trkpt lat="44.62853" lon="0.8735">
        <ele>180</ele>
        <time>2012-10-07T05:55:35Z</time>
      </trkpt>
      <trkpt lat="44.62827" lon="0.87343">
        <ele>180</ele>
        <time>2012-10-07T05:55:41Z</time>
      </trkpt>
      <trkpt lat="44.62802" lon="0.87339">
        <ele>180</ele>
        <time>2012-10-07T05:55:46Z</time>
      </trkpt>
      <trkpt lat="44.62782" lon="0.87329">
        <ele>180</ele>
        <time>2012-10-07T05:55:52Z</time>
      </trkpt>
      <trkpt lat="44.62766" lon="0.87316">
        <ele>181</ele>
        <time>2012-10-07T05:55:57Z</time>
      </trkpt>
      <trkpt lat="44.62754" lon="0.87304">
        <ele>181</ele>
        <time>2012-10-07T05:56:02Z</time>
      </trkpt>
      <trkpt lat="44.62727" lon="0.87282">
        <ele>181</ele>
        <time>2012-10-07T05:56:08Z</time>
      </trkpt>
      <trkpt lat="44.62696" lon="0.87269">
        <ele>181</ele>
        <time>2012-10-07T05:56:13Z</time>
      </trkpt>
      <trkpt lat="44.62665" lon="0.87264">
        <ele>181</ele>
        <time>2012-10-07T05:56:18Z</time>
      </trkpt>
      <trkpt lat="44.62635" lon="0.87258">
        <ele>180</ele>
        <time>2012-10-07T05:56:24Z</time>
      </trkpt>
      <trkpt lat="44.62616" lon="0.8728">
        <ele>180</ele>
        <time>2012-10-07T05:56:30Z</time>
      </trkpt>
      <trkpt lat="44.62607" lon="0.87288">
        <ele>179</ele>
        <time>2012-10-07T05:56:36Z</time>
      </trkpt>
      <trkpt lat="44.62593" lon="0.87274">
        <ele>179</ele>
        <time>2012-10-07T05:56:41Z</time>
      </trkpt>
      <trkpt lat="44.62584" lon="0.87264">
        <ele>179</ele>
        <time>2012-10-07T05:56:46Z</time>
      </trkpt>
      <trkpt lat="44.62576" lon="0.87256">
        <ele>179</ele>
        <time>2012-10-07T05:56:51Z</time>
      </trkpt>
      <trkpt lat="44.62569" lon="0.87249">
        <ele>179</ele>
        <time>2012-10-07T05:56:56Z</time>
      </trkpt>
      <trkpt lat="44.62561" lon="0.8724">
        <ele>179</ele>
        <time>2012-10-07T05:57:01Z</time>
      </trkpt>
      <trkpt lat="44.6255" lon="0.87229">
        <ele>179</ele>
        <time>2012-10-07T05:57:06Z</time>
      </trkpt>
      <trkpt lat="44.62535" lon="0.87215">
        <ele>179</ele>
        <time>2012-10-07T05:57:11Z</time>
      </trkpt>
      <trkpt lat="44.62521" lon="0.87199">
        <ele>179</ele>
        <time>2012-10-07T05:57:16Z</time>
      </trkpt>
      <trkpt lat="44.62508" lon="0.87185">
        <ele>179</ele>
        <time>2012-10-07T05:57:21Z</time>
      </trkpt>
      <trkpt lat="44.62487" lon="0.87184">
        <ele>179</ele>
        <time>2012-10-07T05:57:27Z</time>
      </trkpt>
      <trkpt lat="44.62463" lon="0.87173">
        <ele>179</ele>
        <time>2012-10-07T05:57:32Z</time>
      </trkpt>
      <trkpt lat="44.62446" lon="0.87216">
        <ele>179</ele>
        <time>2012-10-07T05:57:37Z</time>
      </trkpt>
      <trkpt lat="44.62426" lon="0.87264">
        <ele>179</ele>
        <time>2012-10-07T05:57:42Z</time>
      </trkpt>
      <trkpt lat="44.62408" lon="0.87303">
        <ele>180</ele>
        <time>2012-10-07T05:57:47Z</time>
      </trkpt>
      <trkpt lat="44.62385" lon="0.87346">
        <ele>180</ele>
        <time>2012-10-07T05:57:52Z</time>
      </trkpt>
      <trkpt lat="44.62362" lon="0.87398">
        <ele>180</ele>
        <time>2012-10-07T05:57:58Z</time>
      </trkpt>
      <trkpt lat="44.6234" lon="0.87441">
        <ele>180</ele>
        <time>2012-10-07T05:58:04Z</time>
      </trkpt>
      <trkpt lat="44.62317" lon="0.87479">
        <ele>183</ele>
        <time>2012-10-07T05:58:09Z</time>
      </trkpt>
      <trkpt lat="44.623" lon="0.87467">
        <ele>186</ele>
        <time>2012-10-07T05:58:14Z</time>
      </trkpt>
      <trkpt lat="44.62278" lon="0.87452">
        <ele>186</ele>
        <time>2012-10-07T05:58:19Z</time>
      </trkpt>
      <trkpt lat="44.62255" lon="0.87445">
        <ele>186</ele>
        <time>2012-10-07T05:58:24Z</time>
      </trkpt>
      <trkpt lat="44.62236" lon="0.87439">
        <ele>186</ele>
        <time>2012-10-07T05:58:29Z</time>
      </trkpt>
      <trkpt lat="44.62212" lon="0.8743">
        <ele>186</ele>
        <time>2012-10-07T05:58:34Z</time>
      </trkpt>
      <trkpt lat="44.6219" lon="0.87428">
        <ele>186</ele>
        <time>2012-10-07T05:58:39Z</time>
      </trkpt>
      <trkpt lat="44.62165" lon="0.87427">
        <ele>185</ele>
        <time>2012-10-07T05:58:44Z</time>
      </trkpt>
      <trkpt lat="44.62149" lon="0.87427">
        <ele>184</ele>
        <time>2012-10-07T05:58:49Z</time>
      </trkpt>
      <trkpt lat="44.62125" lon="0.87425">
        <ele>179</ele>
        <time>2012-10-07T05:58:54Z</time>
      </trkpt>
      <trkpt lat="44.62089" lon="0.87437">
        <ele>179</ele>
        <time>2012-10-07T05:59:00Z</time>
      </trkpt>
      <trkpt lat="44.62059" lon="0.87426">
        <ele>182</ele>
        <time>2012-10-07T05:59:05Z</time>
      </trkpt>
      <trkpt lat="44.62027" lon="0.87418">
        <ele>185</ele>
        <time>2012-10-07T05:59:10Z</time>
      </trkpt>
      <trkpt lat="44.61998" lon="0.87407">
        <ele>186</ele>
        <time>2012-10-07T05:59:15Z</time>
      </trkpt>
      <trkpt lat="44.61973" lon="0.87395">
        <ele>186</ele>
        <time>2012-10-07T05:59:21Z</time>
      </trkpt>
      <trkpt lat="44.61951" lon="0.87381">
        <ele>186</ele>
        <time>2012-10-07T05:59:26Z</time>
      </trkpt>
      <trkpt lat="44.6193" lon="0.87377">
        <ele>186</ele>
        <time>2012-10-07T05:59:31Z</time>
      </trkpt>
      <trkpt lat="44.61886" lon="0.87398">
        <ele>186</ele>
        <time>2012-10-07T05:59:36Z</time>
      </trkpt>
      <trkpt lat="44.6186" lon="0.8741">
        <ele>186</ele>
        <time>2012-10-07T05:59:41Z</time>
      </trkpt>
      <trkpt lat="44.61855" lon="0.87416">
        <ele>186</ele>
        <time>2012-10-07T05:59:48Z</time>
      </trkpt>
      <trkpt lat="44.6186" lon="0.87419">
        <ele>186</ele>
        <time>2012-10-07T05:59:53Z</time>
      </trkpt>
      <trkpt lat="44.61859" lon="0.87419">
        <ele>185</ele>
        <time>2012-10-07T06:00:00Z</time>
      </trkpt>
      <trkpt lat="44.61855" lon="0.87418">
        <ele>185</ele>
        <time>2012-10-07T06:00:07Z</time>
      </trkpt>
      <trkpt lat="44.61855" lon="0.87417">
        <ele>180</ele>
        <time>2012-10-07T06:00:17Z</time>
      </trkpt>
      <trkpt lat="44.61852" lon="0.87416">
        <ele>178</ele>
        <time>2012-10-07T06:00:25Z</time>
      </trkpt>
      <trkpt lat="44.61849" lon="0.87416">
        <ele>178</ele>
        <time>2012-10-07T06:00:30Z</time>
      </trkpt>
      <trkpt lat="44.61847" lon="0.87417">
        <ele>178</ele>
        <time>2012-10-07T06:00:35Z</time>
      </trkpt>
      <trkpt lat="44.61846" lon="0.87421">
        <ele>178</ele>
        <time>2012-10-07T06:00:40Z</time>
      </trkpt>
      <trkpt lat="44.61844" lon="0.87425">
        <ele>181</ele>
        <time>2012-10-07T06:00:46Z</time>
      </trkpt>
      <trkpt lat="44.61846" lon="0.87426">
        <ele>181</ele>
        <time>2012-10-07T06:00:56Z</time>
      </trkpt>
      <trkpt lat="44.61847" lon="0.87426">
        <ele>181</ele>
        <time>2012-10-07T06:01:12Z</time>
      </trkpt>
      <trkpt lat="44.61843" lon="0.87426">
        <ele>181</ele>
        <time>2012-10-07T06:01:18Z</time>
      </trkpt>
      <trkpt lat="44.6184" lon="0.87427">
        <ele>181</ele>
        <time>2012-10-07T06:01:23Z</time>
      </trkpt>
      <trkpt lat="44.61836" lon="0.87429">
        <ele>186</ele>
        <time>2012-10-07T06:01:30Z</time>
      </trkpt>
      <trkpt lat="44.61836" lon="0.87426">
        <ele>189</ele>
        <time>2012-10-07T06:01:35Z</time>
      </trkpt>
      <trkpt lat="44.61835" lon="0.87426">
        <ele>198</ele>
        <time>2012-10-07T06:01:44Z</time>
      </trkpt>
      <trkpt lat="44.6184" lon="0.87429">
        <ele>203</ele>
        <time>2012-10-07T06:01:49Z</time>
      </trkpt>
      <trkpt lat="44.61837" lon="0.8743">
        <ele>209</ele>
        <time>2012-10-07T06:01:55Z</time>
      </trkpt>
      <trkpt lat="44.61835" lon="0.87427">
        <ele>209</ele>
        <time>2012-10-07T06:02:01Z</time>
      </trkpt>
      <trkpt lat="44.61838" lon="0.87422">
        <ele>200</ele>
        <time>2012-10-07T06:02:09Z</time>
      </trkpt>
      <trkpt lat="44.61837" lon="0.87424">
        <ele>186</ele>
        <time>2012-10-07T06:02:20Z</time>
      </trkpt>
      <trkpt lat="44.6183" lon="0.87434">
        <ele>181</ele>
        <time>2012-10-07T06:02:25Z</time>
      </trkpt>
      <trkpt lat="44.61817" lon="0.87451">
        <ele>181</ele>
        <time>2012-10-07T06:02:30Z</time>
      </trkpt>
      <trkpt lat="44.61798" lon="0.87455">
        <ele>181</ele>
        <time>2012-10-07T06:02:35Z</time>
      </trkpt>
      <trkpt lat="44.61762" lon="0.87463">
        <ele>182</ele>
        <time>2012-10-07T06:02:41Z</time>
      </trkpt>
      <trkpt lat="44.61731" lon="0.87459">
        <ele>182</ele>
        <time>2012-10-07T06:02:46Z</time>
      </trkpt>
      <trkpt lat="44.61698" lon="0.87444">
        <ele>179</ele>
        <time>2012-10-07T06:02:51Z</time>
      </trkpt>
      <trkpt lat="44.61667" lon="0.8742">
        <ele>177</ele>
        <time>2012-10-07T06:02:56Z</time>
      </trkpt>
      <trkpt lat="44.61642" lon="0.87403">
        <ele>175</ele>
        <time>2012-10-07T06:03:01Z</time>
      </trkpt>
      <trkpt lat="44.61621" lon="0.87388">
        <ele>171</ele>
        <time>2012-10-07T06:03:06Z</time>
      </trkpt>
      <trkpt lat="44.61607" lon="0.87378">
        <ele>169</ele>
        <time>2012-10-07T06:03:11Z</time>
      </trkpt>
      <trkpt lat="44.61597" lon="0.87369">
        <ele>169</ele>
        <time>2012-10-07T06:03:16Z</time>
      </trkpt>
      <trkpt lat="44.61581" lon="0.87363">
        <ele>169</ele>
        <time>2012-10-07T06:03:21Z</time>
      </trkpt>
      <trkpt lat="44.61563" lon="0.87352">
        <ele>169</ele>
        <time>2012-10-07T06:03:26Z</time>
      </trkpt>
      <trkpt lat="44.61543" lon="0.87339">
        <ele>168</ele>
        <time>2012-10-07T06:03:31Z</time>
      </trkpt>
      <trkpt lat="44.61518" lon="0.87325">
        <ele>168</ele>
        <time>2012-10-07T06:03:36Z</time>
      </trkpt>
      <trkpt lat="44.61497" lon="0.87314">
        <ele>168</ele>
        <time>2012-10-07T06:03:41Z</time>
      </trkpt>
      <trkpt lat="44.61471" lon="0.87303">
        <ele>168</ele>
        <time>2012-10-07T06:03:46Z</time>
      </trkpt>
      <trkpt lat="44.61442" lon="0.87293">
        <ele>168</ele>
        <time>2012-10-07T06:03:52Z</time>
      </trkpt>
      <trkpt lat="44.61417" lon="0.87293">
        <ele>168</ele>
        <time>2012-10-07T06:03:57Z</time>
      </trkpt>
      <trkpt lat="44.6139" lon="0.8728">
        <ele>168</ele>
        <time>2012-10-07T06:04:02Z</time>
      </trkpt>
      <trkpt lat="44.61359" lon="0.87266">
        <ele>168</ele>
        <time>2012-10-07T06:04:07Z</time>
      </trkpt>
      <trkpt lat="44.61325" lon="0.87268">
        <ele>168</ele>
        <time>2012-10-07T06:04:12Z</time>
      </trkpt>
      <trkpt lat="44.61284" lon="0.87283">
        <ele>168</ele>
        <time>2012-10-07T06:04:18Z</time>
      </trkpt>
      <trkpt lat="44.61255" lon="0.8728">
        <ele>168</ele>
        <time>2012-10-07T06:04:23Z</time>
      </trkpt>
      <trkpt lat="44.61234" lon="0.87269">
        <ele>168</ele>
        <time>2012-10-07T06:04:28Z</time>
      </trkpt>
      <trkpt lat="44.61206" lon="0.87247">
        <ele>168</ele>
        <time>2012-10-07T06:04:33Z</time>
      </trkpt>
      <trkpt lat="44.61179" lon="0.87227">
        <ele>168</ele>
        <time>2012-10-07T06:04:38Z</time>
      </trkpt>
      <trkpt lat="44.61153" lon="0.8721">
        <ele>168</ele>
        <time>2012-10-07T06:04:43Z</time>
      </trkpt>
      <trkpt lat="44.61124" lon="0.87194">
        <ele>168</ele>
        <time>2012-10-07T06:04:48Z</time>
      </trkpt>
      <trkpt lat="44.6109" lon="0.87176">
        <ele>168</ele>
        <time>2012-10-07T06:04:53Z</time>
      </trkpt>
      <trkpt lat="44.6105" lon="0.8715">
        <ele>168</ele>
        <time>2012-10-07T06:04:59Z</time>
      </trkpt>
      <trkpt lat="44.6103" lon="0.87137">
        <ele>164</ele>
        <time>2012-10-07T06:05:04Z</time>
      </trkpt>
      <trkpt lat="44.61032" lon="0.87116">
        <ele>164</ele>
        <time>2012-10-07T06:05:09Z</time>
      </trkpt>
      <trkpt lat="44.61031" lon="0.8709">
        <ele>164</ele>
        <time>2012-10-07T06:05:14Z</time>
      </trkpt>
      <trkpt lat="44.61025" lon="0.87068">
        <ele>169</ele>
        <time>2012-10-07T06:05:19Z</time>
      </trkpt>
      <trkpt lat="44.61019" lon="0.87052">
        <ele>174</ele>
        <time>2012-10-07T06:05:24Z</time>
      </trkpt>
      <trkpt lat="44.61015" lon="0.87035">
        <ele>182</ele>
        <time>2012-10-07T06:05:29Z</time>
      </trkpt>
      <trkpt lat="44.6102" lon="0.87015">
        <ele>192</ele>
        <time>2012-10-07T06:05:34Z</time>
      </trkpt>
      <trkpt lat="44.61026" lon="0.86998">
        <ele>203</ele>
        <time>2012-10-07T06:05:39Z</time>
      </trkpt>
      <trkpt lat="44.61028" lon="0.86976">
        <ele>210</ele>
        <time>2012-10-07T06:05:44Z</time>
      </trkpt>
      <trkpt lat="44.61031" lon="0.86955">
        <ele>215</ele>
        <time>2012-10-07T06:05:49Z</time>
      </trkpt>
      <trkpt lat="44.61035" lon="0.86937">
        <ele>215</ele>
        <time>2012-10-07T06:05:54Z</time>
      </trkpt>
      <trkpt lat="44.61043" lon="0.8692">
        <ele>215</ele>
        <time>2012-10-07T06:05:59Z</time>
      </trkpt>
      <trkpt lat="44.61054" lon="0.86907">
        <ele>215</ele>
        <time>2012-10-07T06:06:04Z</time>
      </trkpt>
      <trkpt lat="44.6106" lon="0.86891">
        <ele>211</ele>
        <time>2012-10-07T06:06:09Z</time>
      </trkpt>
      <trkpt lat="44.61066" lon="0.86873">
        <ele>208</ele>
        <time>2012-10-07T06:06:14Z</time>
      </trkpt>
      <trkpt lat="44.61068" lon="0.86853">
        <ele>207</ele>
        <time>2012-10-07T06:06:19Z</time>
      </trkpt>
      <trkpt lat="44.61075" lon="0.86838">
        <ele>206</ele>
        <time>2012-10-07T06:06:24Z</time>
      </trkpt>
      <trkpt lat="44.61081" lon="0.86818">
        <ele>204</ele>
        <time>2012-10-07T06:06:29Z</time>
      </trkpt>
      <trkpt lat="44.61087" lon="0.868">
        <ele>204</ele>
        <time>2012-10-07T06:06:34Z</time>
      </trkpt>
      <trkpt lat="44.61089" lon="0.8678">
        <ele>204</ele>
        <time>2012-10-07T06:06:39Z</time>
      </trkpt>
      <trkpt lat="44.61093" lon="0.86761">
        <ele>204</ele>
        <time>2012-10-07T06:06:44Z</time>
      </trkpt>
      <trkpt lat="44.61098" lon="0.86744">
        <ele>206</ele>
        <time>2012-10-07T06:06:49Z</time>
      </trkpt>
      <trkpt lat="44.61102" lon="0.86723">
        <ele>207</ele>
        <time>2012-10-07T06:06:54Z</time>
      </trkpt>
      <trkpt lat="44.61108" lon="0.86702">
        <ele>207</ele>
        <time>2012-10-07T06:06:59Z</time>
      </trkpt>
      <trkpt lat="44.61116" lon="0.86681">
        <ele>207</ele>
        <time>2012-10-07T06:07:04Z</time>
      </trkpt>
      <trkpt lat="44.61122" lon="0.86658">
        <ele>206</ele>
        <time>2012-10-07T06:07:10Z</time>
      </trkpt>
      <trkpt lat="44.61124" lon="0.86638">
        <ele>202</ele>
        <time>2012-10-07T06:07:15Z</time>
      </trkpt>
      <trkpt lat="44.61127" lon="0.86619">
        <ele>200</ele>
        <time>2012-10-07T06:07:20Z</time>
      </trkpt>
      <trkpt lat="44.61135" lon="0.86599">
        <ele>199</ele>
        <time>2012-10-07T06:07:25Z</time>
      </trkpt>
      <trkpt lat="44.61138" lon="0.86598">
        <ele>195</ele>
        <time>2012-10-07T06:07:34Z</time>
      </trkpt>
      <trkpt lat="44.61137" lon="0.86599">
        <ele>195</ele>
        <time>2012-10-07T06:07:46Z</time>
      </trkpt>
      <trkpt lat="44.61137" lon="0.86595">
        <ele>200</ele>
        <time>2012-10-07T06:07:52Z</time>
      </trkpt>
      <trkpt lat="44.6114" lon="0.8659">
        <ele>200</ele>
        <time>2012-10-07T06:07:57Z</time>
      </trkpt>
      <trkpt lat="44.61145" lon="0.86566">
        <ele>199</ele>
        <time>2012-10-07T06:08:03Z</time>
      </trkpt>
      <trkpt lat="44.6115" lon="0.86546">
        <ele>196</ele>
        <time>2012-10-07T06:08:08Z</time>
      </trkpt>
      <trkpt lat="44.61158" lon="0.86528">
        <ele>191</ele>
        <time>2012-10-07T06:08:13Z</time>
      </trkpt>
      <trkpt lat="44.61164" lon="0.86512">
        <ele>188</ele>
        <time>2012-10-07T06:08:18Z</time>
      </trkpt>
      <trkpt lat="44.61171" lon="0.86499">
        <ele>185</ele>
        <time>2012-10-07T06:08:23Z</time>
      </trkpt>
      <trkpt lat="44.61177" lon="0.86481">
        <ele>185</ele>
        <time>2012-10-07T06:08:28Z</time>
      </trkpt>
      <trkpt lat="44.61196" lon="0.86452">
        <ele>183</ele>
        <time>2012-10-07T06:08:34Z</time>
      </trkpt>
      <trkpt lat="44.61213" lon="0.86427">
        <ele>183</ele>
        <time>2012-10-07T06:08:39Z</time>
      </trkpt>
      <trkpt lat="44.61219" lon="0.86402">
        <ele>183</ele>
        <time>2012-10-07T06:08:44Z</time>
      </trkpt>
      <trkpt lat="44.61217" lon="0.86383">
        <ele>183</ele>
        <time>2012-10-07T06:08:49Z</time>
      </trkpt>
      <trkpt lat="44.612" lon="0.86367">
        <ele>186</ele>
        <time>2012-10-07T06:08:54Z</time>
      </trkpt>
      <trkpt lat="44.61182" lon="0.86352">
        <ele>187</ele>
        <time>2012-10-07T06:08:59Z</time>
      </trkpt>
      <trkpt lat="44.61176" lon="0.8633">
        <ele>189</ele>
        <time>2012-10-07T06:09:04Z</time>
      </trkpt>
      <trkpt lat="44.61183" lon="0.863">
        <ele>191</ele>
        <time>2012-10-07T06:09:09Z</time>
      </trkpt>
      <trkpt lat="44.6119" lon="0.86265">
        <ele>194</ele>
        <time>2012-10-07T06:09:14Z</time>
      </trkpt>
      <trkpt lat="44.61192" lon="0.8623">
        <ele>195</ele>
        <time>2012-10-07T06:09:19Z</time>
      </trkpt>
      <trkpt lat="44.61189" lon="0.862">
        <ele>196</ele>
        <time>2012-10-07T06:09:24Z</time>
      </trkpt>
      <trkpt lat="44.61194" lon="0.86163">
        <ele>197</ele>
        <time>2012-10-07T06:09:29Z</time>
      </trkpt>
      <trkpt lat="44.61208" lon="0.86125">
        <ele>197</ele>
        <time>2012-10-07T06:09:34Z</time>
      </trkpt>
      <trkpt lat="44.61225" lon="0.86073">
        <ele>192</ele>
        <time>2012-10-07T06:09:40Z</time>
      </trkpt>
      <trkpt lat="44.61256" lon="0.86032">
        <ele>191</ele>
        <time>2012-10-07T06:09:45Z</time>
      </trkpt>
      <trkpt lat="44.61286" lon="0.85982">
        <ele>186</ele>
        <time>2012-10-07T06:09:50Z</time>
      </trkpt>
      <trkpt lat="44.613" lon="0.85927">
        <ele>181</ele>
        <time>2012-10-07T06:09:55Z</time>
      </trkpt>
      <trkpt lat="44.61312" lon="0.85877">
        <ele>179</ele>
        <time>2012-10-07T06:10:00Z</time>
      </trkpt>
      <trkpt lat="44.61339" lon="0.85814">
        <ele>179</ele>
        <time>2012-10-07T06:10:06Z</time>
      </trkpt>
      <trkpt lat="44.61365" lon="0.85766">
        <ele>174</ele>
        <time>2012-10-07T06:10:11Z</time>
      </trkpt>
      <trkpt lat="44.61392" lon="0.85734">
        <ele>172</ele>
        <time>2012-10-07T06:10:16Z</time>
      </trkpt>
      <trkpt lat="44.61383" lon="0.85721">
        <ele>171</ele>
        <time>2012-10-07T06:10:21Z</time>
      </trkpt>
      <trkpt lat="44.61362" lon="0.85698">
        <ele>169</ele>
        <time>2012-10-07T06:10:26Z</time>
      </trkpt>
      <trkpt lat="44.61352" lon="0.85673">
        <ele>166</ele>
        <time>2012-10-07T06:10:31Z</time>
      </trkpt>
      <trkpt lat="44.61338" lon="0.8567">
        <ele>166</ele>
        <time>2012-10-07T06:10:36Z</time>
      </trkpt>
      <trkpt lat="44.61322" lon="0.85657">
        <ele>166</ele>
        <time>2012-10-07T06:10:41Z</time>
      </trkpt>
      <trkpt lat="44.613" lon="0.85641">
        <ele>165</ele>
        <time>2012-10-07T06:10:46Z</time>
      </trkpt>
      <trkpt lat="44.6129" lon="0.85632">
        <ele>165</ele>
        <time>2012-10-07T06:10:51Z</time>
      </trkpt>
      <trkpt lat="44.61271" lon="0.85616">
        <ele>165</ele>
        <time>2012-10-07T06:10:56Z</time>
      </trkpt>
      <trkpt lat="44.61238" lon="0.85582">
        <ele>165</ele>
        <time>2012-10-07T06:11:01Z</time>
      </trkpt>
      <trkpt lat="44.61231" lon="0.85541">
        <ele>165</ele>
        <time>2012-10-07T06:11:06Z</time>
      </trkpt>
      <trkpt lat="44.6124" lon="0.85519">
        <ele>167</ele>
        <time>2012-10-07T06:11:11Z</time>
      </trkpt>
      <trkpt lat="44.61256" lon="0.85502">
        <ele>167</ele>
        <time>2012-10-07T06:11:16Z</time>
      </trkpt>
      <trkpt lat="44.61268" lon="0.85481">
        <ele>167</ele>
        <time>2012-10-07T06:11:22Z</time>
      </trkpt>
      <trkpt lat="44.61275" lon="0.85456">
        <ele>167</ele>
        <time>2012-10-07T06:11:27Z</time>
      </trkpt>
      <trkpt lat="44.6128" lon="0.85423">
        <ele>167</ele>
        <time>2012-10-07T06:11:32Z</time>
      </trkpt>
      <trkpt lat="44.61291" lon="0.85398">
        <ele>171</ele>
        <time>2012-10-07T06:11:37Z</time>
      </trkpt>
      <trkpt lat="44.61304" lon="0.85376">
        <ele>174</ele>
        <time>2012-10-07T06:11:42Z</time>
      </trkpt>
      <trkpt lat="44.61322" lon="0.85356">
        <ele>176</ele>
        <time>2012-10-07T06:11:47Z</time>
      </trkpt>
      <trkpt lat="44.61336" lon="0.85335">
        <ele>177</ele>
        <time>2012-10-07T06:11:52Z</time>
      </trkpt>
      <trkpt lat="44.61346" lon="0.85314">
        <ele>177</ele>
        <time>2012-10-07T06:11:57Z</time>
      </trkpt>
      <trkpt lat="44.61356" lon="0.85287">
        <ele>177</ele>
        <time>2012-10-07T06:12:02Z</time>
      </trkpt>
      <trkpt lat="44.61369" lon="0.85243">
        <ele>177</ele>
        <time>2012-10-07T06:12:07Z</time>
      </trkpt>
      <trkpt lat="44.6137" lon="0.85189">
        <ele>177</ele>
        <time>2012-10-07T06:12:12Z</time>
      </trkpt>
      <trkpt lat="44.6138" lon="0.85128">
        <ele>177</ele>
        <time>2012-10-07T06:12:18Z</time>
      </trkpt>
      <trkpt lat="44.61386" lon="0.85072">
        <ele>175</ele>
        <time>2012-10-07T06:12:24Z</time>
      </trkpt>
      <trkpt lat="44.61393" lon="0.85033">
        <ele>175</ele>
        <time>2012-10-07T06:12:29Z</time>
      </trkpt>
      <trkpt lat="44.61411" lon="0.85">
        <ele>176</ele>
        <time>2012-10-07T06:12:34Z</time>
      </trkpt>
      <trkpt lat="44.61401" lon="0.84975">
        <ele>181</ele>
        <time>2012-10-07T06:12:39Z</time>
      </trkpt>
      <trkpt lat="44.61383" lon="0.84945">
        <ele>183</ele>
        <time>2012-10-07T06:12:44Z</time>
      </trkpt>
      <trkpt lat="44.61372" lon="0.8491">
        <ele>183</ele>
        <time>2012-10-07T06:12:49Z</time>
      </trkpt>
      <trkpt lat="44.61359" lon="0.84861">
        <ele>179</ele>
        <time>2012-10-07T06:12:55Z</time>
      </trkpt>
      <trkpt lat="44.61353" lon="0.84823">
        <ele>179</ele>
        <time>2012-10-07T06:13:00Z</time>
      </trkpt>
      <trkpt lat="44.61352" lon="0.84812">
        <ele>179</ele>
        <time>2012-10-07T06:13:06Z</time>
      </trkpt>
      <trkpt lat="44.61355" lon="0.84812">
        <ele>174</ele>
        <time>2012-10-07T06:13:11Z</time>
      </trkpt>
      <trkpt lat="44.61357" lon="0.84813">
        <ele>172</ele>
        <time>2012-10-07T06:13:18Z</time>
      </trkpt>
      <trkpt lat="44.61356" lon="0.84812">
        <ele>171</ele>
        <time>2012-10-07T06:13:26Z</time>
      </trkpt>
      <trkpt lat="44.61354" lon="0.8481">
        <ele>171</ele>
        <time>2012-10-07T06:13:33Z</time>
      </trkpt>
      <trkpt lat="44.61339" lon="0.84796">
        <ele>171</ele>
        <time>2012-10-07T06:13:38Z</time>
      </trkpt>
      <trkpt lat="44.61329" lon="0.84766">
        <ele>168</ele>
        <time>2012-10-07T06:13:43Z</time>
      </trkpt>
      <trkpt lat="44.61316" lon="0.84739">
        <ele>164</ele>
        <time>2012-10-07T06:13:48Z</time>
      </trkpt>
      <trkpt lat="44.61294" lon="0.847">
        <ele>159</ele>
        <time>2012-10-07T06:13:53Z</time>
      </trkpt>
      <trkpt lat="44.6126" lon="0.84683">
        <ele>154</ele>
        <time>2012-10-07T06:13:58Z</time>
      </trkpt>
      <trkpt lat="44.61234" lon="0.84692">
        <ele>149</ele>
        <time>2012-10-07T06:14:03Z</time>
      </trkpt>
      <trkpt lat="44.61204" lon="0.84689">
        <ele>144</ele>
        <time>2012-10-07T06:14:08Z</time>
      </trkpt>
      <trkpt lat="44.6118" lon="0.84669">
        <ele>144</ele>
        <time>2012-10-07T06:14:13Z</time>
      </trkpt>
      <trkpt lat="44.61155" lon="0.84649">
        <ele>145</ele>
        <time>2012-10-07T06:14:18Z</time>
      </trkpt>
      <trkpt lat="44.61128" lon="0.84625">
        <ele>148</ele>
        <time>2012-10-07T06:14:23Z</time>
      </trkpt>
      <trkpt lat="44.61104" lon="0.84604">
        <ele>148</ele>
        <time>2012-10-07T06:14:28Z</time>
      </trkpt>
      <trkpt lat="44.61108" lon="0.84559">
        <ele>148</ele>
        <time>2012-10-07T06:14:33Z</time>
      </trkpt>
      <trkpt lat="44.61084" lon="0.84513">
        <ele>148</ele>
        <time>2012-10-07T06:14:38Z</time>
      </trkpt>
      <trkpt lat="44.61067" lon="0.84473">
        <ele>148</ele>
        <time>2012-10-07T06:14:43Z</time>
      </trkpt>
      <trkpt lat="44.61057" lon="0.84485">
        <ele>148</ele>
        <time>2012-10-07T06:14:48Z</time>
      </trkpt>
      <trkpt lat="44.61048" lon="0.84523">
        <ele>151</ele>
        <time>2012-10-07T06:14:53Z</time>
      </trkpt>
      <trkpt lat="44.61042" lon="0.84556">
        <ele>156</ele>
        <time>2012-10-07T06:14:58Z</time>
      </trkpt>
      <trkpt lat="44.61035" lon="0.84586">
        <ele>160</ele>
        <time>2012-10-07T06:15:04Z</time>
      </trkpt>
      <trkpt lat="44.61031" lon="0.84614">
        <ele>160</ele>
        <time>2012-10-07T06:15:09Z</time>
      </trkpt>
      <trkpt lat="44.61026" lon="0.84652">
        <ele>158</ele>
        <time>2012-10-07T06:15:15Z</time>
      </trkpt>
      <trkpt lat="44.61016" lon="0.84677">
        <ele>156</ele>
        <time>2012-10-07T06:15:20Z</time>
      </trkpt>
      <trkpt lat="44.61" lon="0.84695">
        <ele>153</ele>
        <time>2012-10-07T06:15:25Z</time>
      </trkpt>
      <trkpt lat="44.60979" lon="0.8469">
        <ele>151</ele>
        <time>2012-10-07T06:15:30Z</time>
      </trkpt>
      <trkpt lat="44.60953" lon="0.84679">
        <ele>151</ele>
        <time>2012-10-07T06:15:36Z</time>
      </trkpt>
      <trkpt lat="44.6093" lon="0.84691">
        <ele>151</ele>
        <time>2012-10-07T06:15:41Z</time>
      </trkpt>
      <trkpt lat="44.60907" lon="0.84711">
        <ele>151</ele>
        <time>2012-10-07T06:15:46Z</time>
      </trkpt>
      <trkpt lat="44.60887" lon="0.84718">
        <ele>151</ele>
        <time>2012-10-07T06:15:51Z</time>
      </trkpt>
      <trkpt lat="44.60878" lon="0.84683">
        <ele>151</ele>
        <time>2012-10-07T06:15:56Z</time>
      </trkpt>
      <trkpt lat="44.60857" lon="0.84648">
        <ele>151</ele>
        <time>2012-10-07T06:16:02Z</time>
      </trkpt>
      <trkpt lat="44.60828" lon="0.84632">
        <ele>151</ele>
        <time>2012-10-07T06:16:07Z</time>
      </trkpt>
      <trkpt lat="44.60805" lon="0.84604">
        <ele>151</ele>
        <time>2012-10-07T06:16:12Z</time>
      </trkpt>
      <trkpt lat="44.60788" lon="0.8457">
        <ele>151</ele>
        <time>2012-10-07T06:16:17Z</time>
      </trkpt>
      <trkpt lat="44.60774" lon="0.84544">
        <ele>151</ele>
        <time>2012-10-07T06:16:22Z</time>
      </trkpt>
      <trkpt lat="44.60753" lon="0.84519">
        <ele>151</ele>
        <time>2012-10-07T06:16:27Z</time>
      </trkpt>
      <trkpt lat="44.60736" lon="0.84493">
        <ele>151</ele>
        <time>2012-10-07T06:16:32Z</time>
      </trkpt>
      <trkpt lat="44.60714" lon="0.84473">
        <ele>152</ele>
        <time>2012-10-07T06:16:37Z</time>
      </trkpt>
      <trkpt lat="44.60693" lon="0.84452">
        <ele>154</ele>
        <time>2012-10-07T06:16:42Z</time>
      </trkpt>
      <trkpt lat="44.60674" lon="0.84425">
        <ele>154</ele>
        <time>2012-10-07T06:16:47Z</time>
      </trkpt>
      <trkpt lat="44.60654" lon="0.84396">
        <ele>154</ele>
        <time>2012-10-07T06:16:52Z</time>
      </trkpt>
      <trkpt lat="44.60632" lon="0.84365">
        <ele>154</ele>
        <time>2012-10-07T06:16:57Z</time>
      </trkpt>
      <trkpt lat="44.60625" lon="0.84337">
        <ele>152</ele>
        <time>2012-10-07T06:17:02Z</time>
      </trkpt>
      <trkpt lat="44.60617" lon="0.8429">
        <ele>149</ele>
        <time>2012-10-07T06:17:07Z</time>
      </trkpt>
      <trkpt lat="44.60604" lon="0.84241">
        <ele>147</ele>
        <time>2012-10-07T06:17:12Z</time>
      </trkpt>
      <trkpt lat="44.60582" lon="0.84211">
        <ele>144</ele>
        <time>2012-10-07T06:17:17Z</time>
      </trkpt>
      <trkpt lat="44.60578" lon="0.84193">
        <ele>141</ele>
        <time>2012-10-07T06:17:22Z</time>
      </trkpt>
      <trkpt lat="44.60588" lon="0.84171">
        <ele>141</ele>
        <time>2012-10-07T06:17:27Z</time>
      </trkpt>
      <trkpt lat="44.60594" lon="0.84151">
        <ele>140</ele>
        <time>2012-10-07T06:17:32Z</time>
      </trkpt>
      <trkpt lat="44.60595" lon="0.84148">
        <ele>140</ele>
        <time>2012-10-07T06:17:41Z</time>
      </trkpt>
      <trkpt lat="44.60595" lon="0.84146">
        <ele>140</ele>
        <time>2012-10-07T06:17:46Z</time>
      </trkpt>
      <trkpt lat="44.60595" lon="0.84142">
        <ele>137</ele>
        <time>2012-10-07T06:17:52Z</time>
      </trkpt>
      <trkpt lat="44.60595" lon="0.84141">
        <ele>137</ele>
        <time>2012-10-07T06:18:00Z</time>
      </trkpt>
      <trkpt lat="44.60596" lon="0.8414">
        <ele>137</ele>
        <time>2012-10-07T06:18:08Z</time>
      </trkpt>
      <trkpt lat="44.60598" lon="0.84143">
        <ele>137</ele>
        <time>2012-10-07T06:18:16Z</time>
      </trkpt>
      <trkpt lat="44.606" lon="0.84144">
        <ele>138</ele>
        <time>2012-10-07T06:18:21Z</time>
      </trkpt>
      <trkpt lat="44.60602" lon="0.84144">
        <ele>140</ele>
        <time>2012-10-07T06:18:31Z</time>
      </trkpt>
      <trkpt lat="44.60601" lon="0.84145">
        <ele>140</ele>
        <time>2012-10-07T06:18:43Z</time>
      </trkpt>
      <trkpt lat="44.606" lon="0.84145">
        <ele>142</ele>
        <time>2012-10-07T06:18:48Z</time>
      </trkpt>
      <trkpt lat="44.60601" lon="0.84145">
        <ele>145</ele>
        <time>2012-10-07T06:19:12Z</time>
      </trkpt>
      <trkpt lat="44.606" lon="0.84145">
        <ele>145</ele>
        <time>2012-10-07T06:19:30Z</time>
      </trkpt>
      <trkpt lat="44.60598" lon="0.84144">
        <ele>145</ele>
        <time>2012-10-07T06:19:44Z</time>
      </trkpt>
      <trkpt lat="44.60599" lon="0.84143">
        <ele>145</ele>
        <time>2012-10-07T06:19:58Z</time>
      </trkpt>
      <trkpt lat="44.606" lon="0.84144">
        <ele>145</ele>
        <time>2012-10-07T06:20:03Z</time>
      </trkpt>
      <trkpt lat="44.60601" lon="0.84146">
        <ele>145</ele>
        <time>2012-10-07T06:20:08Z</time>
      </trkpt>
      <trkpt lat="44.60596" lon="0.84143">
        <ele>146</ele>
        <time>2012-10-07T06:20:13Z</time>
      </trkpt>
      <trkpt lat="44.60576" lon="0.8413">
        <ele>146</ele>
        <time>2012-10-07T06:20:18Z</time>
      </trkpt>
      <trkpt lat="44.60553" lon="0.84115">
        <ele>146</ele>
        <time>2012-10-07T06:20:23Z</time>
      </trkpt>
      <trkpt lat="44.60532" lon="0.84103">
        <ele>146</ele>
        <time>2012-10-07T06:20:28Z</time>
      </trkpt>
      <trkpt lat="44.60513" lon="0.8409">
        <ele>146</ele>
        <time>2012-10-07T06:20:33Z</time>
      </trkpt>
      <trkpt lat="44.60497" lon="0.8407">
        <ele>146</ele>
        <time>2012-10-07T06:20:38Z</time>
      </trkpt>
      <trkpt lat="44.60488" lon="0.84045">
        <ele>146</ele>
        <time>2012-10-07T06:20:43Z</time>
      </trkpt>
      <trkpt lat="44.60469" lon="0.84047">
        <ele>146</ele>
        <time>2012-10-07T06:20:48Z</time>
      </trkpt>
      <trkpt lat="44.60443" lon="0.84061">
        <ele>145</ele>
        <time>2012-10-07T06:20:53Z</time>
      </trkpt>
      <trkpt lat="44.60415" lon="0.84075">
        <ele>143</ele>
        <time>2012-10-07T06:20:58Z</time>
      </trkpt>
      <trkpt lat="44.60384" lon="0.84082">
        <ele>142</ele>
        <time>2012-10-07T06:21:03Z</time>
      </trkpt>
      <trkpt lat="44.60355" lon="0.84082">
        <ele>141</ele>
        <time>2012-10-07T06:21:08Z</time>
      </trkpt>
      <trkpt lat="44.60328" lon="0.84088">
        <ele>140</ele>
        <time>2012-10-07T06:21:13Z</time>
      </trkpt>
      <trkpt lat="44.60308" lon="0.84098">
        <ele>139</ele>
        <time>2012-10-07T06:21:18Z</time>
      </trkpt>
      <trkpt lat="44.60282" lon="0.84105">
        <ele>139</ele>
        <time>2012-10-07T06:21:23Z</time>
      </trkpt>
      <trkpt lat="44.6025" lon="0.841">
        <ele>138</ele>
        <time>2012-10-07T06:21:28Z</time>
      </trkpt>
      <trkpt lat="44.60221" lon="0.84083">
        <ele>136</ele>
        <time>2012-10-07T06:21:33Z</time>
      </trkpt>
      <trkpt lat="44.60196" lon="0.8408">
        <ele>133</ele>
        <time>2012-10-07T06:21:38Z</time>
      </trkpt>
      <trkpt lat="44.60179" lon="0.84102">
        <ele>131</ele>
        <time>2012-10-07T06:21:43Z</time>
      </trkpt>
      <trkpt lat="44.6017" lon="0.84113">
        <ele>129</ele>
        <time>2012-10-07T06:21:48Z</time>
      </trkpt>
      <trkpt lat="44.60156" lon="0.84145">
        <ele>126</ele>
        <time>2012-10-07T06:21:53Z</time>
      </trkpt>
      <trkpt lat="44.6014" lon="0.84155">
        <ele>124</ele>
        <time>2012-10-07T06:21:58Z</time>
      </trkpt>
      <trkpt lat="44.60134" lon="0.84181">
        <ele>122</ele>
        <time>2012-10-07T06:22:03Z</time>
      </trkpt>
      <trkpt lat="44.6013" lon="0.84207">
        <ele>120</ele>
        <time>2012-10-07T06:22:08Z</time>
      </trkpt>
      <trkpt lat="44.60124" lon="0.84234">
        <ele>119</ele>
        <time>2012-10-07T06:22:13Z</time>
      </trkpt>
      <trkpt lat="44.60116" lon="0.84258">
        <ele>119</ele>
        <time>2012-10-07T06:22:18Z</time>
      </trkpt>
      <trkpt lat="44.60106" lon="0.8428">
        <ele>119</ele>
        <time>2012-10-07T06:22:23Z</time>
      </trkpt>
      <trkpt lat="44.60093" lon="0.84297">
        <ele>119</ele>
        <time>2012-10-07T06:22:28Z</time>
      </trkpt>
      <trkpt lat="44.60077" lon="0.84293">
        <ele>119</ele>
        <time>2012-10-07T06:22:33Z</time>
      </trkpt>
      <trkpt lat="44.60057" lon="0.84269">
        <ele>119</ele>
        <time>2012-10-07T06:22:38Z</time>
      </trkpt>
      <trkpt lat="44.60036" lon="0.84262">
        <ele>119</ele>
        <time>2012-10-07T06:22:43Z</time>
      </trkpt>
      <trkpt lat="44.60016" lon="0.84256">
        <ele>120</ele>
        <time>2012-10-07T06:22:48Z</time>
      </trkpt>
      <trkpt lat="44.5999" lon="0.84251">
        <ele>120</ele>
        <time>2012-10-07T06:22:53Z</time>
      </trkpt>
      <trkpt lat="44.59965" lon="0.84237">
        <ele>122</ele>
        <time>2012-10-07T06:22:58Z</time>
      </trkpt>
      <trkpt lat="44.59945" lon="0.84202">
        <ele>126</ele>
        <time>2012-10-07T06:23:04Z</time>
      </trkpt>
      <trkpt lat="44.5993" lon="0.84173">
        <ele>127</ele>
        <time>2012-10-07T06:23:09Z</time>
      </trkpt>
      <trkpt lat="44.59919" lon="0.84149">
        <ele>129</ele>
        <time>2012-10-07T06:23:14Z</time>
      </trkpt>
      <trkpt lat="44.59906" lon="0.84123">
        <ele>130</ele>
        <time>2012-10-07T06:23:20Z</time>
      </trkpt>
      <trkpt lat="44.59898" lon="0.841">
        <ele>131</ele>
        <time>2012-10-07T06:23:25Z</time>
      </trkpt>
      <trkpt lat="44.59888" lon="0.84079">
        <ele>132</ele>
        <time>2012-10-07T06:23:30Z</time>
      </trkpt>
      <trkpt lat="44.59876" lon="0.84057">
        <ele>134</ele>
        <time>2012-10-07T06:23:35Z</time>
      </trkpt>
      <trkpt lat="44.59862" lon="0.84033">
        <ele>134</ele>
        <time>2012-10-07T06:23:40Z</time>
      </trkpt>
      <trkpt lat="44.5985" lon="0.84011">
        <ele>134</ele>
        <time>2012-10-07T06:23:45Z</time>
      </trkpt>
      <trkpt lat="44.59839" lon="0.84004">
        <ele>134</ele>
        <time>2012-10-07T06:23:50Z</time>
      </trkpt>
      <trkpt lat="44.59835" lon="0.84015">
        <ele>134</ele>
        <time>2012-10-07T06:23:56Z</time>
      </trkpt>
      <trkpt lat="44.59837" lon="0.84017">
        <ele>134</ele>
        <time>2012-10-07T06:24:01Z</time>
      </trkpt>
      <trkpt lat="44.59837" lon="0.84018">
        <ele>135</ele>
        <time>2012-10-07T06:24:09Z</time>
      </trkpt>
      <trkpt lat="44.59838" lon="0.8402">
        <ele>135</ele>
        <time>2012-10-07T06:24:18Z</time>
      </trkpt>
      <trkpt lat="44.59837" lon="0.84023">
        <ele>135</ele>
        <time>2012-10-07T06:24:59Z</time>
      </trkpt>
      <trkpt lat="44.59831" lon="0.84034">
        <ele>133</ele>
        <time>2012-10-07T06:25:04Z</time>
      </trkpt>
      <trkpt lat="44.59821" lon="0.84048">
        <ele>130</ele>
        <time>2012-10-07T06:25:09Z</time>
      </trkpt>
      <trkpt lat="44.59806" lon="0.84066">
        <ele>129</ele>
        <time>2012-10-07T06:25:14Z</time>
      </trkpt>
      <trkpt lat="44.5979" lon="0.84077">
        <ele>128</ele>
        <time>2012-10-07T06:25:19Z</time>
      </trkpt>
      <trkpt lat="44.59766" lon="0.84065">
        <ele>128</ele>
        <time>2012-10-07T06:25:24Z</time>
      </trkpt>
      <trkpt lat="44.59725" lon="0.84059">
        <ele>128</ele>
        <time>2012-10-07T06:25:30Z</time>
      </trkpt>
      <trkpt lat="44.59697" lon="0.8407">
        <ele>127</ele>
        <time>2012-10-07T06:25:35Z</time>
      </trkpt>
      <trkpt lat="44.59669" lon="0.84057">
        <ele>126</ele>
        <time>2012-10-07T06:25:40Z</time>
      </trkpt>
      <trkpt lat="44.5965" lon="0.84039">
        <ele>126</ele>
        <time>2012-10-07T06:25:45Z</time>
      </trkpt>
      <trkpt lat="44.59619" lon="0.84029">
        <ele>126</ele>
        <time>2012-10-07T06:25:50Z</time>
      </trkpt>
      <trkpt lat="44.59579" lon="0.84031">
        <ele>126</ele>
        <time>2012-10-07T06:25:55Z</time>
      </trkpt>
      <trkpt lat="44.59542" lon="0.84008">
        <ele>126</ele>
        <time>2012-10-07T06:26:00Z</time>
      </trkpt>
      <trkpt lat="44.59516" lon="0.83989">
        <ele>126</ele>
        <time>2012-10-07T06:26:05Z</time>
      </trkpt>
      <trkpt lat="44.59497" lon="0.83949">
        <ele>126</ele>
        <time>2012-10-07T06:26:10Z</time>
      </trkpt>
      <trkpt lat="44.59466" lon="0.8392">
        <ele>126</ele>
        <time>2012-10-07T06:26:15Z</time>
      </trkpt>
      <trkpt lat="44.59443" lon="0.83879">
        <ele>126</ele>
        <time>2012-10-07T06:26:20Z</time>
      </trkpt>
      <trkpt lat="44.59432" lon="0.83841">
        <ele>126</ele>
        <time>2012-10-07T06:26:25Z</time>
      </trkpt>
      <trkpt lat="44.59424" lon="0.83828">
        <ele>127</ele>
        <time>2012-10-07T06:26:30Z</time>
      </trkpt>
      <trkpt lat="44.59423" lon="0.83809">
        <ele>130</ele>
        <time>2012-10-07T06:26:35Z</time>
      </trkpt>
      <trkpt lat="44.59426" lon="0.83802">
        <ele>131</ele>
        <time>2012-10-07T06:26:40Z</time>
      </trkpt>
      <trkpt lat="44.59428" lon="0.83798">
        <ele>131</ele>
        <time>2012-10-07T06:26:47Z</time>
      </trkpt>
      <trkpt lat="44.59428" lon="0.83794">
        <ele>131</ele>
        <time>2012-10-07T06:26:54Z</time>
      </trkpt>
      <trkpt lat="44.5943" lon="0.83792">
        <ele>132</ele>
        <time>2012-10-07T06:27:15Z</time>
      </trkpt>
      <trkpt lat="44.59428" lon="0.83784">
        <ele>131</ele>
        <time>2012-10-07T06:27:20Z</time>
      </trkpt>
      <trkpt lat="44.59428" lon="0.83787">
        <ele>129</ele>
        <time>2012-10-07T06:27:29Z</time>
      </trkpt>
      <trkpt lat="44.59431" lon="0.83785">
        <ele>129</ele>
        <time>2012-10-07T06:27:34Z</time>
      </trkpt>
      <trkpt lat="44.59431" lon="0.83777">
        <ele>129</ele>
        <time>2012-10-07T06:27:39Z</time>
      </trkpt>
      <trkpt lat="44.59435" lon="0.83762">
        <ele>129</ele>
        <time>2012-10-07T06:27:44Z</time>
      </trkpt>
      <trkpt lat="44.59444" lon="0.83745">
        <ele>130</ele>
        <time>2012-10-07T06:27:49Z</time>
      </trkpt>
      <trkpt lat="44.59457" lon="0.8373">
        <ele>130</ele>
        <time>2012-10-07T06:27:54Z</time>
      </trkpt>
      <trkpt lat="44.59476" lon="0.8372">
        <ele>130</ele>
        <time>2012-10-07T06:27:59Z</time>
      </trkpt>
      <trkpt lat="44.59482" lon="0.83698">
        <ele>130</ele>
        <time>2012-10-07T06:28:04Z</time>
      </trkpt>
      <trkpt lat="44.59481" lon="0.83676">
        <ele>130</ele>
        <time>2012-10-07T06:28:09Z</time>
      </trkpt>
      <trkpt lat="44.59473" lon="0.83657">
        <ele>130</ele>
        <time>2012-10-07T06:28:14Z</time>
      </trkpt>
      <trkpt lat="44.59463" lon="0.83646">
        <ele>130</ele>
        <time>2012-10-07T06:28:19Z</time>
      </trkpt>
      <trkpt lat="44.59454" lon="0.83628">
        <ele>131</ele>
        <time>2012-10-07T06:28:24Z</time>
      </trkpt>
      <trkpt lat="44.59448" lon="0.83612">
        <ele>133</ele>
        <time>2012-10-07T06:28:29Z</time>
      </trkpt>
      <trkpt lat="44.59439" lon="0.83593">
        <ele>135</ele>
        <time>2012-10-07T06:28:34Z</time>
      </trkpt>
      <trkpt lat="44.5943" lon="0.83575">
        <ele>136</ele>
        <time>2012-10-07T06:28:39Z</time>
      </trkpt>
      <trkpt lat="44.5942" lon="0.83558">
        <ele>136</ele>
        <time>2012-10-07T06:28:44Z</time>
      </trkpt>
      <trkpt lat="44.59412" lon="0.83543">
        <ele>136</ele>
        <time>2012-10-07T06:28:49Z</time>
      </trkpt>
      <trkpt lat="44.59407" lon="0.83527">
        <ele>136</ele>
        <time>2012-10-07T06:28:54Z</time>
      </trkpt>
      <trkpt lat="44.594" lon="0.83526">
        <ele>136</ele>
        <time>2012-10-07T06:28:59Z</time>
      </trkpt>
      <trkpt lat="44.59388" lon="0.8353">
        <ele>136</ele>
        <time>2012-10-07T06:29:04Z</time>
      </trkpt>
      <trkpt lat="44.59378" lon="0.83533">
        <ele>136</ele>
        <time>2012-10-07T06:29:09Z</time>
      </trkpt>
      <trkpt lat="44.59366" lon="0.83537">
        <ele>135</ele>
        <time>2012-10-07T06:29:14Z</time>
      </trkpt>
      <trkpt lat="44.59354" lon="0.83541">
        <ele>135</ele>
        <time>2012-10-07T06:29:19Z</time>
      </trkpt>
      <trkpt lat="44.5934" lon="0.83545">
        <ele>135</ele>
        <time>2012-10-07T06:29:24Z</time>
      </trkpt>
      <trkpt lat="44.59325" lon="0.83549">
        <ele>135</ele>
        <time>2012-10-07T06:29:29Z</time>
      </trkpt>
      <trkpt lat="44.59312" lon="0.83553">
        <ele>135</ele>
        <time>2012-10-07T06:29:34Z</time>
      </trkpt>
      <trkpt lat="44.59298" lon="0.83558">
        <ele>135</ele>
        <time>2012-10-07T06:29:39Z</time>
      </trkpt>
      <trkpt lat="44.59286" lon="0.83561">
        <ele>135</ele>
        <time>2012-10-07T06:29:44Z</time>
      </trkpt>
      <trkpt lat="44.59275" lon="0.83564">
        <ele>137</ele>
        <time>2012-10-07T06:29:49Z</time>
      </trkpt>
      <trkpt lat="44.59269" lon="0.83565">
        <ele>138</ele>
        <time>2012-10-07T06:29:54Z</time>
      </trkpt>
      <trkpt lat="44.59262" lon="0.83568">
        <ele>138</ele>
        <time>2012-10-07T06:29:59Z</time>
      </trkpt>
      <trkpt lat="44.59254" lon="0.83576">
        <ele>138</ele>
        <time>2012-10-07T06:30:04Z</time>
      </trkpt>
      <trkpt lat="44.59248" lon="0.83583">
        <ele>138</ele>
        <time>2012-10-07T06:30:09Z</time>
      </trkpt>
      <trkpt lat="44.59244" lon="0.83588">
        <ele>138</ele>
        <time>2012-10-07T06:30:14Z</time>
      </trkpt>
      <trkpt lat="44.59244" lon="0.83597">
        <ele>138</ele>
        <time>2012-10-07T06:30:19Z</time>
      </trkpt>
      <trkpt lat="44.5924" lon="0.83605">
        <ele>138</ele>
        <time>2012-10-07T06:30:24Z</time>
      </trkpt>
      <trkpt lat="44.59234" lon="0.83615">
        <ele>138</ele>
        <time>2012-10-07T06:30:29Z</time>
      </trkpt>
      <trkpt lat="44.59227" lon="0.8363">
        <ele>138</ele>
        <time>2012-10-07T06:30:34Z</time>
      </trkpt>
      <trkpt lat="44.59218" lon="0.83649">
        <ele>138</ele>
        <time>2012-10-07T06:30:39Z</time>
      </trkpt>
      <trkpt lat="44.59209" lon="0.83666">
        <ele>139</ele>
        <time>2012-10-07T06:30:44Z</time>
      </trkpt>
      <trkpt lat="44.59201" lon="0.83687">
        <ele>141</ele>
        <time>2012-10-07T06:30:49Z</time>
      </trkpt>
      <trkpt lat="44.59195" lon="0.83711">
        <ele>145</ele>
        <time>2012-10-07T06:30:55Z</time>
      </trkpt>
      <trkpt lat="44.59194" lon="0.83731">
        <ele>145</ele>
        <time>2012-10-07T06:31:00Z</time>
      </trkpt>
      <trkpt lat="44.59195" lon="0.83754">
        <ele>145</ele>
        <time>2012-10-07T06:31:05Z</time>
      </trkpt>
      <trkpt lat="44.59194" lon="0.8378">
        <ele>145</ele>
        <time>2012-10-07T06:31:10Z</time>
      </trkpt>
      <trkpt lat="44.59189" lon="0.83812">
        <ele>145</ele>
        <time>2012-10-07T06:31:16Z</time>
      </trkpt>
      <trkpt lat="44.59184" lon="0.83843">
        <ele>145</ele>
        <time>2012-10-07T06:31:21Z</time>
      </trkpt>
      <trkpt lat="44.59177" lon="0.83873">
        <ele>148</ele>
        <time>2012-10-07T06:31:26Z</time>
      </trkpt>
      <trkpt lat="44.59164" lon="0.83902">
        <ele>149</ele>
        <time>2012-10-07T06:31:32Z</time>
      </trkpt>
      <trkpt lat="44.59153" lon="0.83926">
        <ele>150</ele>
        <time>2012-10-07T06:31:37Z</time>
      </trkpt>
      <trkpt lat="44.59142" lon="0.8395">
        <ele>150</ele>
        <time>2012-10-07T06:31:42Z</time>
      </trkpt>
      <trkpt lat="44.5913" lon="0.83976">
        <ele>151</ele>
        <time>2012-10-07T06:31:48Z</time>
      </trkpt>
      <trkpt lat="44.59119" lon="0.84">
        <ele>151</ele>
        <time>2012-10-07T06:31:53Z</time>
      </trkpt>
      <trkpt lat="44.59114" lon="0.84033">
        <ele>151</ele>
        <time>2012-10-07T06:31:58Z</time>
      </trkpt>
      <trkpt lat="44.5911" lon="0.84062">
        <ele>151</ele>
        <time>2012-10-07T06:32:03Z</time>
      </trkpt>
      <trkpt lat="44.59109" lon="0.8409">
        <ele>151</ele>
        <time>2012-10-07T06:32:08Z</time>
      </trkpt>
      <trkpt lat="44.5911" lon="0.84123">
        <ele>151</ele>
        <time>2012-10-07T06:32:13Z</time>
      </trkpt>
      <trkpt lat="44.59121" lon="0.84171">
        <ele>147</ele>
        <time>2012-10-07T06:32:18Z</time>
      </trkpt>
      <trkpt lat="44.59148" lon="0.84228">
        <ele>142</ele>
        <time>2012-10-07T06:32:23Z</time>
      </trkpt>
      <trkpt lat="44.59177" lon="0.84274">
        <ele>137</ele>
        <time>2012-10-07T06:32:28Z</time>
      </trkpt>
      <trkpt lat="44.59212" lon="0.84311">
        <ele>135</ele>
        <time>2012-10-07T06:32:33Z</time>
      </trkpt>
      <trkpt lat="44.59242" lon="0.84341">
        <ele>133</ele>
        <time>2012-10-07T06:32:38Z</time>
      </trkpt>
      <trkpt lat="44.59266" lon="0.84364">
        <ele>132</ele>
        <time>2012-10-07T06:32:43Z</time>
      </trkpt>
      <trkpt lat="44.59274" lon="0.84375">
        <ele>132</ele>
        <time>2012-10-07T06:32:49Z</time>
      </trkpt>
      <trkpt lat="44.59274" lon="0.84375">
        <ele>132</ele>
        <time>2012-10-07T06:32:55Z</time>
      </trkpt>
      <trkpt lat="44.59268" lon="0.84368">
        <ele>132</ele>
        <time>2012-10-07T06:33:00Z</time>
      </trkpt>
      <trkpt lat="44.59268" lon="0.84353">
        <ele>132</ele>
        <time>2012-10-07T06:33:06Z</time>
      </trkpt>
      <trkpt lat="44.59293" lon="0.84344">
        <ele>130</ele>
        <time>2012-10-07T06:33:12Z</time>
      </trkpt>
      <trkpt lat="44.59318" lon="0.84338">
        <ele>128</ele>
        <time>2012-10-07T06:33:17Z</time>
      </trkpt>
      <trkpt lat="44.5934" lon="0.8434">
        <ele>127</ele>
        <time>2012-10-07T06:33:22Z</time>
      </trkpt>
      <trkpt lat="44.59362" lon="0.84341">
        <ele>127</ele>
        <time>2012-10-07T06:33:27Z</time>
      </trkpt>
      <trkpt lat="44.59375" lon="0.84336">
        <ele>127</ele>
        <time>2012-10-07T06:33:32Z</time>
      </trkpt>
      <trkpt lat="44.59384" lon="0.84333">
        <ele>127</ele>
        <time>2012-10-07T06:33:37Z</time>
      </trkpt>
      <trkpt lat="44.59393" lon="0.84329">
        <ele>127</ele>
        <time>2012-10-07T06:33:42Z</time>
      </trkpt>
      <trkpt lat="44.59405" lon="0.84328">
        <ele>127</ele>
        <time>2012-10-07T06:33:48Z</time>
      </trkpt>
      <trkpt lat="44.59412" lon="0.84333">
        <ele>127</ele>
        <time>2012-10-07T06:33:53Z</time>
      </trkpt>
      <trkpt lat="44.59417" lon="0.84341">
        <ele>131</ele>
        <time>2012-10-07T06:33:58Z</time>
      </trkpt>
      <trkpt lat="44.59427" lon="0.84349">
        <ele>133</ele>
        <time>2012-10-07T06:34:04Z</time>
      </trkpt>
      <trkpt lat="44.59439" lon="0.84352">
        <ele>133</ele>
        <time>2012-10-07T06:34:09Z</time>
      </trkpt>
      <trkpt lat="44.59451" lon="0.84338">
        <ele>134</ele>
        <time>2012-10-07T06:34:15Z</time>
      </trkpt>
      <trkpt lat="44.59465" lon="0.84334">
        <ele>134</ele>
        <time>2012-10-07T06:34:20Z</time>
      </trkpt>
      <trkpt lat="44.59481" lon="0.84331">
        <ele>134</ele>
        <time>2012-10-07T06:34:26Z</time>
      </trkpt>
      <trkpt lat="44.59495" lon="0.84328">
        <ele>134</ele>
        <time>2012-10-07T06:34:31Z</time>
      </trkpt>
      <trkpt lat="44.59511" lon="0.84336">
        <ele>135</ele>
        <time>2012-10-07T06:34:37Z</time>
      </trkpt>
      <trkpt lat="44.59524" lon="0.84344">
        <ele>139</ele>
        <time>2012-10-07T06:34:42Z</time>
      </trkpt>
      <trkpt lat="44.59538" lon="0.84352">
        <ele>144</ele>
        <time>2012-10-07T06:34:47Z</time>
      </trkpt>
      <trkpt lat="44.59548" lon="0.84363">
        <ele>149</ele>
        <time>2012-10-07T06:34:52Z</time>
      </trkpt>
      <trkpt lat="44.59555" lon="0.84374">
        <ele>154</ele>
        <time>2012-10-07T06:34:57Z</time>
      </trkpt>
      <trkpt lat="44.59553" lon="0.84384">
        <ele>157</ele>
        <time>2012-10-07T06:35:02Z</time>
      </trkpt>
      <trkpt lat="44.5955" lon="0.84389">
        <ele>157</ele>
        <time>2012-10-07T06:35:13Z</time>
      </trkpt>
      <trkpt lat="44.59548" lon="0.84392">
        <ele>150</ele>
        <time>2012-10-07T06:35:28Z</time>
      </trkpt>
      <trkpt lat="44.59549" lon="0.84392">
        <ele>146</ele>
        <time>2012-10-07T06:35:41Z</time>
      </trkpt>
      <trkpt lat="44.59549" lon="0.84393">
        <ele>143</ele>
        <time>2012-10-07T06:36:27Z</time>
      </trkpt>
      <trkpt lat="44.59546" lon="0.84397">
        <ele>143</ele>
        <time>2012-10-07T06:36:33Z</time>
      </trkpt>
      <trkpt lat="44.59536" lon="0.84408">
        <ele>143</ele>
        <time>2012-10-07T06:36:38Z</time>
      </trkpt>
      <trkpt lat="44.59517" lon="0.84427">
        <ele>143</ele>
        <time>2012-10-07T06:36:43Z</time>
      </trkpt>
      <trkpt lat="44.59496" lon="0.84447">
        <ele>143</ele>
        <time>2012-10-07T06:36:48Z</time>
      </trkpt>
      <trkpt lat="44.59478" lon="0.84464">
        <ele>143</ele>
        <time>2012-10-07T06:36:53Z</time>
      </trkpt>
      <trkpt lat="44.59465" lon="0.8448">
        <ele>143</ele>
        <time>2012-10-07T06:36:58Z</time>
      </trkpt>
      <trkpt lat="44.59452" lon="0.84496">
        <ele>145</ele>
        <time>2012-10-07T06:37:03Z</time>
      </trkpt>
      <trkpt lat="44.59438" lon="0.84513">
        <ele>146</ele>
        <time>2012-10-07T06:37:08Z</time>
      </trkpt>
      <trkpt lat="44.59419" lon="0.84533">
        <ele>146</ele>
        <time>2012-10-07T06:37:13Z</time>
      </trkpt>
      <trkpt lat="44.59399" lon="0.84554">
        <ele>146</ele>
        <time>2012-10-07T06:37:18Z</time>
      </trkpt>
      <trkpt lat="44.59395" lon="0.84584">
        <ele>147</ele>
        <time>2012-10-07T06:37:23Z</time>
      </trkpt>
      <trkpt lat="44.59405" lon="0.84621">
        <ele>147</ele>
        <time>2012-10-07T06:37:28Z</time>
      </trkpt>
      <trkpt lat="44.59424" lon="0.8468">
        <ele>150</ele>
        <time>2012-10-07T06:37:33Z</time>
      </trkpt>
      <trkpt lat="44.59439" lon="0.84736">
        <ele>154</ele>
        <time>2012-10-07T06:37:38Z</time>
      </trkpt>
      <trkpt lat="44.59446" lon="0.84781">
        <ele>159</ele>
        <time>2012-10-07T06:37:43Z</time>
      </trkpt>
      <trkpt lat="44.59426" lon="0.848">
        <ele>160</ele>
        <time>2012-10-07T06:37:48Z</time>
      </trkpt>
      <trkpt lat="44.5941" lon="0.84822">
        <ele>160</ele>
        <time>2012-10-07T06:37:53Z</time>
      </trkpt>
      <trkpt lat="44.59399" lon="0.84838">
        <ele>160</ele>
        <time>2012-10-07T06:37:58Z</time>
      </trkpt>
      <trkpt lat="44.59401" lon="0.84856">
        <ele>160</ele>
        <time>2012-10-07T06:38:03Z</time>
      </trkpt>
      <trkpt lat="44.59401" lon="0.84873">
        <ele>160</ele>
        <time>2012-10-07T06:38:08Z</time>
      </trkpt>
      <trkpt lat="44.59399" lon="0.84892">
        <ele>160</ele>
        <time>2012-10-07T06:38:13Z</time>
      </trkpt>
      <trkpt lat="44.59393" lon="0.84906">
        <ele>160</ele>
        <time>2012-10-07T06:38:18Z</time>
      </trkpt>
      <trkpt lat="44.59384" lon="0.84917">
        <ele>160</ele>
        <time>2012-10-07T06:38:23Z</time>
      </trkpt>
      <trkpt lat="44.59373" lon="0.84929">
        <ele>158</ele>
        <time>2012-10-07T06:38:28Z</time>
      </trkpt>
      <trkpt lat="44.59364" lon="0.84939">
        <ele>156</ele>
        <time>2012-10-07T06:38:33Z</time>
      </trkpt>
      <trkpt lat="44.5935" lon="0.84955">
        <ele>154</ele>
        <time>2012-10-07T06:38:38Z</time>
      </trkpt>
      <trkpt lat="44.5934" lon="0.84967">
        <ele>154</ele>
        <time>2012-10-07T06:38:43Z</time>
      </trkpt>
      <trkpt lat="44.59331" lon="0.84987">
        <ele>154</ele>
        <time>2012-10-07T06:38:48Z</time>
      </trkpt>
      <trkpt lat="44.5932" lon="0.85016">
        <ele>154</ele>
        <time>2012-10-07T06:38:53Z</time>
      </trkpt>
      <trkpt lat="44.59301" lon="0.85036">
        <ele>154</ele>
        <time>2012-10-07T06:38:59Z</time>
      </trkpt>
      <trkpt lat="44.59279" lon="0.85055">
        <ele>154</ele>
        <time>2012-10-07T06:39:04Z</time>
      </trkpt>
      <trkpt lat="44.59258" lon="0.85067">
        <ele>154</ele>
        <time>2012-10-07T06:39:09Z</time>
      </trkpt>
      <trkpt lat="44.59237" lon="0.85077">
        <ele>154</ele>
        <time>2012-10-07T06:39:14Z</time>
      </trkpt>
      <trkpt lat="44.59219" lon="0.85092">
        <ele>154</ele>
        <time>2012-10-07T06:39:19Z</time>
      </trkpt>
      <trkpt lat="44.59202" lon="0.85105">
        <ele>154</ele>
        <time>2012-10-07T06:39:24Z</time>
      </trkpt>
      <trkpt lat="44.59186" lon="0.85117">
        <ele>154</ele>
        <time>2012-10-07T06:39:29Z</time>
      </trkpt>
      <trkpt lat="44.5917" lon="0.8513">
        <ele>154</ele>
        <time>2012-10-07T06:39:34Z</time>
      </trkpt>
      <trkpt lat="44.59152" lon="0.85144">
        <ele>154</ele>
        <time>2012-10-07T06:39:39Z</time>
      </trkpt>
      <trkpt lat="44.59131" lon="0.85155">
        <ele>154</ele>
        <time>2012-10-07T06:39:44Z</time>
      </trkpt>
      <trkpt lat="44.59108" lon="0.85161">
        <ele>155</ele>
        <time>2012-10-07T06:39:49Z</time>
      </trkpt>
      <trkpt lat="44.59086" lon="0.85167">
        <ele>156</ele>
        <time>2012-10-07T06:39:54Z</time>
      </trkpt>
      <trkpt lat="44.59062" lon="0.85173">
        <ele>156</ele>
        <time>2012-10-07T06:39:59Z</time>
      </trkpt>
      <trkpt lat="44.59039" lon="0.85182">
        <ele>157</ele>
        <time>2012-10-07T06:40:04Z</time>
      </trkpt>
      <trkpt lat="44.59018" lon="0.85194">
        <ele>157</ele>
        <time>2012-10-07T06:40:09Z</time>
      </trkpt>
      <trkpt lat="44.59002" lon="0.85202">
        <ele>157</ele>
        <time>2012-10-07T06:40:14Z</time>
      </trkpt>
      <trkpt lat="44.58984" lon="0.85203">
        <ele>156</ele>
        <time>2012-10-07T06:40:19Z</time>
      </trkpt>
      <trkpt lat="44.58967" lon="0.85207">
        <ele>153</ele>
        <time>2012-10-07T06:40:24Z</time>
      </trkpt>
      <trkpt lat="44.58944" lon="0.85206">
        <ele>153</ele>
        <time>2012-10-07T06:40:29Z</time>
      </trkpt>
      <trkpt lat="44.5892" lon="0.85203">
        <ele>154</ele>
        <time>2012-10-07T06:40:34Z</time>
      </trkpt>
      <trkpt lat="44.58899" lon="0.85185">
        <ele>158</ele>
        <time>2012-10-07T06:40:39Z</time>
      </trkpt>
      <trkpt lat="44.58881" lon="0.85176">
        <ele>162</ele>
        <time>2012-10-07T06:40:44Z</time>
      </trkpt>
      <trkpt lat="44.58862" lon="0.85176">
        <ele>163</ele>
        <time>2012-10-07T06:40:49Z</time>
      </trkpt>
      <trkpt lat="44.58848" lon="0.85158">
        <ele>165</ele>
        <time>2012-10-07T06:40:54Z</time>
      </trkpt>
      <trkpt lat="44.58831" lon="0.85126">
        <ele>165</ele>
        <time>2012-10-07T06:41:00Z</time>
      </trkpt>
      <trkpt lat="44.58807" lon="0.85093">
        <ele>165</ele>
        <time>2012-10-07T06:41:06Z</time>
      </trkpt>
      <trkpt lat="44.58773" lon="0.85068">
        <ele>165</ele>
        <time>2012-10-07T06:41:11Z</time>
      </trkpt>
      <trkpt lat="44.58751" lon="0.85029">
        <ele>165</ele>
        <time>2012-10-07T06:41:16Z</time>
      </trkpt>
      <trkpt lat="44.58748" lon="0.85007">
        <ele>165</ele>
        <time>2012-10-07T06:41:22Z</time>
      </trkpt>
      <trkpt lat="44.58754" lon="0.85">
        <ele>165</ele>
        <time>2012-10-07T06:41:27Z</time>
      </trkpt>
      <trkpt lat="44.58754" lon="0.84997">
        <ele>165</ele>
        <time>2012-10-07T06:41:40Z</time>
      </trkpt>
      <trkpt lat="44.58756" lon="0.84993">
        <ele>162</ele>
        <time>2012-10-07T06:41:45Z</time>
      </trkpt>
      <trkpt lat="44.58758" lon="0.84989">
        <ele>161</ele>
        <time>2012-10-07T06:41:52Z</time>
      </trkpt>
      <trkpt lat="44.58762" lon="0.84987">
        <ele>160</ele>
        <time>2012-10-07T06:41:57Z</time>
      </trkpt>
      <trkpt lat="44.58766" lon="0.84988">
        <ele>157</ele>
        <time>2012-10-07T06:42:05Z</time>
      </trkpt>
      <trkpt lat="44.58765" lon="0.84989">
        <ele>157</ele>
        <time>2012-10-07T06:42:13Z</time>
      </trkpt>
      <trkpt lat="44.58765" lon="0.84987">
        <ele>155</ele>
        <time>2012-10-07T06:42:20Z</time>
      </trkpt>
      <trkpt lat="44.5876" lon="0.84986">
        <ele>152</ele>
        <time>2012-10-07T06:42:26Z</time>
      </trkpt>
      <trkpt lat="44.58757" lon="0.84988">
        <ele>152</ele>
        <time>2012-10-07T06:42:35Z</time>
      </trkpt>
      <trkpt lat="44.58754" lon="0.84989">
        <ele>155</ele>
        <time>2012-10-07T06:42:43Z</time>
      </trkpt>
      <trkpt lat="44.58756" lon="0.84988">
        <ele>155</ele>
        <time>2012-10-07T06:42:49Z</time>
      </trkpt>
      <trkpt lat="44.58757" lon="0.84987">
        <ele>155</ele>
        <time>2012-10-07T06:42:55Z</time>
      </trkpt>
      <trkpt lat="44.58756" lon="0.84984">
        <ele>155</ele>
        <time>2012-10-07T06:43:00Z</time>
      </trkpt>
      <trkpt lat="44.58762" lon="0.84964">
        <ele>155</ele>
        <time>2012-10-07T06:43:05Z</time>
      </trkpt>
      <trkpt lat="44.58782" lon="0.8492">
        <ele>155</ele>
        <time>2012-10-07T06:43:10Z</time>
      </trkpt>
      <trkpt lat="44.58807" lon="0.84874">
        <ele>155</ele>
        <time>2012-10-07T06:43:15Z</time>
      </trkpt>
      <trkpt lat="44.58831" lon="0.84809">
        <ele>154</ele>
        <time>2012-10-07T06:43:20Z</time>
      </trkpt>
      <trkpt lat="44.58857" lon="0.84748">
        <ele>149</ele>
        <time>2012-10-07T06:43:25Z</time>
      </trkpt>
      <trkpt lat="44.58895" lon="0.84696">
        <ele>139</ele>
        <time>2012-10-07T06:43:31Z</time>
      </trkpt>
      <trkpt lat="44.58908" lon="0.84641">
        <ele>135</ele>
        <time>2012-10-07T06:43:36Z</time>
      </trkpt>
      <trkpt lat="44.58912" lon="0.84579">
        <ele>134</ele>
        <time>2012-10-07T06:43:41Z</time>
      </trkpt>
      <trkpt lat="44.58912" lon="0.84518">
        <ele>132</ele>
        <time>2012-10-07T06:43:46Z</time>
      </trkpt>
      <trkpt lat="44.58905" lon="0.84464">
        <ele>132</ele>
        <time>2012-10-07T06:43:51Z</time>
      </trkpt>
      <trkpt lat="44.58894" lon="0.84412">
        <ele>132</ele>
        <time>2012-10-07T06:43:56Z</time>
      </trkpt>
      <trkpt lat="44.58887" lon="0.8436">
        <ele>132</ele>
        <time>2012-10-07T06:44:01Z</time>
      </trkpt>
      <trkpt lat="44.58874" lon="0.84299">
        <ele>131</ele>
        <time>2012-10-07T06:44:06Z</time>
      </trkpt>
      <trkpt lat="44.58877" lon="0.84244">
        <ele>131</ele>
        <time>2012-10-07T06:44:11Z</time>
      </trkpt>
      <trkpt lat="44.58893" lon="0.84198">
        <ele>132</ele>
        <time>2012-10-07T06:44:16Z</time>
      </trkpt>
      <trkpt lat="44.58901" lon="0.84158">
        <ele>133</ele>
        <time>2012-10-07T06:44:21Z</time>
      </trkpt>
      <trkpt lat="44.58889" lon="0.84128">
        <ele>138</ele>
        <time>2012-10-07T06:44:26Z</time>
      </trkpt>
      <trkpt lat="44.58884" lon="0.84115">
        <ele>141</ele>
        <time>2012-10-07T06:44:31Z</time>
      </trkpt>
      <trkpt lat="44.58881" lon="0.84112">
        <ele>144</ele>
        <time>2012-10-07T06:44:40Z</time>
      </trkpt>
      <trkpt lat="44.58882" lon="0.8411">
        <ele>144</ele>
        <time>2012-10-07T06:44:45Z</time>
      </trkpt>
      <trkpt lat="44.58881" lon="0.8411">
        <ele>144</ele>
        <time>2012-10-07T06:44:50Z</time>
      </trkpt>
      <trkpt lat="44.58879" lon="0.84113">
        <ele>144</ele>
        <time>2012-10-07T06:44:55Z</time>
      </trkpt>
      <trkpt lat="44.58879" lon="0.84114">
        <ele>145</ele>
        <time>2012-10-07T06:45:00Z</time>
      </trkpt>
      <trkpt lat="44.58883" lon="0.84115">
        <ele>147</ele>
        <time>2012-10-07T06:45:09Z</time>
      </trkpt>
      <trkpt lat="44.58879" lon="0.84109">
        <ele>149</ele>
        <time>2012-10-07T06:45:14Z</time>
      </trkpt>
      <trkpt lat="44.58873" lon="0.84095">
        <ele>149</ele>
        <time>2012-10-07T06:45:19Z</time>
      </trkpt>
      <trkpt lat="44.58869" lon="0.84077">
        <ele>149</ele>
        <time>2012-10-07T06:45:24Z</time>
      </trkpt>
      <trkpt lat="44.58864" lon="0.84061">
        <ele>148</ele>
        <time>2012-10-07T06:45:29Z</time>
      </trkpt>
      <trkpt lat="44.58858" lon="0.84047">
        <ele>145</ele>
        <time>2012-10-07T06:45:34Z</time>
      </trkpt>
      <trkpt lat="44.58854" lon="0.84038">
        <ele>144</ele>
        <time>2012-10-07T06:45:39Z</time>
      </trkpt>
      <trkpt lat="44.58845" lon="0.84018">
        <ele>143</ele>
        <time>2012-10-07T06:45:44Z</time>
      </trkpt>
      <trkpt lat="44.58832" lon="0.8398">
        <ele>139</ele>
        <time>2012-10-07T06:45:49Z</time>
      </trkpt>
      <trkpt lat="44.58817" lon="0.83952">
        <ele>137</ele>
        <time>2012-10-07T06:45:54Z</time>
      </trkpt>
      <trkpt lat="44.58799" lon="0.83924">
        <ele>136</ele>
        <time>2012-10-07T06:45:59Z</time>
      </trkpt>
      <trkpt lat="44.58775" lon="0.83894">
        <ele>136</ele>
        <time>2012-10-07T06:46:04Z</time>
      </trkpt>
      <trkpt lat="44.58748" lon="0.83859">
        <ele>136</ele>
        <time>2012-10-07T06:46:09Z</time>
      </trkpt>
      <trkpt lat="44.58725" lon="0.8384">
        <ele>136</ele>
        <time>2012-10-07T06:46:14Z</time>
      </trkpt>
      <trkpt lat="44.58699" lon="0.83833">
        <ele>135</ele>
        <time>2012-10-07T06:46:19Z</time>
      </trkpt>
      <trkpt lat="44.58694" lon="0.83848">
        <ele>135</ele>
        <time>2012-10-07T06:46:24Z</time>
      </trkpt>
      <trkpt lat="44.58681" lon="0.83854">
        <ele>134</ele>
        <time>2012-10-07T06:46:29Z</time>
      </trkpt>
      <trkpt lat="44.58673" lon="0.83859">
        <ele>133</ele>
        <time>2012-10-07T06:46:34Z</time>
      </trkpt>
      <trkpt lat="44.58662" lon="0.83871">
        <ele>133</ele>
        <time>2012-10-07T06:46:39Z</time>
      </trkpt>
      <trkpt lat="44.58659" lon="0.83885">
        <ele>133</ele>
        <time>2012-10-07T06:46:44Z</time>
      </trkpt>
      <trkpt lat="44.58659" lon="0.83889">
        <ele>133</ele>
        <time>2012-10-07T06:46:59Z</time>
      </trkpt>
      <trkpt lat="44.5866" lon="0.8389">
        <ele>133</ele>
        <time>2012-10-07T06:47:08Z</time>
      </trkpt>
      <trkpt lat="44.5866" lon="0.83888">
        <ele>133</ele>
        <time>2012-10-07T06:47:15Z</time>
      </trkpt>
      <trkpt lat="44.58659" lon="0.83886">
        <ele>132</ele>
        <time>2012-10-07T06:47:28Z</time>
      </trkpt>
      <trkpt lat="44.58657" lon="0.83885">
        <ele>133</ele>
        <time>2012-10-07T06:47:35Z</time>
      </trkpt>
      <trkpt lat="44.58659" lon="0.83887">
        <ele>134</ele>
        <time>2012-10-07T06:47:40Z</time>
      </trkpt>
      <trkpt lat="44.58665" lon="0.83896">
        <ele>135</ele>
        <time>2012-10-07T06:47:45Z</time>
      </trkpt>
      <trkpt lat="44.58673" lon="0.83907">
        <ele>137</ele>
        <time>2012-10-07T06:47:50Z</time>
      </trkpt>
      <trkpt lat="44.58681" lon="0.83918">
        <ele>138</ele>
        <time>2012-10-07T06:47:55Z</time>
      </trkpt>
      <trkpt lat="44.58691" lon="0.83932">
        <ele>139</ele>
        <time>2012-10-07T06:48:00Z</time>
      </trkpt>
      <trkpt lat="44.58698" lon="0.83947">
        <ele>142</ele>
        <time>2012-10-07T06:48:05Z</time>
      </trkpt>
      <trkpt lat="44.58691" lon="0.83963">
        <ele>145</ele>
        <time>2012-10-07T06:48:10Z</time>
      </trkpt>
      <trkpt lat="44.58683" lon="0.83981">
        <ele>147</ele>
        <time>2012-10-07T06:48:15Z</time>
      </trkpt>
      <trkpt lat="44.58676" lon="0.83997">
        <ele>148</ele>
        <time>2012-10-07T06:48:20Z</time>
      </trkpt>
      <trkpt lat="44.58668" lon="0.84013">
        <ele>149</ele>
        <time>2012-10-07T06:48:25Z</time>
      </trkpt>
      <trkpt lat="44.58661" lon="0.8403">
        <ele>150</ele>
        <time>2012-10-07T06:48:30Z</time>
      </trkpt>
      <trkpt lat="44.58655" lon="0.84045">
        <ele>151</ele>
        <time>2012-10-07T06:48:35Z</time>
      </trkpt>
      <trkpt lat="44.58647" lon="0.84062">
        <ele>151</ele>
        <time>2012-10-07T06:48:41Z</time>
      </trkpt>
      <trkpt lat="44.58638" lon="0.84082">
        <ele>151</ele>
        <time>2012-10-07T06:48:46Z</time>
      </trkpt>
      <trkpt lat="44.5863" lon="0.84098">
        <ele>151</ele>
        <time>2012-10-07T06:48:51Z</time>
      </trkpt>
      <trkpt lat="44.58621" lon="0.84116">
        <ele>151</ele>
        <time>2012-10-07T06:48:56Z</time>
      </trkpt>
      <trkpt lat="44.58614" lon="0.84135">
        <ele>151</ele>
        <time>2012-10-07T06:49:01Z</time>
      </trkpt>
      <trkpt lat="44.58606" lon="0.84157">
        <ele>151</ele>
        <time>2012-10-07T06:49:06Z</time>
      </trkpt>
      <trkpt lat="44.58602" lon="0.84176">
        <ele>150</ele>
        <time>2012-10-07T06:49:11Z</time>
      </trkpt>
      <trkpt lat="44.58598" lon="0.84198">
        <ele>148</ele>
        <time>2012-10-07T06:49:16Z</time>
      </trkpt>
      <trkpt lat="44.58595" lon="0.8422">
        <ele>147</ele>
        <time>2012-10-07T06:49:21Z</time>
      </trkpt>
      <trkpt lat="44.58593" lon="0.84241">
        <ele>147</ele>
        <time>2012-10-07T06:49:26Z</time>
      </trkpt>
      <trkpt lat="44.5859" lon="0.84262">
        <ele>147</ele>
        <time>2012-10-07T06:49:32Z</time>
      </trkpt>
      <trkpt lat="44.58585" lon="0.84285">
        <ele>147</ele>
        <time>2012-10-07T06:49:37Z</time>
      </trkpt>
      <trkpt lat="44.58586" lon="0.84312">
        <ele>147</ele>
        <time>2012-10-07T06:49:42Z</time>
      </trkpt>
      <trkpt lat="44.58584" lon="0.84338">
        <ele>147</ele>
        <time>2012-10-07T06:49:47Z</time>
      </trkpt>
      <trkpt lat="44.58583" lon="0.8436">
        <ele>147</ele>
        <time>2012-10-07T06:49:52Z</time>
      </trkpt>
      <trkpt lat="44.58581" lon="0.84377">
        <ele>147</ele>
        <time>2012-10-07T06:49:57Z</time>
      </trkpt>
      <trkpt lat="44.58577" lon="0.84382">
        <ele>149</ele>
        <time>2012-10-07T06:50:03Z</time>
      </trkpt>
      <trkpt lat="44.58574" lon="0.84384">
        <ele>151</ele>
        <time>2012-10-07T06:50:09Z</time>
      </trkpt>
      <trkpt lat="44.58574" lon="0.84382">
        <ele>152</ele>
        <time>2012-10-07T06:50:15Z</time>
      </trkpt>
      <trkpt lat="44.58573" lon="0.84384">
        <ele>152</ele>
        <time>2012-10-07T06:50:23Z</time>
      </trkpt>
      <trkpt lat="44.58572" lon="0.84387">
        <ele>151</ele>
        <time>2012-10-07T06:50:29Z</time>
      </trkpt>
      <trkpt lat="44.58571" lon="0.84391">
        <ele>151</ele>
        <time>2012-10-07T06:50:34Z</time>
      </trkpt>
      <trkpt lat="44.5857" lon="0.84395">
        <ele>151</ele>
        <time>2012-10-07T06:50:39Z</time>
      </trkpt>
      <trkpt lat="44.58572" lon="0.84395">
        <ele>151</ele>
        <time>2012-10-07T06:50:46Z</time>
      </trkpt>
      <trkpt lat="44.58572" lon="0.84397">
        <ele>151</ele>
        <time>2012-10-07T06:50:54Z</time>
      </trkpt>
      <trkpt lat="44.58571" lon="0.844">
        <ele>141</ele>
        <time>2012-10-07T06:51:22Z</time>
      </trkpt>
      <trkpt lat="44.58566" lon="0.8441">
        <ele>141</ele>
        <time>2012-10-07T06:51:27Z</time>
      </trkpt>
      <trkpt lat="44.58546" lon="0.84402">
        <ele>141</ele>
        <time>2012-10-07T06:51:32Z</time>
      </trkpt>
      <trkpt lat="44.5853" lon="0.84415">
        <ele>141</ele>
        <time>2012-10-07T06:51:38Z</time>
      </trkpt>
      <trkpt lat="44.58505" lon="0.84444">
        <ele>143</ele>
        <time>2012-10-07T06:51:44Z</time>
      </trkpt>
      <trkpt lat="44.58475" lon="0.84449">
        <ele>146</ele>
        <time>2012-10-07T06:51:49Z</time>
      </trkpt>
      <trkpt lat="44.58455" lon="0.84455">
        <ele>147</ele>
        <time>2012-10-07T06:51:54Z</time>
      </trkpt>
      <trkpt lat="44.58437" lon="0.84453">
        <ele>147</ele>
        <time>2012-10-07T06:51:59Z</time>
      </trkpt>
      <trkpt lat="44.58435" lon="0.84427">
        <ele>145</ele>
        <time>2012-10-07T06:52:04Z</time>
      </trkpt>
      <trkpt lat="44.58432" lon="0.84405">
        <ele>140</ele>
        <time>2012-10-07T06:52:09Z</time>
      </trkpt>
      <trkpt lat="44.58436" lon="0.84389">
        <ele>135</ele>
        <time>2012-10-07T06:52:14Z</time>
      </trkpt>
      <trkpt lat="44.58436" lon="0.84376">
        <ele>132</ele>
        <time>2012-10-07T06:52:20Z</time>
      </trkpt>
      <trkpt lat="44.5844" lon="0.84361">
        <ele>131</ele>
        <time>2012-10-07T06:52:25Z</time>
      </trkpt>
      <trkpt lat="44.58442" lon="0.84334">
        <ele>130</ele>
        <time>2012-10-07T06:52:30Z</time>
      </trkpt>
      <trkpt lat="44.58451" lon="0.84308">
        <ele>132</ele>
        <time>2012-10-07T06:52:36Z</time>
      </trkpt>
      <trkpt lat="44.58458" lon="0.84276">
        <ele>134</ele>
        <time>2012-10-07T06:52:41Z</time>
      </trkpt>
      <trkpt lat="44.58463" lon="0.84252">
        <ele>138</ele>
        <time>2012-10-07T06:52:46Z</time>
      </trkpt>
      <trkpt lat="44.58453" lon="0.84222">
        <ele>143</ele>
        <time>2012-10-07T06:52:51Z</time>
      </trkpt>
      <trkpt lat="44.58453" lon="0.84193">
        <ele>144</ele>
        <time>2012-10-07T06:52:57Z</time>
      </trkpt>
      <trkpt lat="44.5846" lon="0.84166">
        <ele>144</ele>
        <time>2012-10-07T06:53:02Z</time>
      </trkpt>
      <trkpt lat="44.58465" lon="0.84137">
        <ele>144</ele>
        <time>2012-10-07T06:53:08Z</time>
      </trkpt>
      <trkpt lat="44.58473" lon="0.841">
        <ele>144</ele>
        <time>2012-10-07T06:53:13Z</time>
      </trkpt>
      <trkpt lat="44.58476" lon="0.84073">
        <ele>141</ele>
        <time>2012-10-07T06:53:18Z</time>
      </trkpt>
      <trkpt lat="44.58479" lon="0.84041">
        <ele>137</ele>
        <time>2012-10-07T06:53:23Z</time>
      </trkpt>
      <trkpt lat="44.58478" lon="0.84019">
        <ele>137</ele>
        <time>2012-10-07T06:53:31Z</time>
      </trkpt>
      <trkpt lat="44.58481" lon="0.84018">
        <ele>137</ele>
        <time>2012-10-07T06:53:37Z</time>
      </trkpt>
      <trkpt lat="44.58481" lon="0.84017">
        <ele>137</ele>
        <time>2012-10-07T06:53:42Z</time>
      </trkpt>
      <trkpt lat="44.58479" lon="0.84016">
        <ele>137</ele>
        <time>2012-10-07T06:53:47Z</time>
      </trkpt>
      <trkpt lat="44.58478" lon="0.84017">
        <ele>137</ele>
        <time>2012-10-07T06:54:02Z</time>
      </trkpt>
      <trkpt lat="44.58479" lon="0.84017">
        <ele>137</ele>
        <time>2012-10-07T06:54:08Z</time>
      </trkpt>
      <trkpt lat="44.58481" lon="0.84018">
        <ele>137</ele>
        <time>2012-10-07T06:54:18Z</time>
      </trkpt>
      <trkpt lat="44.5848" lon="0.84016">
        <ele>137</ele>
        <time>2012-10-07T06:54:25Z</time>
      </trkpt>
      <trkpt lat="44.5848" lon="0.84014">
        <ele>137</ele>
        <time>2012-10-07T06:54:37Z</time>
      </trkpt>
      <trkpt lat="44.58482" lon="0.84014">
        <ele>137</ele>
        <time>2012-10-07T06:54:51Z</time>
      </trkpt>
      <trkpt lat="44.58483" lon="0.84014">
        <ele>137</ele>
        <time>2012-10-07T06:54:57Z</time>
      </trkpt>
      <trkpt lat="44.58484" lon="0.84013">
        <ele>137</ele>
        <time>2012-10-07T06:55:10Z</time>
      </trkpt>
      <trkpt lat="44.58483" lon="0.84015">
        <ele>135</ele>
        <time>2012-10-07T06:55:28Z</time>
      </trkpt>
      <trkpt lat="44.58482" lon="0.84015">
        <ele>135</ele>
        <time>2012-10-07T06:55:41Z</time>
      </trkpt>
      <trkpt lat="44.58482" lon="0.8401">
        <ele>135</ele>
        <time>2012-10-07T06:55:48Z</time>
      </trkpt>
      <trkpt lat="44.58481" lon="0.84009">
        <ele>135</ele>
        <time>2012-10-07T06:55:59Z</time>
      </trkpt>
      <trkpt lat="44.5848" lon="0.8401">
        <ele>135</ele>
        <time>2012-10-07T06:56:05Z</time>
      </trkpt>
      <trkpt lat="44.5848" lon="0.84012">
        <ele>137</ele>
        <time>2012-10-07T06:56:12Z</time>
      </trkpt>
      <trkpt lat="44.58477" lon="0.84012">
        <ele>141</ele>
        <time>2012-10-07T06:56:22Z</time>
      </trkpt>
      <trkpt lat="44.58476" lon="0.84011">
        <ele>143</ele>
        <time>2012-10-07T06:56:32Z</time>
      </trkpt>
      <trkpt lat="44.58475" lon="0.84012">
        <ele>144</ele>
        <time>2012-10-07T06:56:51Z</time>
      </trkpt>
      <trkpt lat="44.58475" lon="0.84013">
        <ele>145</ele>
        <time>2012-10-07T06:56:58Z</time>
      </trkpt>
      <trkpt lat="44.58475" lon="0.84012">
        <ele>146</ele>
        <time>2012-10-07T06:57:11Z</time>
      </trkpt>
      <trkpt lat="44.58468" lon="0.83988">
        <ele>146</ele>
        <time>2012-10-07T06:57:17Z</time>
      </trkpt>
      <trkpt lat="44.58444" lon="0.8392">
        <ele>146</ele>
        <time>2012-10-07T06:57:22Z</time>
      </trkpt>
      <trkpt lat="44.58426" lon="0.83882">
        <ele>141</ele>
        <time>2012-10-07T06:57:27Z</time>
      </trkpt>
      <trkpt lat="44.58414" lon="0.83881">
        <ele>136</ele>
        <time>2012-10-07T06:57:32Z</time>
      </trkpt>
      <trkpt lat="44.58402" lon="0.83883">
        <ele>131</ele>
        <time>2012-10-07T06:57:38Z</time>
      </trkpt>
      <trkpt lat="44.58389" lon="0.83876">
        <ele>131</ele>
        <time>2012-10-07T06:57:43Z</time>
      </trkpt>
      <trkpt lat="44.58379" lon="0.8387">
        <ele>131</ele>
        <time>2012-10-07T06:57:49Z</time>
      </trkpt>
      <trkpt lat="44.58372" lon="0.83862">
        <ele>131</ele>
        <time>2012-10-07T06:57:54Z</time>
      </trkpt>
      <trkpt lat="44.58363" lon="0.83855">
        <ele>135</ele>
        <time>2012-10-07T06:57:59Z</time>
      </trkpt>
      <trkpt lat="44.58356" lon="0.83849">
        <ele>137</ele>
        <time>2012-10-07T06:58:04Z</time>
      </trkpt>
      <trkpt lat="44.58349" lon="0.83842">
        <ele>137</ele>
        <time>2012-10-07T06:58:09Z</time>
      </trkpt>
      <trkpt lat="44.58341" lon="0.83834">
        <ele>139</ele>
        <time>2012-10-07T06:58:14Z</time>
      </trkpt>
      <trkpt lat="44.58332" lon="0.83827">
        <ele>141</ele>
        <time>2012-10-07T06:58:19Z</time>
      </trkpt>
      <trkpt lat="44.58321" lon="0.83818">
        <ele>142</ele>
        <time>2012-10-07T06:58:24Z</time>
      </trkpt>
      <trkpt lat="44.58311" lon="0.8381">
        <ele>143</ele>
        <time>2012-10-07T06:58:29Z</time>
      </trkpt>
      <trkpt lat="44.583" lon="0.83803">
        <ele>144</ele>
        <time>2012-10-07T06:58:34Z</time>
      </trkpt>
      <trkpt lat="44.5829" lon="0.83793">
        <ele>145</ele>
        <time>2012-10-07T06:58:39Z</time>
      </trkpt>
      <trkpt lat="44.58277" lon="0.83784">
        <ele>146</ele>
        <time>2012-10-07T06:58:44Z</time>
      </trkpt>
      <trkpt lat="44.58264" lon="0.83772">
        <ele>146</ele>
        <time>2012-10-07T06:58:49Z</time>
      </trkpt>
      <trkpt lat="44.5826" lon="0.83761">
        <ele>146</ele>
        <time>2012-10-07T06:58:57Z</time>
      </trkpt>
      <trkpt lat="44.58257" lon="0.83756">
        <ele>146</ele>
        <time>2012-10-07T06:59:06Z</time>
      </trkpt>
      <trkpt lat="44.58258" lon="0.83758">
        <ele>155</ele>
        <time>2012-10-07T06:59:17Z</time>
      </trkpt>
      <trkpt lat="44.58262" lon="0.8376">
        <ele>163</ele>
        <time>2012-10-07T06:59:24Z</time>
      </trkpt>
      <trkpt lat="44.58265" lon="0.83761">
        <ele>169</ele>
        <time>2012-10-07T06:59:37Z</time>
      </trkpt>
      <trkpt lat="44.58263" lon="0.8376">
        <ele>170</ele>
        <time>2012-10-07T06:59:42Z</time>
      </trkpt>
      <trkpt lat="44.58261" lon="0.83759">
        <ele>170</ele>
        <time>2012-10-07T06:59:47Z</time>
      </trkpt>
      <trkpt lat="44.58258" lon="0.83759">
        <ele>167</ele>
        <time>2012-10-07T06:59:53Z</time>
      </trkpt>
      <trkpt lat="44.58258" lon="0.83757">
        <ele>160</ele>
        <time>2012-10-07T07:00:05Z</time>
      </trkpt>
      <trkpt lat="44.58252" lon="0.83749">
        <ele>160</ele>
        <time>2012-10-07T07:00:10Z</time>
      </trkpt>
      <trkpt lat="44.58241" lon="0.83743">
        <ele>160</ele>
        <time>2012-10-07T07:00:16Z</time>
      </trkpt>
      <trkpt lat="44.58228" lon="0.83744">
        <ele>157</ele>
        <time>2012-10-07T07:00:21Z</time>
      </trkpt>
      <trkpt lat="44.58212" lon="0.83744">
        <ele>154</ele>
        <time>2012-10-07T07:00:26Z</time>
      </trkpt>
      <trkpt lat="44.582" lon="0.83742">
        <ele>151</ele>
        <time>2012-10-07T07:00:31Z</time>
      </trkpt>
      <trkpt lat="44.58189" lon="0.83742">
        <ele>149</ele>
        <time>2012-10-07T07:00:36Z</time>
      </trkpt>
      <trkpt lat="44.58173" lon="0.83743">
        <ele>149</ele>
        <time>2012-10-07T07:00:41Z</time>
      </trkpt>
      <trkpt lat="44.58154" lon="0.83745">
        <ele>148</ele>
        <time>2012-10-07T07:00:46Z</time>
      </trkpt>
      <trkpt lat="44.58138" lon="0.83745">
        <ele>146</ele>
        <time>2012-10-07T07:00:51Z</time>
      </trkpt>
      <trkpt lat="44.58122" lon="0.83744">
        <ele>144</ele>
        <time>2012-10-07T07:00:57Z</time>
      </trkpt>
      <trkpt lat="44.58107" lon="0.8374">
        <ele>143</ele>
        <time>2012-10-07T07:01:02Z</time>
      </trkpt>
      <trkpt lat="44.58086" lon="0.83737">
        <ele>143</ele>
        <time>2012-10-07T07:01:07Z</time>
      </trkpt>
      <trkpt lat="44.58068" lon="0.83733">
        <ele>143</ele>
        <time>2012-10-07T07:01:12Z</time>
      </trkpt>
      <trkpt lat="44.5805" lon="0.83733">
        <ele>145</ele>
        <time>2012-10-07T07:01:17Z</time>
      </trkpt>
      <trkpt lat="44.58033" lon="0.83735">
        <ele>147</ele>
        <time>2012-10-07T07:01:22Z</time>
      </trkpt>
      <trkpt lat="44.58017" lon="0.83729">
        <ele>149</ele>
        <time>2012-10-07T07:01:27Z</time>
      </trkpt>
      <trkpt lat="44.58003" lon="0.83723">
        <ele>151</ele>
        <time>2012-10-07T07:01:33Z</time>
      </trkpt>
      <trkpt lat="44.57987" lon="0.83714">
        <ele>152</ele>
        <time>2012-10-07T07:01:38Z</time>
      </trkpt>
      <trkpt lat="44.57971" lon="0.8371">
        <ele>153</ele>
        <time>2012-10-07T07:01:43Z</time>
      </trkpt>
      <trkpt lat="44.57954" lon="0.83707">
        <ele>153</ele>
        <time>2012-10-07T07:01:48Z</time>
      </trkpt>
      <trkpt lat="44.57939" lon="0.83709">
        <ele>153</ele>
        <time>2012-10-07T07:01:53Z</time>
      </trkpt>
      <trkpt lat="44.57924" lon="0.83711">
        <ele>153</ele>
        <time>2012-10-07T07:01:58Z</time>
      </trkpt>
      <trkpt lat="44.57907" lon="0.83705">
        <ele>153</ele>
        <time>2012-10-07T07:02:03Z</time>
      </trkpt>
      <trkpt lat="44.57887" lon="0.83699">
        <ele>154</ele>
        <time>2012-10-07T07:02:08Z</time>
      </trkpt>
      <trkpt lat="44.57867" lon="0.83705">
        <ele>155</ele>
        <time>2012-10-07T07:02:13Z</time>
      </trkpt>
      <trkpt lat="44.57846" lon="0.83716">
        <ele>155</ele>
        <time>2012-10-07T07:02:18Z</time>
      </trkpt>
      <trkpt lat="44.57829" lon="0.83737">
        <ele>155</ele>
        <time>2012-10-07T07:02:23Z</time>
      </trkpt>
      <trkpt lat="44.57815" lon="0.83743">
        <ele>155</ele>
        <time>2012-10-07T07:02:28Z</time>
      </trkpt>
      <trkpt lat="44.57808" lon="0.83732">
        <ele>156</ele>
        <time>2012-10-07T07:02:33Z</time>
      </trkpt>
      <trkpt lat="44.57789" lon="0.83725">
        <ele>156</ele>
        <time>2012-10-07T07:02:38Z</time>
      </trkpt>
      <trkpt lat="44.57768" lon="0.8373">
        <ele>156</ele>
        <time>2012-10-07T07:02:43Z</time>
      </trkpt>
      <trkpt lat="44.57745" lon="0.83735">
        <ele>156</ele>
        <time>2012-10-07T07:02:48Z</time>
      </trkpt>
      <trkpt lat="44.57724" lon="0.83732">
        <ele>156</ele>
        <time>2012-10-07T07:02:53Z</time>
      </trkpt>
      <trkpt lat="44.57703" lon="0.83728">
        <ele>156</ele>
        <time>2012-10-07T07:02:58Z</time>
      </trkpt>
      <trkpt lat="44.57681" lon="0.83723">
        <ele>156</ele>
        <time>2012-10-07T07:03:03Z</time>
      </trkpt>
      <trkpt lat="44.57658" lon="0.83722">
        <ele>156</ele>
        <time>2012-10-07T07:03:08Z</time>
      </trkpt>
      <trkpt lat="44.57629" lon="0.83718">
        <ele>156</ele>
        <time>2012-10-07T07:03:13Z</time>
      </trkpt>
      <trkpt lat="44.57597" lon="0.83721">
        <ele>155</ele>
        <time>2012-10-07T07:03:18Z</time>
      </trkpt>
      <trkpt lat="44.57564" lon="0.83734">
        <ele>153</ele>
        <time>2012-10-07T07:03:23Z</time>
      </trkpt>
      <trkpt lat="44.57528" lon="0.83749">
        <ele>151</ele>
        <time>2012-10-07T07:03:29Z</time>
      </trkpt>
      <trkpt lat="44.57487" lon="0.83783">
        <ele>150</ele>
        <time>2012-10-07T07:03:34Z</time>
      </trkpt>
      <trkpt lat="44.57465" lon="0.83805">
        <ele>150</ele>
        <time>2012-10-07T07:03:40Z</time>
      </trkpt>
      <trkpt lat="44.57456" lon="0.83863">
        <ele>149</ele>
        <time>2012-10-07T07:03:45Z</time>
      </trkpt>
      <trkpt lat="44.57426" lon="0.83878">
        <ele>146</ele>
        <time>2012-10-07T07:03:50Z</time>
      </trkpt>
      <trkpt lat="44.57419" lon="0.83882">
        <ele>143</ele>
        <time>2012-10-07T07:03:56Z</time>
      </trkpt>
      <trkpt lat="44.57413" lon="0.8389">
        <ele>139</ele>
        <time>2012-10-07T07:04:05Z</time>
      </trkpt>
      <trkpt lat="44.57412" lon="0.83889">
        <ele>137</ele>
        <time>2012-10-07T07:04:20Z</time>
      </trkpt>
      <trkpt lat="44.57411" lon="0.83888">
        <ele>136</ele>
        <time>2012-10-07T07:04:30Z</time>
      </trkpt>
      <trkpt lat="44.5741" lon="0.83887">
        <ele>134</ele>
        <time>2012-10-07T07:04:39Z</time>
      </trkpt>
      <trkpt lat="44.57411" lon="0.83888">
        <ele>133</ele>
        <time>2012-10-07T07:04:45Z</time>
      </trkpt>
      <trkpt lat="44.57411" lon="0.8389">
        <ele>133</ele>
        <time>2012-10-07T07:04:55Z</time>
      </trkpt>
      <trkpt lat="44.57411" lon="0.83891">
        <ele>133</ele>
        <time>2012-10-07T07:05:00Z</time>
      </trkpt>
      <trkpt lat="44.57407" lon="0.83904">
        <ele>133</ele>
        <time>2012-10-07T07:05:06Z</time>
      </trkpt>
      <trkpt lat="44.57402" lon="0.83926">
        <ele>134</ele>
        <time>2012-10-07T07:05:12Z</time>
      </trkpt>
      <trkpt lat="44.57394" lon="0.83948">
        <ele>140</ele>
        <time>2012-10-07T07:05:17Z</time>
      </trkpt>
      <trkpt lat="44.57384" lon="0.83971">
        <ele>145</ele>
        <time>2012-10-07T07:05:22Z</time>
      </trkpt>
      <trkpt lat="44.57381" lon="0.83995">
        <ele>147</ele>
        <time>2012-10-07T07:05:27Z</time>
      </trkpt>
      <trkpt lat="44.57381" lon="0.84021">
        <ele>147</ele>
        <time>2012-10-07T07:05:32Z</time>
      </trkpt>
      <trkpt lat="44.57376" lon="0.84042">
        <ele>148</ele>
        <time>2012-10-07T07:05:37Z</time>
      </trkpt>
      <trkpt lat="44.57365" lon="0.84058">
        <ele>150</ele>
        <time>2012-10-07T07:05:42Z</time>
      </trkpt>
      <trkpt lat="44.5735" lon="0.8407">
        <ele>151</ele>
        <time>2012-10-07T07:05:47Z</time>
      </trkpt>
      <trkpt lat="44.57339" lon="0.84087">
        <ele>151</ele>
        <time>2012-10-07T07:05:52Z</time>
      </trkpt>
      <trkpt lat="44.57333" lon="0.84108">
        <ele>151</ele>
        <time>2012-10-07T07:05:57Z</time>
      </trkpt>
      <trkpt lat="44.57326" lon="0.84129">
        <ele>152</ele>
        <time>2012-10-07T07:06:02Z</time>
      </trkpt>
      <trkpt lat="44.57314" lon="0.84141">
        <ele>153</ele>
        <time>2012-10-07T07:06:07Z</time>
      </trkpt>
      <trkpt lat="44.57303" lon="0.84153">
        <ele>155</ele>
        <time>2012-10-07T07:06:12Z</time>
      </trkpt>
      <trkpt lat="44.57293" lon="0.84165">
        <ele>156</ele>
        <time>2012-10-07T07:06:17Z</time>
      </trkpt>
      <trkpt lat="44.57283" lon="0.84178">
        <ele>158</ele>
        <time>2012-10-07T07:06:22Z</time>
      </trkpt>
      <trkpt lat="44.57271" lon="0.84196">
        <ele>159</ele>
        <time>2012-10-07T07:06:27Z</time>
      </trkpt>
      <trkpt lat="44.57268" lon="0.84215">
        <ele>161</ele>
        <time>2012-10-07T07:06:32Z</time>
      </trkpt>
      <trkpt lat="44.57269" lon="0.84235">
        <ele>163</ele>
        <time>2012-10-07T07:06:37Z</time>
      </trkpt>
      <trkpt lat="44.57256" lon="0.84251">
        <ele>164</ele>
        <time>2012-10-07T07:06:43Z</time>
      </trkpt>
      <trkpt lat="44.57243" lon="0.84273">
        <ele>164</ele>
        <time>2012-10-07T07:06:49Z</time>
      </trkpt>
      <trkpt lat="44.57236" lon="0.84297">
        <ele>164</ele>
        <time>2012-10-07T07:06:54Z</time>
      </trkpt>
      <trkpt lat="44.57235" lon="0.84317">
        <ele>168</ele>
        <time>2012-10-07T07:06:59Z</time>
      </trkpt>
      <trkpt lat="44.57232" lon="0.84341">
        <ele>173</ele>
        <time>2012-10-07T07:07:04Z</time>
      </trkpt>
      <trkpt lat="44.57225" lon="0.84361">
        <ele>176</ele>
        <time>2012-10-07T07:07:09Z</time>
      </trkpt>
      <trkpt lat="44.57216" lon="0.84383">
        <ele>177</ele>
        <time>2012-10-07T07:07:14Z</time>
      </trkpt>
      <trkpt lat="44.57211" lon="0.8441">
        <ele>178</ele>
        <time>2012-10-07T07:07:19Z</time>
      </trkpt>
      <trkpt lat="44.5721" lon="0.84435">
        <ele>179</ele>
        <time>2012-10-07T07:07:24Z</time>
      </trkpt>
      <trkpt lat="44.5721" lon="0.84462">
        <ele>179</ele>
        <time>2012-10-07T07:07:29Z</time>
      </trkpt>
      <trkpt lat="44.57207" lon="0.84484">
        <ele>179</ele>
        <time>2012-10-07T07:07:34Z</time>
      </trkpt>
      <trkpt lat="44.57207" lon="0.84494">
        <ele>179</ele>
        <time>2012-10-07T07:07:39Z</time>
      </trkpt>
      <trkpt lat="44.5721" lon="0.84501">
        <ele>179</ele>
        <time>2012-10-07T07:07:44Z</time>
      </trkpt>
      <trkpt lat="44.57212" lon="0.84508">
        <ele>180</ele>
        <time>2012-10-07T07:07:50Z</time>
      </trkpt>
      <trkpt lat="44.57212" lon="0.84512">
        <ele>181</ele>
        <time>2012-10-07T07:07:55Z</time>
      </trkpt>
      <trkpt lat="44.57213" lon="0.84511">
        <ele>179</ele>
        <time>2012-10-07T07:08:13Z</time>
      </trkpt>
      <trkpt lat="44.57214" lon="0.84511">
        <ele>184</ele>
        <time>2012-10-07T07:08:21Z</time>
      </trkpt>
      <trkpt lat="44.57212" lon="0.84515">
        <ele>184</ele>
        <time>2012-10-07T07:08:28Z</time>
      </trkpt>
      <trkpt lat="44.57212" lon="0.84515">
        <ele>177</ele>
        <time>2012-10-07T07:08:48Z</time>
      </trkpt>
      <trkpt lat="44.5721" lon="0.84516">
        <ele>171</ele>
        <time>2012-10-07T07:08:56Z</time>
      </trkpt>
      <trkpt lat="44.57205" lon="0.84524">
        <ele>171</ele>
        <time>2012-10-07T07:09:02Z</time>
      </trkpt>
      <trkpt lat="44.57204" lon="0.84522">
        <ele>171</ele>
        <time>2012-10-07T07:09:08Z</time>
      </trkpt>
      <trkpt lat="44.57205" lon="0.84518">
        <ele>170</ele>
        <time>2012-10-07T07:09:13Z</time>
      </trkpt>
      <trkpt lat="44.57204" lon="0.84517">
        <ele>169</ele>
        <time>2012-10-07T07:09:26Z</time>
      </trkpt>
      <trkpt lat="44.57203" lon="0.84516">
        <ele>160</ele>
        <time>2012-10-07T07:09:37Z</time>
      </trkpt>
      <trkpt lat="44.57206" lon="0.84516">
        <ele>156</ele>
        <time>2012-10-07T07:09:52Z</time>
      </trkpt>
      <trkpt lat="44.57206" lon="0.84513">
        <ele>156</ele>
        <time>2012-10-07T07:10:03Z</time>
      </trkpt>
      <trkpt lat="44.57209" lon="0.84517">
        <ele>156</ele>
        <time>2012-10-07T07:10:09Z</time>
      </trkpt>
      <trkpt lat="44.57208" lon="0.84515">
        <ele>151</ele>
        <time>2012-10-07T07:10:17Z</time>
      </trkpt>
      <trkpt lat="44.57207" lon="0.84511">
        <ele>145</ele>
        <time>2012-10-07T07:10:23Z</time>
      </trkpt>
      <trkpt lat="44.57206" lon="0.84507">
        <ele>140</ele>
        <time>2012-10-07T07:10:29Z</time>
      </trkpt>
      <trkpt lat="44.57205" lon="0.84504">
        <ele>136</ele>
        <time>2012-10-07T07:10:38Z</time>
      </trkpt>
      <trkpt lat="44.57204" lon="0.84503">
        <ele>136</ele>
        <time>2012-10-07T07:10:47Z</time>
      </trkpt>
      <trkpt lat="44.57203" lon="0.84502">
        <ele>134</ele>
        <time>2012-10-07T07:10:56Z</time>
      </trkpt>
      <trkpt lat="44.57201" lon="0.845">
        <ele>134</ele>
        <time>2012-10-07T07:11:02Z</time>
      </trkpt>
      <trkpt lat="44.57198" lon="0.84499">
        <ele>134</ele>
        <time>2012-10-07T07:11:07Z</time>
      </trkpt>
      <trkpt lat="44.57193" lon="0.84504">
        <ele>135</ele>
        <time>2012-10-07T07:11:16Z</time>
      </trkpt>
      <trkpt lat="44.57195" lon="0.84506">
        <ele>142</ele>
        <time>2012-10-07T07:11:26Z</time>
      </trkpt>
      <trkpt lat="44.572" lon="0.84506">
        <ele>146</ele>
        <time>2012-10-07T07:11:32Z</time>
      </trkpt>
      <trkpt lat="44.57206" lon="0.84505">
        <ele>146</ele>
        <time>2012-10-07T07:11:38Z</time>
      </trkpt>
      <trkpt lat="44.57211" lon="0.84508">
        <ele>148</ele>
        <time>2012-10-07T07:11:43Z</time>
      </trkpt>
      <trkpt lat="44.57213" lon="0.84511">
        <ele>154</ele>
        <time>2012-10-07T07:11:53Z</time>
      </trkpt>
      <trkpt lat="44.57214" lon="0.84513">
        <ele>157</ele>
        <time>2012-10-07T07:12:02Z</time>
      </trkpt>
      <trkpt lat="44.57214" lon="0.84516">
        <ele>157</ele>
        <time>2012-10-07T07:12:07Z</time>
      </trkpt>
      <trkpt lat="44.57213" lon="0.84518">
        <ele>157</ele>
        <time>2012-10-07T07:12:12Z</time>
      </trkpt>
      <trkpt lat="44.5721" lon="0.84519">
        <ele>157</ele>
        <time>2012-10-07T07:12:19Z</time>
      </trkpt>
      <trkpt lat="44.57209" lon="0.84518">
        <ele>157</ele>
        <time>2012-10-07T07:12:28Z</time>
      </trkpt>
      <trkpt lat="44.5721" lon="0.84535">
        <ele>158</ele>
        <time>2012-10-07T07:12:33Z</time>
      </trkpt>
      <trkpt lat="44.57213" lon="0.84556">
        <ele>158</ele>
        <time>2012-10-07T07:12:38Z</time>
      </trkpt>
      <trkpt lat="44.57217" lon="0.84582">
        <ele>162</ele>
        <time>2012-10-07T07:12:43Z</time>
      </trkpt>
      <trkpt lat="44.5722" lon="0.84615">
        <ele>164</ele>
        <time>2012-10-07T07:12:48Z</time>
      </trkpt>
      <trkpt lat="44.57223" lon="0.84642">
        <ele>165</ele>
        <time>2012-10-07T07:12:53Z</time>
      </trkpt>
      <trkpt lat="44.57222" lon="0.84666">
        <ele>166</ele>
        <time>2012-10-07T07:12:58Z</time>
      </trkpt>
      <trkpt lat="44.57221" lon="0.8469">
        <ele>166</ele>
        <time>2012-10-07T07:13:03Z</time>
      </trkpt>
      <trkpt lat="44.57221" lon="0.84713">
        <ele>166</ele>
        <time>2012-10-07T07:13:08Z</time>
      </trkpt>
      <trkpt lat="44.57222" lon="0.84732">
        <ele>166</ele>
        <time>2012-10-07T07:13:13Z</time>
      </trkpt>
      <trkpt lat="44.57224" lon="0.84753">
        <ele>169</ele>
        <time>2012-10-07T07:13:18Z</time>
      </trkpt>
      <trkpt lat="44.57227" lon="0.84779">
        <ele>174</ele>
        <time>2012-10-07T07:13:23Z</time>
      </trkpt>
      <trkpt lat="44.57229" lon="0.84808">
        <ele>179</ele>
        <time>2012-10-07T07:13:28Z</time>
      </trkpt>
      <trkpt lat="44.57234" lon="0.84836">
        <ele>182</ele>
        <time>2012-10-07T07:13:33Z</time>
      </trkpt>
      <trkpt lat="44.57243" lon="0.84869">
        <ele>182</ele>
        <time>2012-10-07T07:13:38Z</time>
      </trkpt>
      <trkpt lat="44.5725" lon="0.84904">
        <ele>182</ele>
        <time>2012-10-07T07:13:43Z</time>
      </trkpt>
      <trkpt lat="44.5724" lon="0.84914">
        <ele>182</ele>
        <time>2012-10-07T07:13:48Z</time>
      </trkpt>
      <trkpt lat="44.57219" lon="0.84918">
        <ele>181</ele>
        <time>2012-10-07T07:13:53Z</time>
      </trkpt>
      <trkpt lat="44.57197" lon="0.84922">
        <ele>178</ele>
        <time>2012-10-07T07:13:58Z</time>
      </trkpt>
      <trkpt lat="44.57179" lon="0.84911">
        <ele>177</ele>
        <time>2012-10-07T07:14:03Z</time>
      </trkpt>
      <trkpt lat="44.57161" lon="0.84904">
        <ele>176</ele>
        <time>2012-10-07T07:14:08Z</time>
      </trkpt>
      <trkpt lat="44.57134" lon="0.8491">
        <ele>173</ele>
        <time>2012-10-07T07:14:13Z</time>
      </trkpt>
      <trkpt lat="44.57099" lon="0.84913">
        <ele>173</ele>
        <time>2012-10-07T07:14:18Z</time>
      </trkpt>
      <trkpt lat="44.57063" lon="0.84916">
        <ele>173</ele>
        <time>2012-10-07T07:14:23Z</time>
      </trkpt>
      <trkpt lat="44.57036" lon="0.84899">
        <ele>173</ele>
        <time>2012-10-07T07:14:28Z</time>
      </trkpt>
      <trkpt lat="44.57008" lon="0.84884">
        <ele>173</ele>
        <time>2012-10-07T07:14:33Z</time>
      </trkpt>
      <trkpt lat="44.56982" lon="0.8488">
        <ele>170</ele>
        <time>2012-10-07T07:14:38Z</time>
      </trkpt>
      <trkpt lat="44.56971" lon="0.84859">
        <ele>164</ele>
        <time>2012-10-07T07:14:43Z</time>
      </trkpt>
      <trkpt lat="44.5695" lon="0.84864">
        <ele>157</ele>
        <time>2012-10-07T07:14:48Z</time>
      </trkpt>
      <trkpt lat="44.56931" lon="0.84849">
        <ele>152</ele>
        <time>2012-10-07T07:14:53Z</time>
      </trkpt>
      <trkpt lat="44.56924" lon="0.84825">
        <ele>149</ele>
        <time>2012-10-07T07:14:58Z</time>
      </trkpt>
      <trkpt lat="44.56918" lon="0.84809">
        <ele>149</ele>
        <time>2012-10-07T07:15:03Z</time>
      </trkpt>
      <trkpt lat="44.56916" lon="0.84808">
        <ele>147</ele>
        <time>2012-10-07T07:15:09Z</time>
      </trkpt>
      <trkpt lat="44.56916" lon="0.8481">
        <ele>146</ele>
        <time>2012-10-07T07:15:15Z</time>
      </trkpt>
      <trkpt lat="44.56919" lon="0.84811">
        <ele>148</ele>
        <time>2012-10-07T07:15:21Z</time>
      </trkpt>
      <trkpt lat="44.56925" lon="0.84809">
        <ele>154</ele>
        <time>2012-10-07T07:15:27Z</time>
      </trkpt>
      <trkpt lat="44.56927" lon="0.84809">
        <ele>161</ele>
        <time>2012-10-07T07:15:32Z</time>
      </trkpt>
      <trkpt lat="44.56928" lon="0.8481">
        <ele>166</ele>
        <time>2012-10-07T07:15:38Z</time>
      </trkpt>
      <trkpt lat="44.56927" lon="0.84816">
        <ele>175</ele>
        <time>2012-10-07T07:15:47Z</time>
      </trkpt>
      <trkpt lat="44.5693" lon="0.84809">
        <ele>176</ele>
        <time>2012-10-07T07:15:53Z</time>
      </trkpt>
      <trkpt lat="44.56918" lon="0.84778">
        <ele>175</ele>
        <time>2012-10-07T07:15:58Z</time>
      </trkpt>
      <trkpt lat="44.56909" lon="0.84749">
        <ele>170</ele>
        <time>2012-10-07T07:16:03Z</time>
      </trkpt>
      <trkpt lat="44.56896" lon="0.84727">
        <ele>164</ele>
        <time>2012-10-07T07:16:08Z</time>
      </trkpt>
      <trkpt lat="44.56881" lon="0.84708">
        <ele>157</ele>
        <time>2012-10-07T07:16:13Z</time>
      </trkpt>
      <trkpt lat="44.56868" lon="0.84678">
        <ele>151</ele>
        <time>2012-10-07T07:16:18Z</time>
      </trkpt>
      <trkpt lat="44.5684" lon="0.84648">
        <ele>146</ele>
        <time>2012-10-07T07:16:23Z</time>
      </trkpt>
      <trkpt lat="44.56807" lon="0.84628">
        <ele>141</ele>
        <time>2012-10-07T07:16:28Z</time>
      </trkpt>
      <trkpt lat="44.56779" lon="0.84602">
        <ele>138</ele>
        <time>2012-10-07T07:16:33Z</time>
      </trkpt>
      <trkpt lat="44.5676" lon="0.84577">
        <ele>137</ele>
        <time>2012-10-07T07:16:38Z</time>
      </trkpt>
      <trkpt lat="44.5675" lon="0.84545">
        <ele>135</ele>
        <time>2012-10-07T07:16:43Z</time>
      </trkpt>
      <trkpt lat="44.56744" lon="0.84511">
        <ele>134</ele>
        <time>2012-10-07T07:16:48Z</time>
      </trkpt>
      <trkpt lat="44.56738" lon="0.84472">
        <ele>134</ele>
        <time>2012-10-07T07:16:53Z</time>
      </trkpt>
      <trkpt lat="44.56751" lon="0.84432">
        <ele>134</ele>
        <time>2012-10-07T07:16:58Z</time>
      </trkpt>
      <trkpt lat="44.56768" lon="0.84387">
        <ele>134</ele>
        <time>2012-10-07T07:17:03Z</time>
      </trkpt>
      <trkpt lat="44.56775" lon="0.84333">
        <ele>134</ele>
        <time>2012-10-07T07:17:10Z</time>
      </trkpt>
      <trkpt lat="44.56754" lon="0.84281">
        <ele>134</ele>
        <time>2012-10-07T07:17:15Z</time>
      </trkpt>
      <trkpt lat="44.56731" lon="0.84237">
        <ele>134</ele>
        <time>2012-10-07T07:17:21Z</time>
      </trkpt>
      <trkpt lat="44.56699" lon="0.84201">
        <ele>134</ele>
        <time>2012-10-07T07:17:26Z</time>
      </trkpt>
      <trkpt lat="44.56654" lon="0.84192">
        <ele>133</ele>
        <time>2012-10-07T07:17:31Z</time>
      </trkpt>
      <trkpt lat="44.56609" lon="0.84188">
        <ele>129</ele>
        <time>2012-10-07T07:17:36Z</time>
      </trkpt>
      <trkpt lat="44.56565" lon="0.84174">
        <ele>128</ele>
        <time>2012-10-07T07:17:41Z</time>
      </trkpt>
      <trkpt lat="44.5652" lon="0.84162">
        <ele>128</ele>
        <time>2012-10-07T07:17:46Z</time>
      </trkpt>
      <trkpt lat="44.5648" lon="0.84159">
        <ele>126</ele>
        <time>2012-10-07T07:17:51Z</time>
      </trkpt>
      <trkpt lat="44.56452" lon="0.8413">
        <ele>123</ele>
        <time>2012-10-07T07:17:56Z</time>
      </trkpt>
      <trkpt lat="44.56417" lon="0.84103">
        <ele>120</ele>
        <time>2012-10-07T07:18:01Z</time>
      </trkpt>
      <trkpt lat="44.56383" lon="0.84076">
        <ele>119</ele>
        <time>2012-10-07T07:18:06Z</time>
      </trkpt>
      <trkpt lat="44.56344" lon="0.84049">
        <ele>119</ele>
        <time>2012-10-07T07:18:11Z</time>
      </trkpt>
      <trkpt lat="44.56299" lon="0.8406">
        <ele>120</ele>
        <time>2012-10-07T07:18:16Z</time>
      </trkpt>
      <trkpt lat="44.56256" lon="0.84074">
        <ele>120</ele>
        <time>2012-10-07T07:18:21Z</time>
      </trkpt>
      <trkpt lat="44.56215" lon="0.84091">
        <ele>120</ele>
        <time>2012-10-07T07:18:26Z</time>
      </trkpt>
      <trkpt lat="44.56182" lon="0.84116">
        <ele>119</ele>
        <time>2012-10-07T07:18:31Z</time>
      </trkpt>
      <trkpt lat="44.56147" lon="0.84143">
        <ele>116</ele>
        <time>2012-10-07T07:18:36Z</time>
      </trkpt>
      <trkpt lat="44.56135" lon="0.84158">
        <ele>114</ele>
        <time>2012-10-07T07:18:41Z</time>
      </trkpt>
      <trkpt lat="44.56136" lon="0.84153">
        <ele>114</ele>
        <time>2012-10-07T07:18:46Z</time>
      </trkpt>
      <trkpt lat="44.56135" lon="0.84148">
        <ele>115</ele>
        <time>2012-10-07T07:18:54Z</time>
      </trkpt>
      <trkpt lat="44.56129" lon="0.84149">
        <ele>118</ele>
        <time>2012-10-07T07:18:59Z</time>
      </trkpt>
      <trkpt lat="44.56109" lon="0.84149">
        <ele>119</ele>
        <time>2012-10-07T07:19:04Z</time>
      </trkpt>
      <trkpt lat="44.56085" lon="0.84149">
        <ele>119</ele>
        <time>2012-10-07T07:19:09Z</time>
      </trkpt>
      <trkpt lat="44.56066" lon="0.84137">
        <ele>117</ele>
        <time>2012-10-07T07:19:15Z</time>
      </trkpt>
      <trkpt lat="44.56044" lon="0.84118">
        <ele>113</ele>
        <time>2012-10-07T07:19:20Z</time>
      </trkpt>
      <trkpt lat="44.56023" lon="0.84101">
        <ele>110</ele>
        <time>2012-10-07T07:19:25Z</time>
      </trkpt>
      <trkpt lat="44.56007" lon="0.84087">
        <ele>110</ele>
        <time>2012-10-07T07:19:30Z</time>
      </trkpt>
      <trkpt lat="44.55985" lon="0.84068">
        <ele>110</ele>
        <time>2012-10-07T07:19:36Z</time>
      </trkpt>
      <trkpt lat="44.55949" lon="0.84054">
        <ele>110</ele>
        <time>2012-10-07T07:19:41Z</time>
      </trkpt>
      <trkpt lat="44.55911" lon="0.84039">
        <ele>110</ele>
        <time>2012-10-07T07:19:46Z</time>
      </trkpt>
      <trkpt lat="44.55879" lon="0.84026">
        <ele>109</ele>
        <time>2012-10-07T07:19:51Z</time>
      </trkpt>
      <trkpt lat="44.55855" lon="0.84016">
        <ele>108</ele>
        <time>2012-10-07T07:19:56Z</time>
      </trkpt>
      <trkpt lat="44.55852" lon="0.84007">
        <ele>107</ele>
        <time>2012-10-07T07:20:01Z</time>
      </trkpt>
      <trkpt lat="44.55851" lon="0.84006">
        <ele>107</ele>
        <time>2012-10-07T07:20:09Z</time>
      </trkpt>
      <trkpt lat="44.55848" lon="0.84006">
        <ele>106</ele>
        <time>2012-10-07T07:20:14Z</time>
      </trkpt>
      <trkpt lat="44.55844" lon="0.84004">
        <ele>113</ele>
        <time>2012-10-07T07:20:28Z</time>
      </trkpt>
      <trkpt lat="44.55846" lon="0.84004">
        <ele>119</ele>
        <time>2012-10-07T07:20:33Z</time>
      </trkpt>
      <trkpt lat="44.55847" lon="0.84001">
        <ele>121</ele>
        <time>2012-10-07T07:20:40Z</time>
      </trkpt>
      <trkpt lat="44.55844" lon="0.84003">
        <ele>121</ele>
        <time>2012-10-07T07:20:47Z</time>
      </trkpt>
      <trkpt lat="44.55827" lon="0.84008">
        <ele>118</ele>
        <time>2012-10-07T07:20:52Z</time>
      </trkpt>
      <trkpt lat="44.55818" lon="0.84005">
        <ele>117</ele>
        <time>2012-10-07T07:20:58Z</time>
      </trkpt>
      <trkpt lat="44.55816" lon="0.8401">
        <ele>118</ele>
        <time>2012-10-07T07:21:05Z</time>
      </trkpt>
      <trkpt lat="44.55813" lon="0.84012">
        <ele>118</ele>
        <time>2012-10-07T07:21:12Z</time>
      </trkpt>
      <trkpt lat="44.55817" lon="0.84011">
        <ele>118</ele>
        <time>2012-10-07T07:21:20Z</time>
      </trkpt>
      <trkpt lat="44.55821" lon="0.84011">
        <ele>118</ele>
        <time>2012-10-07T07:21:27Z</time>
      </trkpt>
      <trkpt lat="44.55822" lon="0.8401">
        <ele>118</ele>
        <time>2012-10-07T07:21:35Z</time>
      </trkpt>
      <trkpt lat="44.55818" lon="0.84007">
        <ele>116</ele>
        <time>2012-10-07T07:21:40Z</time>
      </trkpt>
      <trkpt lat="44.55816" lon="0.84005">
        <ele>110</ele>
        <time>2012-10-07T07:21:48Z</time>
      </trkpt>
      <trkpt lat="44.55819" lon="0.84005">
        <ele>110</ele>
        <time>2012-10-07T07:21:54Z</time>
      </trkpt>
      <trkpt lat="44.55821" lon="0.84001">
        <ele>111</ele>
        <time>2012-10-07T07:21:59Z</time>
      </trkpt>
      <trkpt lat="44.55829" lon="0.83995">
        <ele>113</ele>
        <time>2012-10-07T07:22:04Z</time>
      </trkpt>
      <trkpt lat="44.55841" lon="0.83984">
        <ele>115</ele>
        <time>2012-10-07T07:22:10Z</time>
      </trkpt>
      <trkpt lat="44.55851" lon="0.83968">
        <ele>116</ele>
        <time>2012-10-07T07:22:15Z</time>
      </trkpt>
      <trkpt lat="44.55854" lon="0.83956">
        <ele>117</ele>
        <time>2012-10-07T07:22:20Z</time>
      </trkpt>
      <trkpt lat="44.55859" lon="0.83946">
        <ele>117</ele>
        <time>2012-10-07T07:22:25Z</time>
      </trkpt>
      <trkpt lat="44.55865" lon="0.83934">
        <ele>119</ele>
        <time>2012-10-07T07:22:30Z</time>
      </trkpt>
      <trkpt lat="44.55872" lon="0.83924">
        <ele>123</ele>
        <time>2012-10-07T07:22:35Z</time>
      </trkpt>
      <trkpt lat="44.55874" lon="0.83915">
        <ele>126</ele>
        <time>2012-10-07T07:22:40Z</time>
      </trkpt>
      <trkpt lat="44.55879" lon="0.83902">
        <ele>126</ele>
        <time>2012-10-07T07:22:46Z</time>
      </trkpt>
      <trkpt lat="44.55891" lon="0.83889">
        <ele>126</ele>
        <time>2012-10-07T07:22:51Z</time>
      </trkpt>
      <trkpt lat="44.55896" lon="0.8388">
        <ele>126</ele>
        <time>2012-10-07T07:22:56Z</time>
      </trkpt>
      <trkpt lat="44.55902" lon="0.83869">
        <ele>126</ele>
        <time>2012-10-07T07:23:01Z</time>
      </trkpt>
      <trkpt lat="44.55903" lon="0.8386">
        <ele>127</ele>
        <time>2012-10-07T07:23:06Z</time>
      </trkpt>
      <trkpt lat="44.55909" lon="0.83849">
        <ele>128</ele>
        <time>2012-10-07T07:23:11Z</time>
      </trkpt>
      <trkpt lat="44.55915" lon="0.83835">
        <ele>130</ele>
        <time>2012-10-07T07:23:17Z</time>
      </trkpt>
      <trkpt lat="44.55921" lon="0.83824">
        <ele>133</ele>
        <time>2012-10-07T07:23:23Z</time>
      </trkpt>
      <trkpt lat="44.55929" lon="0.83813">
        <ele>136</ele>
        <time>2012-10-07T07:23:28Z</time>
      </trkpt>
      <trkpt lat="44.55938" lon="0.83802">
        <ele>136</ele>
        <time>2012-10-07T07:23:34Z</time>
      </trkpt>
      <trkpt lat="44.55945" lon="0.83793">
        <ele>136</ele>
        <time>2012-10-07T07:23:39Z</time>
      </trkpt>
      <trkpt lat="44.55951" lon="0.83785">
        <ele>136</ele>
        <time>2012-10-07T07:23:44Z</time>
      </trkpt>
      <trkpt lat="44.55955" lon="0.83777">
        <ele>136</ele>
        <time>2012-10-07T07:23:49Z</time>
      </trkpt>
      <trkpt lat="44.55954" lon="0.83772">
        <ele>137</ele>
        <time>2012-10-07T07:23:55Z</time>
      </trkpt>
      <trkpt lat="44.55959" lon="0.83764">
        <ele>140</ele>
        <time>2012-10-07T07:24:00Z</time>
      </trkpt>
      <trkpt lat="44.55966" lon="0.83752">
        <ele>140</ele>
        <time>2012-10-07T07:24:06Z</time>
      </trkpt>
      <trkpt lat="44.55971" lon="0.83741">
        <ele>140</ele>
        <time>2012-10-07T07:24:11Z</time>
      </trkpt>
      <trkpt lat="44.55981" lon="0.83726">
        <ele>140</ele>
        <time>2012-10-07T07:24:16Z</time>
      </trkpt>
      <trkpt lat="44.55987" lon="0.83714">
        <ele>140</ele>
        <time>2012-10-07T07:24:21Z</time>
      </trkpt>
      <trkpt lat="44.55988" lon="0.83713">
        <ele>140</ele>
        <time>2012-10-07T07:24:28Z</time>
      </trkpt>
      <trkpt lat="44.55985" lon="0.8372">
        <ele>140</ele>
        <time>2012-10-07T07:24:33Z</time>
      </trkpt>
      <trkpt lat="44.55978" lon="0.83735">
        <ele>140</ele>
        <time>2012-10-07T07:24:38Z</time>
      </trkpt>
      <trkpt lat="44.55968" lon="0.83758">
        <ele>138</ele>
        <time>2012-10-07T07:24:43Z</time>
      </trkpt>
      <trkpt lat="44.55957" lon="0.83776">
        <ele>137</ele>
        <time>2012-10-07T07:24:48Z</time>
      </trkpt>
      <trkpt lat="44.55953" lon="0.83777">
        <ele>137</ele>
        <time>2012-10-07T07:24:55Z</time>
      </trkpt>
      <trkpt lat="44.55951" lon="0.83777">
        <ele>134</ele>
        <time>2012-10-07T07:25:06Z</time>
      </trkpt>
      <trkpt lat="44.55952" lon="0.83776">
        <ele>133</ele>
        <time>2012-10-07T07:25:12Z</time>
      </trkpt>
      <trkpt lat="44.55956" lon="0.83778">
        <ele>135</ele>
        <time>2012-10-07T07:25:22Z</time>
      </trkpt>
      <trkpt lat="44.55955" lon="0.83777">
        <ele>135</ele>
        <time>2012-10-07T07:25:27Z</time>
      </trkpt>
      <trkpt lat="44.55955" lon="0.83776">
        <ele>135</ele>
        <time>2012-10-07T07:25:46Z</time>
      </trkpt>
      <trkpt lat="44.55956" lon="0.83776">
        <ele>135</ele>
        <time>2012-10-07T07:25:52Z</time>
      </trkpt>
      <trkpt lat="44.55957" lon="0.83775">
        <ele>135</ele>
        <time>2012-10-07T07:26:05Z</time>
      </trkpt>
      <trkpt lat="44.55959" lon="0.83775">
        <ele>135</ele>
        <time>2012-10-07T07:26:12Z</time>
      </trkpt>
      <trkpt lat="44.55958" lon="0.83772">
        <ele>138</ele>
        <time>2012-10-07T07:26:17Z</time>
      </trkpt>
      <trkpt lat="44.55958" lon="0.8377">
        <ele>138</ele>
        <time>2012-10-07T07:26:25Z</time>
      </trkpt>
      <trkpt lat="44.55958" lon="0.83768">
        <ele>138</ele>
        <time>2012-10-07T07:26:33Z</time>
      </trkpt>
      <trkpt lat="44.55959" lon="0.8377">
        <ele>135</ele>
        <time>2012-10-07T07:26:45Z</time>
      </trkpt>
      <trkpt lat="44.55957" lon="0.83769">
        <ele>135</ele>
        <time>2012-10-07T07:26:51Z</time>
      </trkpt>
      <trkpt lat="44.55959" lon="0.8377">
        <ele>135</ele>
        <time>2012-10-07T07:26:59Z</time>
      </trkpt>
      <trkpt lat="44.55954" lon="0.8377">
        <ele>135</ele>
        <time>2012-10-07T07:27:04Z</time>
      </trkpt>
      <trkpt lat="44.55946" lon="0.8376">
        <ele>135</ele>
        <time>2012-10-07T07:27:09Z</time>
      </trkpt>
      <trkpt lat="44.55945" lon="0.83746">
        <ele>135</ele>
        <time>2012-10-07T07:27:14Z</time>
      </trkpt>
      <trkpt lat="44.55949" lon="0.83729">
        <ele>135</ele>
        <time>2012-10-07T07:27:19Z</time>
      </trkpt>
      <trkpt lat="44.55957" lon="0.83708">
        <ele>135</ele>
        <time>2012-10-07T07:27:24Z</time>
      </trkpt>
      <trkpt lat="44.55964" lon="0.83688">
        <ele>135</ele>
        <time>2012-10-07T07:27:29Z</time>
      </trkpt>
      <trkpt lat="44.55965" lon="0.83665">
        <ele>136</ele>
        <time>2012-10-07T07:27:34Z</time>
      </trkpt>
      <trkpt lat="44.55958" lon="0.83634">
        <ele>136</ele>
        <time>2012-10-07T07:27:39Z</time>
      </trkpt>
      <trkpt lat="44.55939" lon="0.83623">
        <ele>136</ele>
        <time>2012-10-07T07:27:44Z</time>
      </trkpt>
      <trkpt lat="44.55917" lon="0.83605">
        <ele>136</ele>
        <time>2012-10-07T07:27:49Z</time>
      </trkpt>
      <trkpt lat="44.55905" lon="0.83568">
        <ele>133</ele>
        <time>2012-10-07T07:27:54Z</time>
      </trkpt>
      <trkpt lat="44.55885" lon="0.83538">
        <ele>127</ele>
        <time>2012-10-07T07:28:00Z</time>
      </trkpt>
      <trkpt lat="44.55873" lon="0.83513">
        <ele>126</ele>
        <time>2012-10-07T07:28:05Z</time>
      </trkpt>
      <trkpt lat="44.55864" lon="0.83497">
        <ele>126</ele>
        <time>2012-10-07T07:28:10Z</time>
      </trkpt>
      <trkpt lat="44.55846" lon="0.83489">
        <ele>123</ele>
        <time>2012-10-07T07:28:16Z</time>
      </trkpt>
      <trkpt lat="44.55833" lon="0.83476">
        <ele>123</ele>
        <time>2012-10-07T07:28:21Z</time>
      </trkpt>
      <trkpt lat="44.55833" lon="0.83469">
        <ele>122</ele>
        <time>2012-10-07T07:28:26Z</time>
      </trkpt>
      <trkpt lat="44.55845" lon="0.83467">
        <ele>122</ele>
        <time>2012-10-07T07:28:31Z</time>
      </trkpt>
      <trkpt lat="44.55858" lon="0.83464">
        <ele>122</ele>
        <time>2012-10-07T07:28:37Z</time>
      </trkpt>
      <trkpt lat="44.55871" lon="0.83461">
        <ele>122</ele>
        <time>2012-10-07T07:28:42Z</time>
      </trkpt>
      <trkpt lat="44.55883" lon="0.83459">
        <ele>122</ele>
        <time>2012-10-07T07:28:47Z</time>
      </trkpt>
      <trkpt lat="44.55892" lon="0.83457">
        <ele>122</ele>
        <time>2012-10-07T07:28:52Z</time>
      </trkpt>
      <trkpt lat="44.55904" lon="0.83452">
        <ele>122</ele>
        <time>2012-10-07T07:28:57Z</time>
      </trkpt>
      <trkpt lat="44.5592" lon="0.83441">
        <ele>122</ele>
        <time>2012-10-07T07:29:02Z</time>
      </trkpt>
      <trkpt lat="44.55934" lon="0.83428">
        <ele>122</ele>
        <time>2012-10-07T07:29:07Z</time>
      </trkpt>
      <trkpt lat="44.5595" lon="0.83415">
        <ele>122</ele>
        <time>2012-10-07T07:29:12Z</time>
      </trkpt>
      <trkpt lat="44.55965" lon="0.83403">
        <ele>123</ele>
        <time>2012-10-07T07:29:17Z</time>
      </trkpt>
      <trkpt lat="44.55978" lon="0.83391">
        <ele>123</ele>
        <time>2012-10-07T07:29:22Z</time>
      </trkpt>
      <trkpt lat="44.55992" lon="0.83375">
        <ele>123</ele>
        <time>2012-10-07T07:29:27Z</time>
      </trkpt>
      <trkpt lat="44.56002" lon="0.83367">
        <ele>123</ele>
        <time>2012-10-07T07:29:32Z</time>
      </trkpt>
      <trkpt lat="44.56016" lon="0.83381">
        <ele>123</ele>
        <time>2012-10-07T07:29:37Z</time>
      </trkpt>
      <trkpt lat="44.56028" lon="0.83399">
        <ele>123</ele>
        <time>2012-10-07T07:29:42Z</time>
      </trkpt>
      <trkpt lat="44.56042" lon="0.83414">
        <ele>123</ele>
        <time>2012-10-07T07:29:47Z</time>
      </trkpt>
      <trkpt lat="44.56061" lon="0.8342">
        <ele>123</ele>
        <time>2012-10-07T07:29:52Z</time>
      </trkpt>
      <trkpt lat="44.56079" lon="0.83425">
        <ele>125</ele>
        <time>2012-10-07T07:29:57Z</time>
      </trkpt>
      <trkpt lat="44.56098" lon="0.8343">
        <ele>126</ele>
        <time>2012-10-07T07:30:02Z</time>
      </trkpt>
      <trkpt lat="44.56112" lon="0.83444">
        <ele>126</ele>
        <time>2012-10-07T07:30:07Z</time>
      </trkpt>
      <trkpt lat="44.56122" lon="0.83463">
        <ele>127</ele>
        <time>2012-10-07T07:30:12Z</time>
      </trkpt>
      <trkpt lat="44.56135" lon="0.83484">
        <ele>127</ele>
        <time>2012-10-07T07:30:17Z</time>
      </trkpt>
      <trkpt lat="44.56147" lon="0.83502">
        <ele>127</ele>
        <time>2012-10-07T07:30:22Z</time>
      </trkpt>
      <trkpt lat="44.56158" lon="0.83517">
        <ele>127</ele>
        <time>2012-10-07T07:30:27Z</time>
      </trkpt>
      <trkpt lat="44.56169" lon="0.8353">
        <ele>127</ele>
        <time>2012-10-07T07:30:32Z</time>
      </trkpt>
      <trkpt lat="44.56174" lon="0.83537">
        <ele>129</ele>
        <time>2012-10-07T07:30:37Z</time>
      </trkpt>
      <trkpt lat="44.56183" lon="0.83546">
        <ele>130</ele>
        <time>2012-10-07T07:30:42Z</time>
      </trkpt>
      <trkpt lat="44.56193" lon="0.83555">
        <ele>134</ele>
        <time>2012-10-07T07:30:47Z</time>
      </trkpt>
      <trkpt lat="44.56202" lon="0.83561">
        <ele>137</ele>
        <time>2012-10-07T07:30:52Z</time>
      </trkpt>
      <trkpt lat="44.56213" lon="0.83562">
        <ele>138</ele>
        <time>2012-10-07T07:30:57Z</time>
      </trkpt>
      <trkpt lat="44.56226" lon="0.8356">
        <ele>138</ele>
        <time>2012-10-07T07:31:02Z</time>
      </trkpt>
      <trkpt lat="44.56237" lon="0.83561">
        <ele>138</ele>
        <time>2012-10-07T07:31:07Z</time>
      </trkpt>
      <trkpt lat="44.5625" lon="0.83565">
        <ele>138</ele>
        <time>2012-10-07T07:31:12Z</time>
      </trkpt>
      <trkpt lat="44.56263" lon="0.83568">
        <ele>138</ele>
        <time>2012-10-07T07:31:17Z</time>
      </trkpt>
      <trkpt lat="44.56276" lon="0.83572">
        <ele>138</ele>
        <time>2012-10-07T07:31:22Z</time>
      </trkpt>
      <trkpt lat="44.56289" lon="0.83576">
        <ele>140</ele>
        <time>2012-10-07T07:31:27Z</time>
      </trkpt>
      <trkpt lat="44.56304" lon="0.83572">
        <ele>140</ele>
        <time>2012-10-07T07:31:32Z</time>
      </trkpt>
      <trkpt lat="44.56318" lon="0.83565">
        <ele>140</ele>
        <time>2012-10-07T07:31:37Z</time>
      </trkpt>
      <trkpt lat="44.56329" lon="0.83561">
        <ele>141</ele>
        <time>2012-10-07T07:31:42Z</time>
      </trkpt>
      <trkpt lat="44.56345" lon="0.83557">
        <ele>142</ele>
        <time>2012-10-07T07:31:47Z</time>
      </trkpt>
      <trkpt lat="44.56361" lon="0.83549">
        <ele>144</ele>
        <time>2012-10-07T07:31:52Z</time>
      </trkpt>
      <trkpt lat="44.56375" lon="0.83544">
        <ele>144</ele>
        <time>2012-10-07T07:31:57Z</time>
      </trkpt>
      <trkpt lat="44.5639" lon="0.83533">
        <ele>145</ele>
        <time>2012-10-07T07:32:03Z</time>
      </trkpt>
      <trkpt lat="44.56402" lon="0.83518">
        <ele>145</ele>
        <time>2012-10-07T07:32:08Z</time>
      </trkpt>
      <trkpt lat="44.5641" lon="0.83505">
        <ele>145</ele>
        <time>2012-10-07T07:32:13Z</time>
      </trkpt>
      <trkpt lat="44.56421" lon="0.83495">
        <ele>145</ele>
        <time>2012-10-07T07:32:18Z</time>
      </trkpt>
      <trkpt lat="44.56443" lon="0.83489">
        <ele>146</ele>
        <time>2012-10-07T07:32:23Z</time>
      </trkpt>
      <trkpt lat="44.56465" lon="0.83481">
        <ele>146</ele>
        <time>2012-10-07T07:32:28Z</time>
      </trkpt>
      <trkpt lat="44.56484" lon="0.83477">
        <ele>146</ele>
        <time>2012-10-07T07:32:33Z</time>
      </trkpt>
      <trkpt lat="44.56499" lon="0.83487">
        <ele>146</ele>
        <time>2012-10-07T07:32:38Z</time>
      </trkpt>
      <trkpt lat="44.56514" lon="0.83499">
        <ele>146</ele>
        <time>2012-10-07T07:32:43Z</time>
      </trkpt>
      <trkpt lat="44.56531" lon="0.83513">
        <ele>146</ele>
        <time>2012-10-07T07:32:48Z</time>
      </trkpt>
      <trkpt lat="44.56548" lon="0.83525">
        <ele>146</ele>
        <time>2012-10-07T07:32:53Z</time>
      </trkpt>
      <trkpt lat="44.56564" lon="0.83536">
        <ele>146</ele>
        <time>2012-10-07T07:32:58Z</time>
      </trkpt>
      <trkpt lat="44.56581" lon="0.83548">
        <ele>146</ele>
        <time>2012-10-07T07:33:03Z</time>
      </trkpt>
      <trkpt lat="44.56599" lon="0.8356">
        <ele>146</ele>
        <time>2012-10-07T07:33:09Z</time>
      </trkpt>
      <trkpt lat="44.56613" lon="0.83569">
        <ele>146</ele>
        <time>2012-10-07T07:33:14Z</time>
      </trkpt>
      <trkpt lat="44.56628" lon="0.83577">
        <ele>146</ele>
        <time>2012-10-07T07:33:19Z</time>
      </trkpt>
      <trkpt lat="44.56643" lon="0.83582">
        <ele>146</ele>
        <time>2012-10-07T07:33:24Z</time>
      </trkpt>
      <trkpt lat="44.56659" lon="0.83588">
        <ele>146</ele>
        <time>2012-10-07T07:33:29Z</time>
      </trkpt>
      <trkpt lat="44.56675" lon="0.83595">
        <ele>146</ele>
        <time>2012-10-07T07:33:34Z</time>
      </trkpt>
      <trkpt lat="44.56691" lon="0.83601">
        <ele>146</ele>
        <time>2012-10-07T07:33:39Z</time>
      </trkpt>
      <trkpt lat="44.56705" lon="0.83609">
        <ele>146</ele>
        <time>2012-10-07T07:33:44Z</time>
      </trkpt>
      <trkpt lat="44.56717" lon="0.8362">
        <ele>146</ele>
        <time>2012-10-07T07:33:49Z</time>
      </trkpt>
      <trkpt lat="44.56728" lon="0.83633">
        <ele>149</ele>
        <time>2012-10-07T07:33:54Z</time>
      </trkpt>
      <trkpt lat="44.56736" lon="0.83646">
        <ele>151</ele>
        <time>2012-10-07T07:33:59Z</time>
      </trkpt>
      <trkpt lat="44.56745" lon="0.8366">
        <ele>151</ele>
        <time>2012-10-07T07:34:04Z</time>
      </trkpt>
      <trkpt lat="44.56752" lon="0.83671">
        <ele>151</ele>
        <time>2012-10-07T07:34:09Z</time>
      </trkpt>
      <trkpt lat="44.56755" lon="0.83678">
        <ele>153</ele>
        <time>2012-10-07T07:34:14Z</time>
      </trkpt>
      <trkpt lat="44.56752" lon="0.8368">
        <ele>156</ele>
        <time>2012-10-07T07:34:22Z</time>
      </trkpt>
      <trkpt lat="44.5675" lon="0.83678">
        <ele>157</ele>
        <time>2012-10-07T07:34:33Z</time>
      </trkpt>
      <trkpt lat="44.56747" lon="0.83675">
        <ele>157</ele>
        <time>2012-10-07T07:34:40Z</time>
      </trkpt>
      <trkpt lat="44.56747" lon="0.83679">
        <ele>157</ele>
        <time>2012-10-07T07:34:45Z</time>
      </trkpt>
      <trkpt lat="44.56747" lon="0.83679">
        <ele>157</ele>
        <time>2012-10-07T07:34:54Z</time>
      </trkpt>
      <trkpt lat="44.56749" lon="0.83679">
        <ele>155</ele>
        <time>2012-10-07T07:35:00Z</time>
      </trkpt>
      <trkpt lat="44.56751" lon="0.8368">
        <ele>155</ele>
        <time>2012-10-07T07:35:06Z</time>
      </trkpt>
      <trkpt lat="44.56752" lon="0.83684">
        <ele>155</ele>
        <time>2012-10-07T07:35:15Z</time>
      </trkpt>
      <trkpt lat="44.56754" lon="0.83686">
        <ele>155</ele>
        <time>2012-10-07T07:35:20Z</time>
      </trkpt>
      <trkpt lat="44.5676" lon="0.83687">
        <ele>155</ele>
        <time>2012-10-07T07:35:25Z</time>
      </trkpt>
      <trkpt lat="44.56763" lon="0.83693">
        <ele>155</ele>
        <time>2012-10-07T07:35:31Z</time>
      </trkpt>
      <trkpt lat="44.56766" lon="0.83699">
        <ele>155</ele>
        <time>2012-10-07T07:35:36Z</time>
      </trkpt>
      <trkpt lat="44.56773" lon="0.83708">
        <ele>155</ele>
        <time>2012-10-07T07:35:41Z</time>
      </trkpt>
      <trkpt lat="44.56777" lon="0.83714">
        <ele>155</ele>
        <time>2012-10-07T07:35:46Z</time>
      </trkpt>
      <trkpt lat="44.56781" lon="0.83721">
        <ele>155</ele>
        <time>2012-10-07T07:35:53Z</time>
      </trkpt>
      <trkpt lat="44.56779" lon="0.83722">
        <ele>157</ele>
        <time>2012-10-07T07:36:18Z</time>
      </trkpt>
      <trkpt lat="44.56779" lon="0.83728">
        <ele>157</ele>
        <time>2012-10-07T07:36:24Z</time>
      </trkpt>
      <trkpt lat="44.56787" lon="0.83736">
        <ele>157</ele>
        <time>2012-10-07T07:36:29Z</time>
      </trkpt>
      <trkpt lat="44.56796" lon="0.83746">
        <ele>157</ele>
        <time>2012-10-07T07:36:34Z</time>
      </trkpt>
      <trkpt lat="44.56807" lon="0.83761">
        <ele>157</ele>
        <time>2012-10-07T07:36:39Z</time>
      </trkpt>
      <trkpt lat="44.56819" lon="0.83778">
        <ele>157</ele>
        <time>2012-10-07T07:36:44Z</time>
      </trkpt>
      <trkpt lat="44.56834" lon="0.83778">
        <ele>157</ele>
        <time>2012-10-07T07:36:49Z</time>
      </trkpt>
      <trkpt lat="44.56842" lon="0.8379">
        <ele>157</ele>
        <time>2012-10-07T07:36:54Z</time>
      </trkpt>
      <trkpt lat="44.56842" lon="0.83792">
        <ele>157</ele>
        <time>2012-10-07T07:37:01Z</time>
      </trkpt>
      <trkpt lat="44.56841" lon="0.83789">
        <ele>155</ele>
        <time>2012-10-07T07:37:14Z</time>
      </trkpt>
      <trkpt lat="44.56839" lon="0.8379">
        <ele>154</ele>
        <time>2012-10-07T07:37:21Z</time>
      </trkpt>
      <trkpt lat="44.56836" lon="0.83787">
        <ele>154</ele>
        <time>2012-10-07T07:37:26Z</time>
      </trkpt>
      <trkpt lat="44.56826" lon="0.83785">
        <ele>154</ele>
        <time>2012-10-07T07:37:32Z</time>
      </trkpt>
      <trkpt lat="44.56813" lon="0.83781">
        <ele>154</ele>
        <time>2012-10-07T07:37:37Z</time>
      </trkpt>
      <trkpt lat="44.56799" lon="0.83766">
        <ele>154</ele>
        <time>2012-10-07T07:37:42Z</time>
      </trkpt>
      <trkpt lat="44.56786" lon="0.83746">
        <ele>154</ele>
        <time>2012-10-07T07:37:47Z</time>
      </trkpt>
      <trkpt lat="44.56777" lon="0.83732">
        <ele>156</ele>
        <time>2012-10-07T07:37:52Z</time>
      </trkpt>
      <trkpt lat="44.56778" lon="0.8372">
        <ele>160</ele>
        <time>2012-10-07T07:37:57Z</time>
      </trkpt>
      <trkpt lat="44.56792" lon="0.83711">
        <ele>162</ele>
        <time>2012-10-07T07:38:02Z</time>
      </trkpt>
      <trkpt lat="44.56808" lon="0.83704">
        <ele>164</ele>
        <time>2012-10-07T07:38:07Z</time>
      </trkpt>
      <trkpt lat="44.56832" lon="0.83685">
        <ele>165</ele>
        <time>2012-10-07T07:38:13Z</time>
      </trkpt>
      <trkpt lat="44.56851" lon="0.83667">
        <ele>166</ele>
        <time>2012-10-07T07:38:18Z</time>
      </trkpt>
      <trkpt lat="44.56872" lon="0.83645">
        <ele>166</ele>
        <time>2012-10-07T07:38:23Z</time>
      </trkpt>
      <trkpt lat="44.5689" lon="0.83627">
        <ele>166</ele>
        <time>2012-10-07T07:38:28Z</time>
      </trkpt>
      <trkpt lat="44.56909" lon="0.83634">
        <ele>166</ele>
        <time>2012-10-07T07:38:33Z</time>
      </trkpt>
      <trkpt lat="44.56923" lon="0.83662">
        <ele>165</ele>
        <time>2012-10-07T07:38:39Z</time>
      </trkpt>
      <trkpt lat="44.56933" lon="0.83687">
        <ele>162</ele>
        <time>2012-10-07T07:38:44Z</time>
      </trkpt>
      <trkpt lat="44.56947" lon="0.83712">
        <ele>160</ele>
        <time>2012-10-07T07:38:50Z</time>
      </trkpt>
      <trkpt lat="44.56958" lon="0.83733">
        <ele>160</ele>
        <time>2012-10-07T07:38:55Z</time>
      </trkpt>
      <trkpt lat="44.56966" lon="0.83758">
        <ele>159</ele>
        <time>2012-10-07T07:39:00Z</time>
      </trkpt>
      <trkpt lat="44.56961" lon="0.83783">
        <ele>159</ele>
        <time>2012-10-07T07:39:05Z</time>
      </trkpt>
      <trkpt lat="44.56946" lon="0.83798">
        <ele>159</ele>
        <time>2012-10-07T07:39:10Z</time>
      </trkpt>
      <trkpt lat="44.5693" lon="0.83808">
        <ele>159</ele>
        <time>2012-10-07T07:39:15Z</time>
      </trkpt>
      <trkpt lat="44.56907" lon="0.83828">
        <ele>157</ele>
        <time>2012-10-07T07:39:20Z</time>
      </trkpt>
      <trkpt lat="44.56889" lon="0.83866">
        <ele>154</ele>
        <time>2012-10-07T07:39:25Z</time>
      </trkpt>
      <trkpt lat="44.56881" lon="0.83912">
        <ele>152</ele>
        <time>2012-10-07T07:39:30Z</time>
      </trkpt>
      <trkpt lat="44.56884" lon="0.83955">
        <ele>150</ele>
        <time>2012-10-07T07:39:35Z</time>
      </trkpt>
      <trkpt lat="44.56898" lon="0.83991">
        <ele>146</ele>
        <time>2012-10-07T07:39:40Z</time>
      </trkpt>
      <trkpt lat="44.56912" lon="0.84016">
        <ele>145</ele>
        <time>2012-10-07T07:39:45Z</time>
      </trkpt>
      <trkpt lat="44.56924" lon="0.84036">
        <ele>145</ele>
        <time>2012-10-07T07:39:50Z</time>
      </trkpt>
      <trkpt lat="44.56933" lon="0.84058">
        <ele>145</ele>
        <time>2012-10-07T07:39:55Z</time>
      </trkpt>
      <trkpt lat="44.56947" lon="0.84096">
        <ele>147</ele>
        <time>2012-10-07T07:40:00Z</time>
      </trkpt>
      <trkpt lat="44.56961" lon="0.8414">
        <ele>147</ele>
        <time>2012-10-07T07:40:05Z</time>
      </trkpt>
      <trkpt lat="44.56987" lon="0.84171">
        <ele>147</ele>
        <time>2012-10-07T07:40:11Z</time>
      </trkpt>
      <trkpt lat="44.57013" lon="0.84172">
        <ele>147</ele>
        <time>2012-10-07T07:40:16Z</time>
      </trkpt>
      <trkpt lat="44.57036" lon="0.84165">
        <ele>148</ele>
        <time>2012-10-07T07:40:21Z</time>
      </trkpt>
      <trkpt lat="44.57059" lon="0.84158">
        <ele>149</ele>
        <time>2012-10-07T07:40:26Z</time>
      </trkpt>
      <trkpt lat="44.57085" lon="0.84152">
        <ele>149</ele>
        <time>2012-10-07T07:40:31Z</time>
      </trkpt>
      <trkpt lat="44.57109" lon="0.84164">
        <ele>149</ele>
        <time>2012-10-07T07:40:36Z</time>
      </trkpt>
      <trkpt lat="44.57121" lon="0.84197">
        <ele>149</ele>
        <time>2012-10-07T07:40:41Z</time>
      </trkpt>
      <trkpt lat="44.57134" lon="0.84242">
        <ele>149</ele>
        <time>2012-10-07T07:40:47Z</time>
      </trkpt>
      <trkpt lat="44.57143" lon="0.84278">
        <ele>149</ele>
        <time>2012-10-07T07:40:52Z</time>
      </trkpt>
      <trkpt lat="44.57151" lon="0.84315">
        <ele>148</ele>
        <time>2012-10-07T07:40:57Z</time>
      </trkpt>
      <trkpt lat="44.57159" lon="0.84346">
        <ele>148</ele>
        <time>2012-10-07T07:41:02Z</time>
      </trkpt>
      <trkpt lat="44.5717" lon="0.84374">
        <ele>148</ele>
        <time>2012-10-07T07:41:07Z</time>
      </trkpt>
      <trkpt lat="44.5718" lon="0.84404">
        <ele>153</ele>
        <time>2012-10-07T07:41:12Z</time>
      </trkpt>
      <trkpt lat="44.57189" lon="0.84431">
        <ele>154</ele>
        <time>2012-10-07T07:41:17Z</time>
      </trkpt>
      <trkpt lat="44.57199" lon="0.8446">
        <ele>155</ele>
        <time>2012-10-07T07:41:23Z</time>
      </trkpt>
      <trkpt lat="44.5721" lon="0.84482">
        <ele>156</ele>
        <time>2012-10-07T07:41:28Z</time>
      </trkpt>
      <trkpt lat="44.57215" lon="0.84501">
        <ele>156</ele>
        <time>2012-10-07T07:41:33Z</time>
      </trkpt>
      <trkpt lat="44.57216" lon="0.84504">
        <ele>156</ele>
        <time>2012-10-07T07:41:38Z</time>
      </trkpt>
      <trkpt lat="44.57216" lon="0.84507">
        <ele>156</ele>
        <time>2012-10-07T07:41:45Z</time>
      </trkpt>
      <trkpt lat="44.57214" lon="0.84506">
        <ele>158</ele>
        <time>2012-10-07T07:41:51Z</time>
      </trkpt>
      <trkpt lat="44.57212" lon="0.84504">
        <ele>164</ele>
        <time>2012-10-07T07:42:01Z</time>
      </trkpt>
      <trkpt lat="44.57206" lon="0.84503">
        <ele>164</ele>
        <time>2012-10-07T07:42:06Z</time>
      </trkpt>
      <trkpt lat="44.57204" lon="0.84504">
        <ele>165</ele>
        <time>2012-10-07T07:42:12Z</time>
      </trkpt>
      <trkpt lat="44.57199" lon="0.84503">
        <ele>165</ele>
        <time>2012-10-07T07:42:18Z</time>
      </trkpt>
      <trkpt lat="44.57198" lon="0.84503">
        <ele>165</ele>
        <time>2012-10-07T07:42:24Z</time>
      </trkpt>
      <trkpt lat="44.57196" lon="0.84504">
        <ele>165</ele>
        <time>2012-10-07T07:42:33Z</time>
      </trkpt>
      <trkpt lat="44.57196" lon="0.84505">
        <ele>166</ele>
        <time>2012-10-07T07:42:39Z</time>
      </trkpt>
      <trkpt lat="44.57199" lon="0.84508">
        <ele>170</ele>
        <time>2012-10-07T07:42:45Z</time>
      </trkpt>
      <trkpt lat="44.57201" lon="0.84518">
        <ele>171</ele>
        <time>2012-10-07T07:42:51Z</time>
      </trkpt>
      <trkpt lat="44.57203" lon="0.84529">
        <ele>171</ele>
        <time>2012-10-07T07:42:56Z</time>
      </trkpt>
      <trkpt lat="44.57206" lon="0.84549">
        <ele>170</ele>
        <time>2012-10-07T07:43:01Z</time>
      </trkpt>
      <trkpt lat="44.5721" lon="0.84572">
        <ele>166</ele>
        <time>2012-10-07T07:43:06Z</time>
      </trkpt>
      <trkpt lat="44.57216" lon="0.84596">
        <ele>161</ele>
        <time>2012-10-07T07:43:11Z</time>
      </trkpt>
      <trkpt lat="44.57221" lon="0.8462">
        <ele>159</ele>
        <time>2012-10-07T07:43:16Z</time>
      </trkpt>
      <trkpt lat="44.57222" lon="0.84643">
        <ele>159</ele>
        <time>2012-10-07T07:43:21Z</time>
      </trkpt>
      <trkpt lat="44.57221" lon="0.84666">
        <ele>158</ele>
        <time>2012-10-07T07:43:26Z</time>
      </trkpt>
      <trkpt lat="44.5722" lon="0.84689">
        <ele>158</ele>
        <time>2012-10-07T07:43:31Z</time>
      </trkpt>
      <trkpt lat="44.57221" lon="0.84711">
        <ele>158</ele>
        <time>2012-10-07T07:43:36Z</time>
      </trkpt>
      <trkpt lat="44.57223" lon="0.84735">
        <ele>158</ele>
        <time>2012-10-07T07:43:41Z</time>
      </trkpt>
      <trkpt lat="44.57225" lon="0.84765">
        <ele>160</ele>
        <time>2012-10-07T07:43:46Z</time>
      </trkpt>
      <trkpt lat="44.57226" lon="0.84795">
        <ele>160</ele>
        <time>2012-10-07T07:43:51Z</time>
      </trkpt>
      <trkpt lat="44.57225" lon="0.84831">
        <ele>160</ele>
        <time>2012-10-07T07:43:56Z</time>
      </trkpt>
      <trkpt lat="44.57232" lon="0.84864">
        <ele>160</ele>
        <time>2012-10-07T07:44:01Z</time>
      </trkpt>
      <trkpt lat="44.57244" lon="0.84913">
        <ele>160</ele>
        <time>2012-10-07T07:44:07Z</time>
      </trkpt>
      <trkpt lat="44.5725" lon="0.84964">
        <ele>160</ele>
        <time>2012-10-07T07:44:12Z</time>
      </trkpt>
      <trkpt lat="44.57267" lon="0.85015">
        <ele>160</ele>
        <time>2012-10-07T07:44:17Z</time>
      </trkpt>
      <trkpt lat="44.57288" lon="0.85072">
        <ele>160</ele>
        <time>2012-10-07T07:44:23Z</time>
      </trkpt>
      <trkpt lat="44.57312" lon="0.85115">
        <ele>162</ele>
        <time>2012-10-07T07:44:28Z</time>
      </trkpt>
      <trkpt lat="44.57328" lon="0.85158">
        <ele>164</ele>
        <time>2012-10-07T07:44:33Z</time>
      </trkpt>
      <trkpt lat="44.57349" lon="0.85202">
        <ele>165</ele>
        <time>2012-10-07T07:44:38Z</time>
      </trkpt>
      <trkpt lat="44.57365" lon="0.85243">
        <ele>166</ele>
        <time>2012-10-07T07:44:43Z</time>
      </trkpt>
      <trkpt lat="44.57385" lon="0.85271">
        <ele>166</ele>
        <time>2012-10-07T07:44:48Z</time>
      </trkpt>
      <trkpt lat="44.57401" lon="0.85285">
        <ele>166</ele>
        <time>2012-10-07T07:44:53Z</time>
      </trkpt>
      <trkpt lat="44.57416" lon="0.85299">
        <ele>167</ele>
        <time>2012-10-07T07:44:58Z</time>
      </trkpt>
      <trkpt lat="44.57437" lon="0.85312">
        <ele>170</ele>
        <time>2012-10-07T07:45:03Z</time>
      </trkpt>
      <trkpt lat="44.57467" lon="0.85336">
        <ele>171</ele>
        <time>2012-10-07T07:45:09Z</time>
      </trkpt>
      <trkpt lat="44.57495" lon="0.85363">
        <ele>171</ele>
        <time>2012-10-07T07:45:15Z</time>
      </trkpt>
      <trkpt lat="44.57519" lon="0.85394">
        <ele>171</ele>
        <time>2012-10-07T07:45:20Z</time>
      </trkpt>
      <trkpt lat="44.57546" lon="0.85414">
        <ele>170</ele>
        <time>2012-10-07T07:45:25Z</time>
      </trkpt>
      <trkpt lat="44.57576" lon="0.85436">
        <ele>170</ele>
        <time>2012-10-07T07:45:31Z</time>
      </trkpt>
      <trkpt lat="44.57602" lon="0.85452">
        <ele>172</ele>
        <time>2012-10-07T07:45:36Z</time>
      </trkpt>
      <trkpt lat="44.57619" lon="0.85464">
        <ele>177</ele>
        <time>2012-10-07T07:45:41Z</time>
      </trkpt>
      <trkpt lat="44.57629" lon="0.85469">
        <ele>182</ele>
        <time>2012-10-07T07:45:46Z</time>
      </trkpt>
      <trkpt lat="44.57631" lon="0.85461">
        <ele>185</ele>
        <time>2012-10-07T07:45:51Z</time>
      </trkpt>
      <trkpt lat="44.57629" lon="0.8546">
        <ele>187</ele>
        <time>2012-10-07T07:45:58Z</time>
      </trkpt>
      <trkpt lat="44.57631" lon="0.85463">
        <ele>189</ele>
        <time>2012-10-07T07:46:04Z</time>
      </trkpt>
      <trkpt lat="44.57629" lon="0.85465">
        <ele>190</ele>
        <time>2012-10-07T07:46:11Z</time>
      </trkpt>
      <trkpt lat="44.57627" lon="0.85468">
        <ele>190</ele>
        <time>2012-10-07T07:46:19Z</time>
      </trkpt>
      <trkpt lat="44.57626" lon="0.85467">
        <ele>190</ele>
        <time>2012-10-07T07:46:24Z</time>
      </trkpt>
      <trkpt lat="44.57626" lon="0.85462">
        <ele>190</ele>
        <time>2012-10-07T07:46:30Z</time>
      </trkpt>
      <trkpt lat="44.57628" lon="0.85459">
        <ele>191</ele>
        <time>2012-10-07T07:46:36Z</time>
      </trkpt>
      <trkpt lat="44.57626" lon="0.85459">
        <ele>192</ele>
        <time>2012-10-07T07:46:42Z</time>
      </trkpt>
      <trkpt lat="44.57624" lon="0.85462">
        <ele>192</ele>
        <time>2012-10-07T07:46:48Z</time>
      </trkpt>
      <trkpt lat="44.5762" lon="0.85465">
        <ele>192</ele>
        <time>2012-10-07T07:46:54Z</time>
      </trkpt>
      <trkpt lat="44.57619" lon="0.85468">
        <ele>189</ele>
        <time>2012-10-07T07:47:01Z</time>
      </trkpt>
      <trkpt lat="44.57618" lon="0.85471">
        <ele>189</ele>
        <time>2012-10-07T07:47:06Z</time>
      </trkpt>
      <trkpt lat="44.57618" lon="0.85474">
        <ele>189</ele>
        <time>2012-10-07T07:47:19Z</time>
      </trkpt>
      <trkpt lat="44.57619" lon="0.85472">
        <ele>188</ele>
        <time>2012-10-07T07:47:32Z</time>
      </trkpt>
      <trkpt lat="44.57626" lon="0.85461">
        <ele>188</ele>
        <time>2012-10-07T07:47:37Z</time>
      </trkpt>
      <trkpt lat="44.57632" lon="0.85444">
        <ele>188</ele>
        <time>2012-10-07T07:47:42Z</time>
      </trkpt>
      <trkpt lat="44.57637" lon="0.85426">
        <ele>188</ele>
        <time>2012-10-07T07:47:47Z</time>
      </trkpt>
      <trkpt lat="44.57655" lon="0.85428">
        <ele>188</ele>
        <time>2012-10-07T07:47:52Z</time>
      </trkpt>
      <trkpt lat="44.57687" lon="0.8545">
        <ele>183</ele>
        <time>2012-10-07T07:47:57Z</time>
      </trkpt>
      <trkpt lat="44.57717" lon="0.85481">
        <ele>178</ele>
        <time>2012-10-07T07:48:02Z</time>
      </trkpt>
      <trkpt lat="44.57721" lon="0.85523">
        <ele>173</ele>
        <time>2012-10-07T07:48:07Z</time>
      </trkpt>
      <trkpt lat="44.57713" lon="0.85571">
        <ele>169</ele>
        <time>2012-10-07T07:48:12Z</time>
      </trkpt>
      <trkpt lat="44.57721" lon="0.85613">
        <ele>168</ele>
        <time>2012-10-07T07:48:17Z</time>
      </trkpt>
      <trkpt lat="44.57728" lon="0.85657">
        <ele>167</ele>
        <time>2012-10-07T07:48:22Z</time>
      </trkpt>
      <trkpt lat="44.57739" lon="0.8569">
        <ele>165</ele>
        <time>2012-10-07T07:48:27Z</time>
      </trkpt>
      <trkpt lat="44.57752" lon="0.85724">
        <ele>161</ele>
        <time>2012-10-07T07:48:32Z</time>
      </trkpt>
      <trkpt lat="44.57766" lon="0.85757">
        <ele>158</ele>
        <time>2012-10-07T07:48:37Z</time>
      </trkpt>
      <trkpt lat="44.57779" lon="0.85791">
        <ele>158</ele>
        <time>2012-10-07T07:48:42Z</time>
      </trkpt>
      <trkpt lat="44.57795" lon="0.85825">
        <ele>158</ele>
        <time>2012-10-07T07:48:47Z</time>
      </trkpt>
      <trkpt lat="44.57813" lon="0.8586">
        <ele>158</ele>
        <time>2012-10-07T07:48:52Z</time>
      </trkpt>
      <trkpt lat="44.57826" lon="0.85883">
        <ele>160</ele>
        <time>2012-10-07T07:48:57Z</time>
      </trkpt>
      <trkpt lat="44.57841" lon="0.85897">
        <ele>163</ele>
        <time>2012-10-07T07:49:02Z</time>
      </trkpt>
      <trkpt lat="44.57856" lon="0.85904">
        <ele>165</ele>
        <time>2012-10-07T07:49:07Z</time>
      </trkpt>
      <trkpt lat="44.57859" lon="0.85915">
        <ele>166</ele>
        <time>2012-10-07T07:49:13Z</time>
      </trkpt>
      <trkpt lat="44.57854" lon="0.85917">
        <ele>168</ele>
        <time>2012-10-07T07:49:18Z</time>
      </trkpt>
      <trkpt lat="44.57855" lon="0.85915">
        <ele>171</ele>
        <time>2012-10-07T07:49:23Z</time>
      </trkpt>
      <trkpt lat="44.57853" lon="0.85914">
        <ele>172</ele>
        <time>2012-10-07T07:49:28Z</time>
      </trkpt>
      <trkpt lat="44.57852" lon="0.8591">
        <ele>178</ele>
        <time>2012-10-07T07:49:34Z</time>
      </trkpt>
      <trkpt lat="44.57858" lon="0.85907">
        <ele>179</ele>
        <time>2012-10-07T07:49:39Z</time>
      </trkpt>
      <trkpt lat="44.57862" lon="0.85905">
        <ele>179</ele>
        <time>2012-10-07T07:49:45Z</time>
      </trkpt>
      <trkpt lat="44.57863" lon="0.85907">
        <ele>179</ele>
        <time>2012-10-07T07:49:52Z</time>
      </trkpt>
      <trkpt lat="44.57866" lon="0.8591">
        <ele>179</ele>
        <time>2012-10-07T07:49:58Z</time>
      </trkpt>
      <trkpt lat="44.57867" lon="0.85909">
        <ele>179</ele>
        <time>2012-10-07T07:50:20Z</time>
      </trkpt>
      <trkpt lat="44.5788" lon="0.85902">
        <ele>179</ele>
        <time>2012-10-07T07:50:25Z</time>
      </trkpt>
      <trkpt lat="44.57902" lon="0.85891">
        <ele>179</ele>
        <time>2012-10-07T07:50:30Z</time>
      </trkpt>
      <trkpt lat="44.57925" lon="0.85882">
        <ele>179</ele>
        <time>2012-10-07T07:50:35Z</time>
      </trkpt>
      <trkpt lat="44.57944" lon="0.85871">
        <ele>179</ele>
        <time>2012-10-07T07:50:40Z</time>
      </trkpt>
      <trkpt lat="44.57962" lon="0.8586">
        <ele>179</ele>
        <time>2012-10-07T07:50:45Z</time>
      </trkpt>
      <trkpt lat="44.57985" lon="0.85846">
        <ele>179</ele>
        <time>2012-10-07T07:50:50Z</time>
      </trkpt>
      <trkpt lat="44.58012" lon="0.85835">
        <ele>179</ele>
        <time>2012-10-07T07:50:55Z</time>
      </trkpt>
      <trkpt lat="44.58038" lon="0.85824">
        <ele>179</ele>
        <time>2012-10-07T07:51:00Z</time>
      </trkpt>
      <trkpt lat="44.58065" lon="0.8581">
        <ele>179</ele>
        <time>2012-10-07T07:51:05Z</time>
      </trkpt>
      <trkpt lat="44.58091" lon="0.85798">
        <ele>179</ele>
        <time>2012-10-07T07:51:10Z</time>
      </trkpt>
      <trkpt lat="44.58115" lon="0.85787">
        <ele>179</ele>
        <time>2012-10-07T07:51:15Z</time>
      </trkpt>
      <trkpt lat="44.58141" lon="0.8577">
        <ele>179</ele>
        <time>2012-10-07T07:51:20Z</time>
      </trkpt>
      <trkpt lat="44.58165" lon="0.85753">
        <ele>179</ele>
        <time>2012-10-07T07:51:25Z</time>
      </trkpt>
      <trkpt lat="44.58185" lon="0.85723">
        <ele>179</ele>
        <time>2012-10-07T07:51:30Z</time>
      </trkpt>
      <trkpt lat="44.58204" lon="0.85684">
        <ele>179</ele>
        <time>2012-10-07T07:51:35Z</time>
      </trkpt>
      <trkpt lat="44.58224" lon="0.85644">
        <ele>179</ele>
        <time>2012-10-07T07:51:40Z</time>
      </trkpt>
      <trkpt lat="44.58246" lon="0.85609">
        <ele>179</ele>
        <time>2012-10-07T07:51:45Z</time>
      </trkpt>
      <trkpt lat="44.58284" lon="0.85587">
        <ele>179</ele>
        <time>2012-10-07T07:51:50Z</time>
      </trkpt>
      <trkpt lat="44.58326" lon="0.85572">
        <ele>179</ele>
        <time>2012-10-07T07:51:55Z</time>
      </trkpt>
      <trkpt lat="44.58363" lon="0.85562">
        <ele>179</ele>
        <time>2012-10-07T07:52:00Z</time>
      </trkpt>
      <trkpt lat="44.58396" lon="0.85554">
        <ele>179</ele>
        <time>2012-10-07T07:52:05Z</time>
      </trkpt>
      <trkpt lat="44.58433" lon="0.85541">
        <ele>179</ele>
        <time>2012-10-07T07:52:10Z</time>
      </trkpt>
      <trkpt lat="44.58466" lon="0.85516">
        <ele>179</ele>
        <time>2012-10-07T07:52:15Z</time>
      </trkpt>
      <trkpt lat="44.58492" lon="0.85488">
        <ele>179</ele>
        <time>2012-10-07T07:52:20Z</time>
      </trkpt>
      <trkpt lat="44.58524" lon="0.8547">
        <ele>179</ele>
        <time>2012-10-07T07:52:25Z</time>
      </trkpt>
      <trkpt lat="44.58559" lon="0.85465">
        <ele>179</ele>
        <time>2012-10-07T07:52:30Z</time>
      </trkpt>
      <trkpt lat="44.58596" lon="0.85471">
        <ele>179</ele>
        <time>2012-10-07T07:52:35Z</time>
      </trkpt>
      <trkpt lat="44.58626" lon="0.85482">
        <ele>178</ele>
        <time>2012-10-07T07:52:40Z</time>
      </trkpt>
      <trkpt lat="44.58655" lon="0.85491">
        <ele>178</ele>
        <time>2012-10-07T07:52:45Z</time>
      </trkpt>
      <trkpt lat="44.58683" lon="0.85496">
        <ele>178</ele>
        <time>2012-10-07T07:52:50Z</time>
      </trkpt>
      <trkpt lat="44.5871" lon="0.85503">
        <ele>178</ele>
        <time>2012-10-07T07:52:55Z</time>
      </trkpt>
      <trkpt lat="44.58737" lon="0.85509">
        <ele>176</ele>
        <time>2012-10-07T07:53:00Z</time>
      </trkpt>
      <trkpt lat="44.58767" lon="0.85515">
        <ele>174</ele>
        <time>2012-10-07T07:53:05Z</time>
      </trkpt>
      <trkpt lat="44.58795" lon="0.85519">
        <ele>174</ele>
        <time>2012-10-07T07:53:10Z</time>
      </trkpt>
      <trkpt lat="44.58823" lon="0.85526">
        <ele>174</ele>
        <time>2012-10-07T07:53:15Z</time>
      </trkpt>
      <trkpt lat="44.58853" lon="0.85532">
        <ele>174</ele>
        <time>2012-10-07T07:53:20Z</time>
      </trkpt>
      <trkpt lat="44.58894" lon="0.85543">
        <ele>174</ele>
        <time>2012-10-07T07:53:25Z</time>
      </trkpt>
      <trkpt lat="44.58937" lon="0.85554">
        <ele>174</ele>
        <time>2012-10-07T07:53:30Z</time>
      </trkpt>
      <trkpt lat="44.58951" lon="0.85537">
        <ele>174</ele>
        <time>2012-10-07T07:53:35Z</time>
      </trkpt>
      <trkpt lat="44.58947" lon="0.85527">
        <ele>174</ele>
        <time>2012-10-07T07:53:40Z</time>
      </trkpt>
      <trkpt lat="44.58946" lon="0.85531">
        <ele>176</ele>
        <time>2012-10-07T07:53:45Z</time>
      </trkpt>
      <trkpt lat="44.58947" lon="0.85542">
        <ele>176</ele>
        <time>2012-10-07T07:53:50Z</time>
      </trkpt>
      <trkpt lat="44.58947" lon="0.85554">
        <ele>176</ele>
        <time>2012-10-07T07:53:55Z</time>
      </trkpt>
      <trkpt lat="44.58949" lon="0.85565">
        <ele>176</ele>
        <time>2012-10-07T07:54:01Z</time>
      </trkpt>
      <trkpt lat="44.58953" lon="0.85564">
        <ele>176</ele>
        <time>2012-10-07T07:54:06Z</time>
      </trkpt>
      <trkpt lat="44.58957" lon="0.85565">
        <ele>176</ele>
        <time>2012-10-07T07:54:11Z</time>
      </trkpt>
      <trkpt lat="44.5896" lon="0.85567">
        <ele>176</ele>
        <time>2012-10-07T07:54:19Z</time>
      </trkpt>
      <trkpt lat="44.58962" lon="0.85567">
        <ele>176</ele>
        <time>2012-10-07T07:54:26Z</time>
      </trkpt>
      <trkpt lat="44.58963" lon="0.85565">
        <ele>174</ele>
        <time>2012-10-07T07:54:49Z</time>
      </trkpt>
      <trkpt lat="44.58964" lon="0.85564">
        <ele>174</ele>
        <time>2012-10-07T07:54:59Z</time>
      </trkpt>
      <trkpt lat="44.58972" lon="0.85565">
        <ele>174</ele>
        <time>2012-10-07T07:55:04Z</time>
      </trkpt>
      <trkpt lat="44.58984" lon="0.8557">
        <ele>174</ele>
        <time>2012-10-07T07:55:09Z</time>
      </trkpt>
      <trkpt lat="44.58994" lon="0.85572">
        <ele>174</ele>
        <time>2012-10-07T07:55:14Z</time>
      </trkpt>
      <trkpt lat="44.59006" lon="0.85575">
        <ele>174</ele>
        <time>2012-10-07T07:55:19Z</time>
      </trkpt>
      <trkpt lat="44.59017" lon="0.85577">
        <ele>174</ele>
        <time>2012-10-07T07:55:24Z</time>
      </trkpt>
      <trkpt lat="44.59031" lon="0.85581">
        <ele>174</ele>
        <time>2012-10-07T07:55:29Z</time>
      </trkpt>
      <trkpt lat="44.59045" lon="0.85585">
        <ele>174</ele>
        <time>2012-10-07T07:55:34Z</time>
      </trkpt>
      <trkpt lat="44.59059" lon="0.85589">
        <ele>174</ele>
        <time>2012-10-07T07:55:39Z</time>
      </trkpt>
      <trkpt lat="44.59073" lon="0.85594">
        <ele>174</ele>
        <time>2012-10-07T07:55:44Z</time>
      </trkpt>
      <trkpt lat="44.59097" lon="0.856">
        <ele>174</ele>
        <time>2012-10-07T07:55:49Z</time>
      </trkpt>
      <trkpt lat="44.59121" lon="0.85604">
        <ele>174</ele>
        <time>2012-10-07T07:55:54Z</time>
      </trkpt>
      <trkpt lat="44.59143" lon="0.85611">
        <ele>174</ele>
        <time>2012-10-07T07:55:59Z</time>
      </trkpt>
      <trkpt lat="44.59162" lon="0.85611">
        <ele>174</ele>
        <time>2012-10-07T07:56:04Z</time>
      </trkpt>
      <trkpt lat="44.59164" lon="0.85591">
        <ele>174</ele>
        <time>2012-10-07T07:56:09Z</time>
      </trkpt>
      <trkpt lat="44.59165" lon="0.85573">
        <ele>174</ele>
        <time>2012-10-07T07:56:14Z</time>
      </trkpt>
      <trkpt lat="44.59167" lon="0.85562">
        <ele>174</ele>
        <time>2012-10-07T07:56:19Z</time>
      </trkpt>
      <trkpt lat="44.59168" lon="0.85561">
        <ele>174</ele>
        <time>2012-10-07T07:56:25Z</time>
      </trkpt>
      <trkpt lat="44.59169" lon="0.85563">
        <ele>174</ele>
        <time>2012-10-07T07:56:31Z</time>
      </trkpt>
      <trkpt lat="44.59168" lon="0.85562">
        <ele>174</ele>
        <time>2012-10-07T07:56:39Z</time>
      </trkpt>
      <trkpt lat="44.59169" lon="0.8556">
        <ele>174</ele>
        <time>2012-10-07T07:56:45Z</time>
      </trkpt>
      <trkpt lat="44.59173" lon="0.85562">
        <ele>174</ele>
        <time>2012-10-07T07:56:50Z</time>
      </trkpt>
      <trkpt lat="44.59177" lon="0.85564">
        <ele>174</ele>
        <time>2012-10-07T07:56:55Z</time>
      </trkpt>
      <trkpt lat="44.59184" lon="0.85566">
        <ele>174</ele>
        <time>2012-10-07T07:57:00Z</time>
      </trkpt>
      <trkpt lat="44.59192" lon="0.8557">
        <ele>174</ele>
        <time>2012-10-07T07:57:05Z</time>
      </trkpt>
      <trkpt lat="44.59206" lon="0.85575">
        <ele>174</ele>
        <time>2012-10-07T07:57:10Z</time>
      </trkpt>
      <trkpt lat="44.5922" lon="0.85582">
        <ele>175</ele>
        <time>2012-10-07T07:57:15Z</time>
      </trkpt>
      <trkpt lat="44.59235" lon="0.8559">
        <ele>175</ele>
        <time>2012-10-07T07:57:20Z</time>
      </trkpt>
      <trkpt lat="44.59251" lon="0.85598">
        <ele>175</ele>
        <time>2012-10-07T07:57:25Z</time>
      </trkpt>
      <trkpt lat="44.5927" lon="0.85608">
        <ele>175</ele>
        <time>2012-10-07T07:57:30Z</time>
      </trkpt>
      <trkpt lat="44.5929" lon="0.85618">
        <ele>175</ele>
        <time>2012-10-07T07:57:35Z</time>
      </trkpt>
      <trkpt lat="44.59314" lon="0.85629">
        <ele>175</ele>
        <time>2012-10-07T07:57:40Z</time>
      </trkpt>
      <trkpt lat="44.59334" lon="0.8564">
        <ele>175</ele>
        <time>2012-10-07T07:57:45Z</time>
      </trkpt>
      <trkpt lat="44.59352" lon="0.8565">
        <ele>175</ele>
        <time>2012-10-07T07:57:50Z</time>
      </trkpt>
      <trkpt lat="44.59373" lon="0.8566">
        <ele>175</ele>
        <time>2012-10-07T07:57:55Z</time>
      </trkpt>
      <trkpt lat="44.59395" lon="0.8567">
        <ele>175</ele>
        <time>2012-10-07T07:58:00Z</time>
      </trkpt>
      <trkpt lat="44.59417" lon="0.85677">
        <ele>175</ele>
        <time>2012-10-07T07:58:05Z</time>
      </trkpt>
      <trkpt lat="44.59437" lon="0.85683">
        <ele>175</ele>
        <time>2012-10-07T07:58:10Z</time>
      </trkpt>
      <trkpt lat="44.59459" lon="0.85687">
        <ele>175</ele>
        <time>2012-10-07T07:58:15Z</time>
      </trkpt>
      <trkpt lat="44.59479" lon="0.85692">
        <ele>175</ele>
        <time>2012-10-07T07:58:20Z</time>
      </trkpt>
      <trkpt lat="44.59493" lon="0.85694">
        <ele>174</ele>
        <time>2012-10-07T07:58:25Z</time>
      </trkpt>
      <trkpt lat="44.59511" lon="0.85698">
        <ele>174</ele>
        <time>2012-10-07T07:58:30Z</time>
      </trkpt>
      <trkpt lat="44.59531" lon="0.85701">
        <ele>174</ele>
        <time>2012-10-07T07:58:35Z</time>
      </trkpt>
      <trkpt lat="44.59548" lon="0.85707">
        <ele>174</ele>
        <time>2012-10-07T07:58:40Z</time>
      </trkpt>
      <trkpt lat="44.59567" lon="0.85713">
        <ele>175</ele>
        <time>2012-10-07T07:58:45Z</time>
      </trkpt>
      <trkpt lat="44.59581" lon="0.85716">
        <ele>177</ele>
        <time>2012-10-07T07:58:50Z</time>
      </trkpt>
      <trkpt lat="44.59597" lon="0.85722">
        <ele>177</ele>
        <time>2012-10-07T07:58:55Z</time>
      </trkpt>
      <trkpt lat="44.59623" lon="0.85729">
        <ele>177</ele>
        <time>2012-10-07T07:59:00Z</time>
      </trkpt>
      <trkpt lat="44.59652" lon="0.85733">
        <ele>177</ele>
        <time>2012-10-07T07:59:05Z</time>
      </trkpt>
      <trkpt lat="44.59674" lon="0.85738">
        <ele>177</ele>
        <time>2012-10-07T07:59:10Z</time>
      </trkpt>
      <trkpt lat="44.59698" lon="0.85744">
        <ele>177</ele>
        <time>2012-10-07T07:59:15Z</time>
      </trkpt>
      <trkpt lat="44.59731" lon="0.85752">
        <ele>177</ele>
        <time>2012-10-07T07:59:20Z</time>
      </trkpt>
      <trkpt lat="44.59758" lon="0.85759">
        <ele>177</ele>
        <time>2012-10-07T07:59:25Z</time>
      </trkpt>
      <trkpt lat="44.59781" lon="0.85764">
        <ele>177</ele>
        <time>2012-10-07T07:59:30Z</time>
      </trkpt>
      <trkpt lat="44.59804" lon="0.85768">
        <ele>177</ele>
        <time>2012-10-07T07:59:35Z</time>
      </trkpt>
      <trkpt lat="44.59816" lon="0.85798">
        <ele>173</ele>
        <time>2012-10-07T07:59:40Z</time>
      </trkpt>
      <trkpt lat="44.59825" lon="0.85844">
        <ele>173</ele>
        <time>2012-10-07T07:59:45Z</time>
      </trkpt>
      <trkpt lat="44.59829" lon="0.85886">
        <ele>172</ele>
        <time>2012-10-07T07:59:50Z</time>
      </trkpt>
      <trkpt lat="44.59832" lon="0.85921">
        <ele>172</ele>
        <time>2012-10-07T07:59:55Z</time>
      </trkpt>
      <trkpt lat="44.59846" lon="0.8595">
        <ele>173</ele>
        <time>2012-10-07T08:00:00Z</time>
      </trkpt>
      <trkpt lat="44.59863" lon="0.85983">
        <ele>173</ele>
        <time>2012-10-07T08:00:05Z</time>
      </trkpt>
      <trkpt lat="44.59872" lon="0.86019">
        <ele>174</ele>
        <time>2012-10-07T08:00:10Z</time>
      </trkpt>
      <trkpt lat="44.59878" lon="0.86049">
        <ele>174</ele>
        <time>2012-10-07T08:00:15Z</time>
      </trkpt>
      <trkpt lat="44.59883" lon="0.86083">
        <ele>174</ele>
        <time>2012-10-07T08:00:20Z</time>
      </trkpt>
      <trkpt lat="44.59886" lon="0.86108">
        <ele>174</ele>
        <time>2012-10-07T08:00:25Z</time>
      </trkpt>
      <trkpt lat="44.5989" lon="0.86133">
        <ele>175</ele>
        <time>2012-10-07T08:00:30Z</time>
      </trkpt>
      <trkpt lat="44.59894" lon="0.86156">
        <ele>176</ele>
        <time>2012-10-07T08:00:35Z</time>
      </trkpt>
      <trkpt lat="44.59897" lon="0.8617">
        <ele>176</ele>
        <time>2012-10-07T08:00:40Z</time>
      </trkpt>
      <trkpt lat="44.59901" lon="0.86174">
        <ele>176</ele>
        <time>2012-10-07T08:00:45Z</time>
      </trkpt>
      <trkpt lat="44.59915" lon="0.86178">
        <ele>176</ele>
        <time>2012-10-07T08:00:50Z</time>
      </trkpt>
      <trkpt lat="44.59927" lon="0.86176">
        <ele>176</ele>
        <time>2012-10-07T08:00:55Z</time>
      </trkpt>
      <trkpt lat="44.59936" lon="0.86173">
        <ele>176</ele>
        <time>2012-10-07T08:01:00Z</time>
      </trkpt>
      <trkpt lat="44.59954" lon="0.86167">
        <ele>177</ele>
        <time>2012-10-07T08:01:05Z</time>
      </trkpt>
      <trkpt lat="44.59974" lon="0.86165">
        <ele>178</ele>
        <time>2012-10-07T08:01:10Z</time>
      </trkpt>
      <trkpt lat="44.59995" lon="0.86163">
        <ele>179</ele>
        <time>2012-10-07T08:01:15Z</time>
      </trkpt>
      <trkpt lat="44.60012" lon="0.86167">
        <ele>179</ele>
        <time>2012-10-07T08:01:20Z</time>
      </trkpt>
      <trkpt lat="44.60035" lon="0.86169">
        <ele>179</ele>
        <time>2012-10-07T08:01:25Z</time>
      </trkpt>
      <trkpt lat="44.60059" lon="0.86168">
        <ele>181</ele>
        <time>2012-10-07T08:01:30Z</time>
      </trkpt>
      <trkpt lat="44.60082" lon="0.86158">
        <ele>181</ele>
        <time>2012-10-07T08:01:35Z</time>
      </trkpt>
      <trkpt lat="44.60111" lon="0.86145">
        <ele>181</ele>
        <time>2012-10-07T08:01:40Z</time>
      </trkpt>
      <trkpt lat="44.60146" lon="0.86134">
        <ele>181</ele>
        <time>2012-10-07T08:01:45Z</time>
      </trkpt>
      <trkpt lat="44.60176" lon="0.86122">
        <ele>180</ele>
        <time>2012-10-07T08:01:50Z</time>
      </trkpt>
      <trkpt lat="44.60199" lon="0.86125">
        <ele>178</ele>
        <time>2012-10-07T08:01:55Z</time>
      </trkpt>
      <trkpt lat="44.60198" lon="0.86131">
        <ele>176</ele>
        <time>2012-10-07T08:02:00Z</time>
      </trkpt>
      <trkpt lat="44.60196" lon="0.86133">
        <ele>176</ele>
        <time>2012-10-07T08:02:06Z</time>
      </trkpt>
      <trkpt lat="44.60199" lon="0.86135">
        <ele>176</ele>
        <time>2012-10-07T08:02:13Z</time>
      </trkpt>
      <trkpt lat="44.60202" lon="0.86133">
        <ele>176</ele>
        <time>2012-10-07T08:02:19Z</time>
      </trkpt>
      <trkpt lat="44.60205" lon="0.86132">
        <ele>176</ele>
        <time>2012-10-07T08:02:25Z</time>
      </trkpt>
      <trkpt lat="44.60208" lon="0.86132">
        <ele>176</ele>
        <time>2012-10-07T08:02:32Z</time>
      </trkpt>
      <trkpt lat="44.60209" lon="0.86131">
        <ele>176</ele>
        <time>2012-10-07T08:02:38Z</time>
      </trkpt>
      <trkpt lat="44.60211" lon="0.86128">
        <ele>176</ele>
        <time>2012-10-07T08:02:47Z</time>
      </trkpt>
      <trkpt lat="44.60213" lon="0.86127">
        <ele>181</ele>
        <time>2012-10-07T08:02:55Z</time>
      </trkpt>
      <trkpt lat="44.60213" lon="0.86126">
        <ele>182</ele>
        <time>2012-10-07T08:03:06Z</time>
      </trkpt>
      <trkpt lat="44.60209" lon="0.86128">
        <ele>182</ele>
        <time>2012-10-07T08:03:12Z</time>
      </trkpt>
      <trkpt lat="44.60203" lon="0.8613">
        <ele>179</ele>
        <time>2012-10-07T08:03:17Z</time>
      </trkpt>
      <trkpt lat="44.60199" lon="0.86133">
        <ele>176</ele>
        <time>2012-10-07T08:03:24Z</time>
      </trkpt>
      <trkpt lat="44.60196" lon="0.86136">
        <ele>175</ele>
        <time>2012-10-07T08:03:33Z</time>
      </trkpt>
      <trkpt lat="44.60195" lon="0.86141">
        <ele>175</ele>
        <time>2012-10-07T08:03:40Z</time>
      </trkpt>
      <trkpt lat="44.60194" lon="0.86142">
        <ele>175</ele>
        <time>2012-10-07T08:03:45Z</time>
      </trkpt>
      <trkpt lat="44.60197" lon="0.86142">
        <ele>175</ele>
        <time>2012-10-07T08:03:56Z</time>
      </trkpt>
      <trkpt lat="44.60197" lon="0.8614">
        <ele>175</ele>
        <time>2012-10-07T08:04:18Z</time>
      </trkpt>
      <trkpt lat="44.60196" lon="0.86136">
        <ele>175</ele>
        <time>2012-10-07T08:04:24Z</time>
      </trkpt>
      <trkpt lat="44.60196" lon="0.86131">
        <ele>175</ele>
        <time>2012-10-07T08:04:30Z</time>
      </trkpt>
      <trkpt lat="44.60186" lon="0.86126">
        <ele>175</ele>
        <time>2012-10-07T08:04:35Z</time>
      </trkpt>
      <trkpt lat="44.60173" lon="0.86132">
        <ele>175</ele>
        <time>2012-10-07T08:04:40Z</time>
      </trkpt>
      <trkpt lat="44.60157" lon="0.8614">
        <ele>175</ele>
        <time>2012-10-07T08:04:45Z</time>
      </trkpt>
      <trkpt lat="44.60142" lon="0.86147">
        <ele>175</ele>
        <time>2012-10-07T08:04:50Z</time>
      </trkpt>
      <trkpt lat="44.60127" lon="0.86155">
        <ele>175</ele>
        <time>2012-10-07T08:04:55Z</time>
      </trkpt>
      <trkpt lat="44.6011" lon="0.86162">
        <ele>175</ele>
        <time>2012-10-07T08:05:00Z</time>
      </trkpt>
      <trkpt lat="44.60093" lon="0.86168">
        <ele>178</ele>
        <time>2012-10-07T08:05:05Z</time>
      </trkpt>
      <trkpt lat="44.60078" lon="0.86177">
        <ele>180</ele>
        <time>2012-10-07T08:05:10Z</time>
      </trkpt>
      <trkpt lat="44.60067" lon="0.86177">
        <ele>182</ele>
        <time>2012-10-07T08:05:15Z</time>
      </trkpt>
      <trkpt lat="44.60064" lon="0.86176">
        <ele>185</ele>
        <time>2012-10-07T08:05:20Z</time>
      </trkpt>
      <trkpt lat="44.60064" lon="0.86177">
        <ele>188</ele>
        <time>2012-10-07T08:05:30Z</time>
      </trkpt>
      <trkpt lat="44.60062" lon="0.86176">
        <ele>188</ele>
        <time>2012-10-07T08:05:42Z</time>
      </trkpt>
      <trkpt lat="44.60064" lon="0.86177">
        <ele>188</ele>
        <time>2012-10-07T08:05:50Z</time>
      </trkpt>
      <trkpt lat="44.60073" lon="0.86169">
        <ele>188</ele>
        <time>2012-10-07T08:05:55Z</time>
      </trkpt>
      <trkpt lat="44.60091" lon="0.8616">
        <ele>188</ele>
        <time>2012-10-07T08:06:00Z</time>
      </trkpt>
      <trkpt lat="44.6011" lon="0.86152">
        <ele>186</ele>
        <time>2012-10-07T08:06:05Z</time>
      </trkpt>
      <trkpt lat="44.60126" lon="0.86144">
        <ele>185</ele>
        <time>2012-10-07T08:06:10Z</time>
      </trkpt>
      <trkpt lat="44.60146" lon="0.86136">
        <ele>184</ele>
        <time>2012-10-07T08:06:15Z</time>
      </trkpt>
      <trkpt lat="44.6016" lon="0.8613">
        <ele>183</ele>
        <time>2012-10-07T08:06:20Z</time>
      </trkpt>
      <trkpt lat="44.60172" lon="0.86124">
        <ele>183</ele>
        <time>2012-10-07T08:06:25Z</time>
      </trkpt>
      <trkpt lat="44.60183" lon="0.86121">
        <ele>183</ele>
        <time>2012-10-07T08:06:30Z</time>
      </trkpt>
      <trkpt lat="44.60191" lon="0.86126">
        <ele>183</ele>
        <time>2012-10-07T08:06:40Z</time>
      </trkpt>
      <trkpt lat="44.60197" lon="0.86128">
        <ele>184</ele>
        <time>2012-10-07T08:06:45Z</time>
      </trkpt>
      <trkpt lat="44.60198" lon="0.86128">
        <ele>186</ele>
        <time>2012-10-07T08:06:54Z</time>
      </trkpt>
      <trkpt lat="44.60194" lon="0.86126">
        <ele>187</ele>
        <time>2012-10-07T08:07:04Z</time>
      </trkpt>
      <trkpt lat="44.60189" lon="0.86124">
        <ele>187</ele>
        <time>2012-10-07T08:07:11Z</time>
      </trkpt>
      <trkpt lat="44.60189" lon="0.86124">
        <ele>188</ele>
        <time>2012-10-07T08:07:18Z</time>
      </trkpt>
      <trkpt lat="44.60194" lon="0.86125">
        <ele>188</ele>
        <time>2012-10-07T08:07:30Z</time>
      </trkpt>
      <trkpt lat="44.60193" lon="0.86126">
        <ele>188</ele>
        <time>2012-10-07T08:07:44Z</time>
      </trkpt>
      <trkpt lat="44.60192" lon="0.86126">
        <ele>188</ele>
        <time>2012-10-07T08:07:50Z</time>
      </trkpt>
      <trkpt lat="44.60191" lon="0.86125">
        <ele>191</ele>
        <time>2012-10-07T08:08:04Z</time>
      </trkpt>
      <trkpt lat="44.60189" lon="0.86124">
        <ele>193</ele>
        <time>2012-10-07T08:08:16Z</time>
      </trkpt>
      <trkpt lat="44.6019" lon="0.86125">
        <ele>193</ele>
        <time>2012-10-07T08:08:34Z</time>
      </trkpt>
      <trkpt lat="44.60191" lon="0.86127">
        <ele>192</ele>
        <time>2012-10-07T08:08:41Z</time>
      </trkpt>
      <trkpt lat="44.60196" lon="0.86129">
        <ele>185</ele>
        <time>2012-10-07T08:08:48Z</time>
      </trkpt>
      <trkpt lat="44.60198" lon="0.86127">
        <ele>182</ele>
        <time>2012-10-07T08:08:54Z</time>
      </trkpt>
      <trkpt lat="44.60199" lon="0.86115">
        <ele>180</ele>
        <time>2012-10-07T08:08:59Z</time>
      </trkpt>
      <trkpt lat="44.60202" lon="0.86098">
        <ele>180</ele>
        <time>2012-10-07T08:09:04Z</time>
      </trkpt>
      <trkpt lat="44.60207" lon="0.8608">
        <ele>180</ele>
        <time>2012-10-07T08:09:09Z</time>
      </trkpt>
      <trkpt lat="44.60209" lon="0.86057">
        <ele>180</ele>
        <time>2012-10-07T08:09:14Z</time>
      </trkpt>
      <trkpt lat="44.60207" lon="0.86039">
        <ele>180</ele>
        <time>2012-10-07T08:09:19Z</time>
      </trkpt>
      <trkpt lat="44.60205" lon="0.86019">
        <ele>180</ele>
        <time>2012-10-07T08:09:24Z</time>
      </trkpt>
      <trkpt lat="44.60206" lon="0.85999">
        <ele>183</ele>
        <time>2012-10-07T08:09:29Z</time>
      </trkpt>
      <trkpt lat="44.6021" lon="0.8598">
        <ele>185</ele>
        <time>2012-10-07T08:09:34Z</time>
      </trkpt>
      <trkpt lat="44.60215" lon="0.85964">
        <ele>185</ele>
        <time>2012-10-07T08:09:39Z</time>
      </trkpt>
      <trkpt lat="44.60222" lon="0.85942">
        <ele>189</ele>
        <time>2012-10-07T08:09:44Z</time>
      </trkpt>
      <trkpt lat="44.6023" lon="0.85922">
        <ele>190</ele>
        <time>2012-10-07T08:09:49Z</time>
      </trkpt>
      <trkpt lat="44.60238" lon="0.85904">
        <ele>190</ele>
        <time>2012-10-07T08:09:54Z</time>
      </trkpt>
      <trkpt lat="44.60247" lon="0.85886">
        <ele>190</ele>
        <time>2012-10-07T08:09:59Z</time>
      </trkpt>
      <trkpt lat="44.60255" lon="0.85864">
        <ele>188</ele>
        <time>2012-10-07T08:10:04Z</time>
      </trkpt>
      <trkpt lat="44.60263" lon="0.85847">
        <ele>185</ele>
        <time>2012-10-07T08:10:09Z</time>
      </trkpt>
      <trkpt lat="44.6027" lon="0.8583">
        <ele>183</ele>
        <time>2012-10-07T08:10:14Z</time>
      </trkpt>
      <trkpt lat="44.60282" lon="0.85822">
        <ele>183</ele>
        <time>2012-10-07T08:10:19Z</time>
      </trkpt>
      <trkpt lat="44.60297" lon="0.85822">
        <ele>183</ele>
        <time>2012-10-07T08:10:24Z</time>
      </trkpt>
      <trkpt lat="44.60317" lon="0.85823">
        <ele>183</ele>
        <time>2012-10-07T08:10:29Z</time>
      </trkpt>
      <trkpt lat="44.60342" lon="0.85825">
        <ele>182</ele>
        <time>2012-10-07T08:10:34Z</time>
      </trkpt>
      <trkpt lat="44.60373" lon="0.85829">
        <ele>179</ele>
        <time>2012-10-07T08:10:39Z</time>
      </trkpt>
      <trkpt lat="44.60407" lon="0.85835">
        <ele>178</ele>
        <time>2012-10-07T08:10:44Z</time>
      </trkpt>
      <trkpt lat="44.60439" lon="0.85846">
        <ele>178</ele>
        <time>2012-10-07T08:10:49Z</time>
      </trkpt>
      <trkpt lat="44.60469" lon="0.85858">
        <ele>178</ele>
        <time>2012-10-07T08:10:54Z</time>
      </trkpt>
      <trkpt lat="44.60494" lon="0.85864">
        <ele>178</ele>
        <time>2012-10-07T08:10:59Z</time>
      </trkpt>
      <trkpt lat="44.60522" lon="0.85865">
        <ele>178</ele>
        <time>2012-10-07T08:11:04Z</time>
      </trkpt>
      <trkpt lat="44.60551" lon="0.85867">
        <ele>176</ele>
        <time>2012-10-07T08:11:09Z</time>
      </trkpt>
      <trkpt lat="44.60581" lon="0.85871">
        <ele>175</ele>
        <time>2012-10-07T08:11:14Z</time>
      </trkpt>
      <trkpt lat="44.60611" lon="0.85876">
        <ele>175</ele>
        <time>2012-10-07T08:11:19Z</time>
      </trkpt>
      <trkpt lat="44.60641" lon="0.85883">
        <ele>175</ele>
        <time>2012-10-07T08:11:24Z</time>
      </trkpt>
      <trkpt lat="44.60671" lon="0.85892">
        <ele>174</ele>
        <time>2012-10-07T08:11:29Z</time>
      </trkpt>
      <trkpt lat="44.607" lon="0.85897">
        <ele>174</ele>
        <time>2012-10-07T08:11:34Z</time>
      </trkpt>
      <trkpt lat="44.60728" lon="0.859">
        <ele>174</ele>
        <time>2012-10-07T08:11:39Z</time>
      </trkpt>
      <trkpt lat="44.60753" lon="0.85902">
        <ele>174</ele>
        <time>2012-10-07T08:11:44Z</time>
      </trkpt>
      <trkpt lat="44.60777" lon="0.85904">
        <ele>174</ele>
        <time>2012-10-07T08:11:49Z</time>
      </trkpt>
      <trkpt lat="44.608" lon="0.85906">
        <ele>174</ele>
        <time>2012-10-07T08:11:54Z</time>
      </trkpt>
      <trkpt lat="44.60824" lon="0.85904">
        <ele>174</ele>
        <time>2012-10-07T08:11:59Z</time>
      </trkpt>
      <trkpt lat="44.60847" lon="0.85903">
        <ele>174</ele>
        <time>2012-10-07T08:12:04Z</time>
      </trkpt>
      <trkpt lat="44.60869" lon="0.85905">
        <ele>176</ele>
        <time>2012-10-07T08:12:09Z</time>
      </trkpt>
      <trkpt lat="44.60892" lon="0.85914">
        <ele>178</ele>
        <time>2012-10-07T08:12:14Z</time>
      </trkpt>
      <trkpt lat="44.60912" lon="0.85926">
        <ele>178</ele>
        <time>2012-10-07T08:12:19Z</time>
      </trkpt>
      <trkpt lat="44.60926" lon="0.85938">
        <ele>178</ele>
        <time>2012-10-07T08:12:24Z</time>
      </trkpt>
      <trkpt lat="44.6094" lon="0.85948">
        <ele>178</ele>
        <time>2012-10-07T08:12:29Z</time>
      </trkpt>
      <trkpt lat="44.60952" lon="0.85957">
        <ele>179</ele>
        <time>2012-10-07T08:12:34Z</time>
      </trkpt>
      <trkpt lat="44.60964" lon="0.85966">
        <ele>179</ele>
        <time>2012-10-07T08:12:39Z</time>
      </trkpt>
      <trkpt lat="44.60974" lon="0.85976">
        <ele>179</ele>
        <time>2012-10-07T08:12:44Z</time>
      </trkpt>
      <trkpt lat="44.60983" lon="0.8599">
        <ele>180</ele>
        <time>2012-10-07T08:12:49Z</time>
      </trkpt>
      <trkpt lat="44.60992" lon="0.86004">
        <ele>182</ele>
        <time>2012-10-07T08:12:54Z</time>
      </trkpt>
      <trkpt lat="44.61" lon="0.86019">
        <ele>182</ele>
        <time>2012-10-07T08:12:59Z</time>
      </trkpt>
      <trkpt lat="44.61008" lon="0.86037">
        <ele>183</ele>
        <time>2012-10-07T08:13:04Z</time>
      </trkpt>
      <trkpt lat="44.61018" lon="0.86056">
        <ele>184</ele>
        <time>2012-10-07T08:13:09Z</time>
      </trkpt>
      <trkpt lat="44.61027" lon="0.86076">
        <ele>185</ele>
        <time>2012-10-07T08:13:14Z</time>
      </trkpt>
      <trkpt lat="44.61039" lon="0.86098">
        <ele>185</ele>
        <time>2012-10-07T08:13:19Z</time>
      </trkpt>
      <trkpt lat="44.6105" lon="0.86124">
        <ele>185</ele>
        <time>2012-10-07T08:13:24Z</time>
      </trkpt>
      <trkpt lat="44.61062" lon="0.86154">
        <ele>185</ele>
        <time>2012-10-07T08:13:29Z</time>
      </trkpt>
      <trkpt lat="44.61073" lon="0.86187">
        <ele>184</ele>
        <time>2012-10-07T08:13:34Z</time>
      </trkpt>
      <trkpt lat="44.61083" lon="0.86213">
        <ele>182</ele>
        <time>2012-10-07T08:13:39Z</time>
      </trkpt>
      <trkpt lat="44.61086" lon="0.86227">
        <ele>182</ele>
        <time>2012-10-07T08:13:50Z</time>
      </trkpt>
      <trkpt lat="44.61085" lon="0.86227">
        <ele>182</ele>
        <time>2012-10-07T08:13:56Z</time>
      </trkpt>
      <trkpt lat="44.61086" lon="0.86227">
        <ele>182</ele>
        <time>2012-10-07T08:14:28Z</time>
      </trkpt>
      <trkpt lat="44.61087" lon="0.86227">
        <ele>182</ele>
        <time>2012-10-07T08:14:48Z</time>
      </trkpt>
      <trkpt lat="44.61088" lon="0.86228">
        <ele>182</ele>
        <time>2012-10-07T08:14:54Z</time>
      </trkpt>
      <trkpt lat="44.61089" lon="0.86229">
        <ele>182</ele>
        <time>2012-10-07T08:14:59Z</time>
      </trkpt>
      <trkpt lat="44.61089" lon="0.8623">
        <ele>182</ele>
        <time>2012-10-07T08:15:05Z</time>
      </trkpt>
      <trkpt lat="44.6109" lon="0.86232">
        <ele>180</ele>
        <time>2012-10-07T08:15:17Z</time>
      </trkpt>
      <trkpt lat="44.61091" lon="0.8623">
        <ele>179</ele>
        <time>2012-10-07T08:15:31Z</time>
      </trkpt>
      <trkpt lat="44.61089" lon="0.8623">
        <ele>182</ele>
        <time>2012-10-07T08:16:04Z</time>
      </trkpt>
      <trkpt lat="44.61092" lon="0.86239">
        <ele>182</ele>
        <time>2012-10-07T08:16:09Z</time>
      </trkpt>
      <trkpt lat="44.61104" lon="0.86264">
        <ele>182</ele>
        <time>2012-10-07T08:16:14Z</time>
      </trkpt>
      <trkpt lat="44.61121" lon="0.86287">
        <ele>183</ele>
        <time>2012-10-07T08:16:19Z</time>
      </trkpt>
      <trkpt lat="44.61148" lon="0.8631">
        <ele>183</ele>
        <time>2012-10-07T08:16:24Z</time>
      </trkpt>
      <trkpt lat="44.61179" lon="0.86338">
        <ele>183</ele>
        <time>2012-10-07T08:16:29Z</time>
      </trkpt>
      <trkpt lat="44.61212" lon="0.86368">
        <ele>180</ele>
        <time>2012-10-07T08:16:34Z</time>
      </trkpt>
      <trkpt lat="44.6124" lon="0.86396">
        <ele>180</ele>
        <time>2012-10-07T08:16:39Z</time>
      </trkpt>
      <trkpt lat="44.61265" lon="0.86419">
        <ele>180</ele>
        <time>2012-10-07T08:16:44Z</time>
      </trkpt>
      <trkpt lat="44.61288" lon="0.86439">
        <ele>181</ele>
        <time>2012-10-07T08:16:49Z</time>
      </trkpt>
      <trkpt lat="44.61312" lon="0.86461">
        <ele>183</ele>
        <time>2012-10-07T08:16:54Z</time>
      </trkpt>
      <trkpt lat="44.61336" lon="0.86484">
        <ele>183</ele>
        <time>2012-10-07T08:16:59Z</time>
      </trkpt>
      <trkpt lat="44.61359" lon="0.86505">
        <ele>183</ele>
        <time>2012-10-07T08:17:04Z</time>
      </trkpt>
      <trkpt lat="44.61382" lon="0.86528">
        <ele>183</ele>
        <time>2012-10-07T08:17:09Z</time>
      </trkpt>
      <trkpt lat="44.61405" lon="0.86553">
        <ele>183</ele>
        <time>2012-10-07T08:17:14Z</time>
      </trkpt>
      <trkpt lat="44.61426" lon="0.86577">
        <ele>183</ele>
        <time>2012-10-07T08:17:19Z</time>
      </trkpt>
      <trkpt lat="44.61446" lon="0.86601">
        <ele>183</ele>
        <time>2012-10-07T08:17:24Z</time>
      </trkpt>
      <trkpt lat="44.61465" lon="0.86621">
        <ele>183</ele>
        <time>2012-10-07T08:17:29Z</time>
      </trkpt>
      <trkpt lat="44.61483" lon="0.86642">
        <ele>183</ele>
        <time>2012-10-07T08:17:34Z</time>
      </trkpt>
      <trkpt lat="44.615" lon="0.8666">
        <ele>183</ele>
        <time>2012-10-07T08:17:39Z</time>
      </trkpt>
      <trkpt lat="44.61516" lon="0.86677">
        <ele>183</ele>
        <time>2012-10-07T08:17:44Z</time>
      </trkpt>
      <trkpt lat="44.61532" lon="0.86696">
        <ele>185</ele>
        <time>2012-10-07T08:17:49Z</time>
      </trkpt>
      <trkpt lat="44.6155" lon="0.86718">
        <ele>187</ele>
        <time>2012-10-07T08:17:54Z</time>
      </trkpt>
      <trkpt lat="44.61567" lon="0.86742">
        <ele>187</ele>
        <time>2012-10-07T08:17:59Z</time>
      </trkpt>
      <trkpt lat="44.61588" lon="0.86757">
        <ele>187</ele>
        <time>2012-10-07T08:18:04Z</time>
      </trkpt>
      <trkpt lat="44.61611" lon="0.86762">
        <ele>187</ele>
        <time>2012-10-07T08:18:09Z</time>
      </trkpt>
      <trkpt lat="44.61631" lon="0.86764">
        <ele>187</ele>
        <time>2012-10-07T08:18:14Z</time>
      </trkpt>
      <trkpt lat="44.61651" lon="0.86765">
        <ele>187</ele>
        <time>2012-10-07T08:18:19Z</time>
      </trkpt>
      <trkpt lat="44.61672" lon="0.86766">
        <ele>187</ele>
        <time>2012-10-07T08:18:24Z</time>
      </trkpt>
      <trkpt lat="44.61692" lon="0.86767">
        <ele>187</ele>
        <time>2012-10-07T08:18:29Z</time>
      </trkpt>
      <trkpt lat="44.61714" lon="0.86769">
        <ele>187</ele>
        <time>2012-10-07T08:18:34Z</time>
      </trkpt>
      <trkpt lat="44.61737" lon="0.86771">
        <ele>187</ele>
        <time>2012-10-07T08:18:39Z</time>
      </trkpt>
      <trkpt lat="44.61765" lon="0.86776">
        <ele>187</ele>
        <time>2012-10-07T08:18:44Z</time>
      </trkpt>
      <trkpt lat="44.61791" lon="0.86808">
        <ele>187</ele>
        <time>2012-10-07T08:18:49Z</time>
      </trkpt>
      <trkpt lat="44.61803" lon="0.86862">
        <ele>183</ele>
        <time>2012-10-07T08:18:54Z</time>
      </trkpt>
      <trkpt lat="44.61829" lon="0.86905">
        <ele>179</ele>
        <time>2012-10-07T08:18:59Z</time>
      </trkpt>
      <trkpt lat="44.61861" lon="0.86935">
        <ele>179</ele>
        <time>2012-10-07T08:19:04Z</time>
      </trkpt>
      <trkpt lat="44.61885" lon="0.86953">
        <ele>179</ele>
        <time>2012-10-07T08:19:09Z</time>
      </trkpt>
      <trkpt lat="44.61906" lon="0.86965">
        <ele>179</ele>
        <time>2012-10-07T08:19:14Z</time>
      </trkpt>
      <trkpt lat="44.61923" lon="0.86975">
        <ele>181</ele>
        <time>2012-10-07T08:19:19Z</time>
      </trkpt>
      <trkpt lat="44.61942" lon="0.86985">
        <ele>184</ele>
        <time>2012-10-07T08:19:24Z</time>
      </trkpt>
      <trkpt lat="44.61962" lon="0.86996">
        <ele>188</ele>
        <time>2012-10-07T08:19:29Z</time>
      </trkpt>
      <trkpt lat="44.61982" lon="0.87008">
        <ele>192</ele>
        <time>2012-10-07T08:19:34Z</time>
      </trkpt>
      <trkpt lat="44.62004" lon="0.87019">
        <ele>194</ele>
        <time>2012-10-07T08:19:39Z</time>
      </trkpt>
      <trkpt lat="44.62026" lon="0.8703">
        <ele>198</ele>
        <time>2012-10-07T08:19:44Z</time>
      </trkpt>
      <trkpt lat="44.62048" lon="0.87041">
        <ele>198</ele>
        <time>2012-10-07T08:19:49Z</time>
      </trkpt>
      <trkpt lat="44.62068" lon="0.8705">
        <ele>198</ele>
        <time>2012-10-07T08:19:54Z</time>
      </trkpt>
      <trkpt lat="44.62091" lon="0.87057">
        <ele>197</ele>
        <time>2012-10-07T08:19:59Z</time>
      </trkpt>
      <trkpt lat="44.62117" lon="0.87061">
        <ele>197</ele>
        <time>2012-10-07T08:20:04Z</time>
      </trkpt>
      <trkpt lat="44.62143" lon="0.87063">
        <ele>197</ele>
        <time>2012-10-07T08:20:09Z</time>
      </trkpt>
      <trkpt lat="44.6217" lon="0.87066">
        <ele>196</ele>
        <time>2012-10-07T08:20:14Z</time>
      </trkpt>
      <trkpt lat="44.62197" lon="0.8707">
        <ele>194</ele>
        <time>2012-10-07T08:20:19Z</time>
      </trkpt>
      <trkpt lat="44.62227" lon="0.87076">
        <ele>192</ele>
        <time>2012-10-07T08:20:24Z</time>
      </trkpt>
      <trkpt lat="44.62259" lon="0.87084">
        <ele>189</ele>
        <time>2012-10-07T08:20:29Z</time>
      </trkpt>
      <trkpt lat="44.62292" lon="0.87093">
        <ele>186</ele>
        <time>2012-10-07T08:20:34Z</time>
      </trkpt>
      <trkpt lat="44.62323" lon="0.87104">
        <ele>185</ele>
        <time>2012-10-07T08:20:39Z</time>
      </trkpt>
      <trkpt lat="44.62357" lon="0.87115">
        <ele>185</ele>
        <time>2012-10-07T08:20:44Z</time>
      </trkpt>
      <trkpt lat="44.62392" lon="0.87125">
        <ele>185</ele>
        <time>2012-10-07T08:20:49Z</time>
      </trkpt>
      <trkpt lat="44.62428" lon="0.87134">
        <ele>185</ele>
        <time>2012-10-07T08:20:54Z</time>
      </trkpt>
      <trkpt lat="44.62459" lon="0.87144">
        <ele>185</ele>
        <time>2012-10-07T08:20:59Z</time>
      </trkpt>
      <trkpt lat="44.62482" lon="0.87154">
        <ele>184</ele>
        <time>2012-10-07T08:21:04Z</time>
      </trkpt>
      <trkpt lat="44.62503" lon="0.87172">
        <ele>184</ele>
        <time>2012-10-07T08:21:09Z</time>
      </trkpt>
      <trkpt lat="44.62522" lon="0.87192">
        <ele>184</ele>
        <time>2012-10-07T08:21:14Z</time>
      </trkpt>
      <trkpt lat="44.62539" lon="0.8721">
        <ele>184</ele>
        <time>2012-10-07T08:21:19Z</time>
      </trkpt>
      <trkpt lat="44.62555" lon="0.87227">
        <ele>184</ele>
        <time>2012-10-07T08:21:24Z</time>
      </trkpt>
      <trkpt lat="44.62571" lon="0.87243">
        <ele>184</ele>
        <time>2012-10-07T08:21:29Z</time>
      </trkpt>
      <trkpt lat="44.62585" lon="0.8726">
        <ele>184</ele>
        <time>2012-10-07T08:21:34Z</time>
      </trkpt>
      <trkpt lat="44.62601" lon="0.87276">
        <ele>184</ele>
        <time>2012-10-07T08:21:39Z</time>
      </trkpt>
      <trkpt lat="44.62613" lon="0.87286">
        <ele>184</ele>
        <time>2012-10-07T08:21:44Z</time>
      </trkpt>
      <trkpt lat="44.62616" lon="0.87283">
        <ele>175</ele>
        <time>2012-10-07T08:22:04Z</time>
      </trkpt>
      <trkpt lat="44.62615" lon="0.87286">
        <ele>174</ele>
        <time>2012-10-07T08:22:10Z</time>
      </trkpt>
      <trkpt lat="44.62616" lon="0.87284">
        <ele>172</ele>
        <time>2012-10-07T08:22:18Z</time>
      </trkpt>
      <trkpt lat="44.62617" lon="0.87283">
        <ele>172</ele>
        <time>2012-10-07T08:22:24Z</time>
      </trkpt>
      <trkpt lat="44.62617" lon="0.87281">
        <ele>172</ele>
        <time>2012-10-07T08:22:38Z</time>
      </trkpt>
      <trkpt lat="44.62617" lon="0.87281">
        <ele>173</ele>
        <time>2012-10-07T08:22:59Z</time>
      </trkpt>
      <trkpt lat="44.62616" lon="0.87284">
        <ele>177</ele>
        <time>2012-10-07T08:23:06Z</time>
      </trkpt>
      <trkpt lat="44.62616" lon="0.87281">
        <ele>180</ele>
        <time>2012-10-07T08:23:14Z</time>
      </trkpt>
      <trkpt lat="44.62615" lon="0.87283">
        <ele>182</ele>
        <time>2012-10-07T08:23:32Z</time>
      </trkpt>
      <trkpt lat="44.62614" lon="0.87286">
        <ele>182</ele>
        <time>2012-10-07T08:23:38Z</time>
      </trkpt>
      <trkpt lat="44.62614" lon="0.8729">
        <ele>182</ele>
        <time>2012-10-07T08:23:44Z</time>
      </trkpt>
      <trkpt lat="44.62614" lon="0.87292">
        <ele>182</ele>
        <time>2012-10-07T08:23:49Z</time>
      </trkpt>
      <trkpt lat="44.62615" lon="0.87288">
        <ele>182</ele>
        <time>2012-10-07T08:23:55Z</time>
      </trkpt>
      <trkpt lat="44.62622" lon="0.8727">
        <ele>182</ele>
        <time>2012-10-07T08:24:00Z</time>
      </trkpt>
      <trkpt lat="44.62642" lon="0.87257">
        <ele>182</ele>
        <time>2012-10-07T08:24:05Z</time>
      </trkpt>
      <trkpt lat="44.6267" lon="0.87262">
        <ele>182</ele>
        <time>2012-10-07T08:24:10Z</time>
      </trkpt>
      <trkpt lat="44.62695" lon="0.87265">
        <ele>182</ele>
        <time>2012-10-07T08:24:15Z</time>
      </trkpt>
      <trkpt lat="44.62715" lon="0.87271">
        <ele>182</ele>
        <time>2012-10-07T08:24:20Z</time>
      </trkpt>
      <trkpt lat="44.62735" lon="0.87284">
        <ele>182</ele>
        <time>2012-10-07T08:24:25Z</time>
      </trkpt>
      <trkpt lat="44.62754" lon="0.87299">
        <ele>182</ele>
        <time>2012-10-07T08:24:30Z</time>
      </trkpt>
      <trkpt lat="44.62771" lon="0.87316">
        <ele>183</ele>
        <time>2012-10-07T08:24:35Z</time>
      </trkpt>
      <trkpt lat="44.6279" lon="0.87329">
        <ele>183</ele>
        <time>2012-10-07T08:24:40Z</time>
      </trkpt>
      <trkpt lat="44.6281" lon="0.87334">
        <ele>183</ele>
        <time>2012-10-07T08:24:45Z</time>
      </trkpt>
      <trkpt lat="44.62837" lon="0.87339">
        <ele>183</ele>
        <time>2012-10-07T08:24:50Z</time>
      </trkpt>
      <trkpt lat="44.62862" lon="0.8734">
        <ele>182</ele>
        <time>2012-10-07T08:24:55Z</time>
      </trkpt>
      <trkpt lat="44.62888" lon="0.87318">
        <ele>180</ele>
        <time>2012-10-07T08:25:00Z</time>
      </trkpt>
      <trkpt lat="44.62912" lon="0.87307">
        <ele>180</ele>
        <time>2012-10-07T08:25:05Z</time>
      </trkpt>
      <trkpt lat="44.6293" lon="0.87306">
        <ele>180</ele>
        <time>2012-10-07T08:25:10Z</time>
      </trkpt>
      <trkpt lat="44.62946" lon="0.87302">
        <ele>180</ele>
        <time>2012-10-07T08:25:15Z</time>
      </trkpt>
      <trkpt lat="44.62965" lon="0.87292">
        <ele>181</ele>
        <time>2012-10-07T08:25:20Z</time>
      </trkpt>
      <trkpt lat="44.62981" lon="0.87298">
        <ele>182</ele>
        <time>2012-10-07T08:25:25Z</time>
      </trkpt>
      <trkpt lat="44.62996" lon="0.87307">
        <ele>185</ele>
        <time>2012-10-07T08:25:30Z</time>
      </trkpt>
      <trkpt lat="44.63011" lon="0.87318">
        <ele>187</ele>
        <time>2012-10-07T08:25:35Z</time>
      </trkpt>
      <trkpt lat="44.63023" lon="0.87327">
        <ele>191</ele>
        <time>2012-10-07T08:25:40Z</time>
      </trkpt>
      <trkpt lat="44.63034" lon="0.87335">
        <ele>196</ele>
        <time>2012-10-07T08:25:45Z</time>
      </trkpt>
      <trkpt lat="44.63054" lon="0.87327">
        <ele>201</ele>
        <time>2012-10-07T08:25:51Z</time>
      </trkpt>
      <trkpt lat="44.63065" lon="0.87312">
        <ele>201</ele>
        <time>2012-10-07T08:25:56Z</time>
      </trkpt>
      <trkpt lat="44.63069" lon="0.87305">
        <ele>201</ele>
        <time>2012-10-07T08:26:02Z</time>
      </trkpt>
      <trkpt lat="44.63072" lon="0.87285">
        <ele>199</ele>
        <time>2012-10-07T08:26:07Z</time>
      </trkpt>
      <trkpt lat="44.63073" lon="0.87262">
        <ele>199</ele>
        <time>2012-10-07T08:26:12Z</time>
      </trkpt>
      <trkpt lat="44.63077" lon="0.8723">
        <ele>199</ele>
        <time>2012-10-07T08:26:18Z</time>
      </trkpt>
      <trkpt lat="44.63079" lon="0.87204">
        <ele>199</ele>
        <time>2012-10-07T08:26:23Z</time>
      </trkpt>
      <trkpt lat="44.63085" lon="0.87179">
        <ele>197</ele>
        <time>2012-10-07T08:26:29Z</time>
      </trkpt>
      <trkpt lat="44.63088" lon="0.87162">
        <ele>196</ele>
        <time>2012-10-07T08:26:34Z</time>
      </trkpt>
      <trkpt lat="44.63086" lon="0.87152">
        <ele>196</ele>
        <time>2012-10-07T08:26:39Z</time>
      </trkpt>
      <trkpt lat="44.63085" lon="0.87152">
        <ele>196</ele>
        <time>2012-10-07T08:26:45Z</time>
      </trkpt>
    </trkseg>
  </trk>
</gpx>